<?xml version="1.0" encoding="UTF-8" standalone="no" ?>
<gpx xmlns="http://www.topografix.com/GPX/1/1" xmlns:xsi="http://www.w3.org/2001/XMLSchema-instance" xsi:schemaLocation="http://www.topografix.com/GPX/1/1 http://www.topografix.com/GPX/1/1/gpx.xsd" version="1.1" creator="VisuGPX - https://www.visugpx.com">
  <metadata>
    <name>CARREFOUR DE LUYNES 11</name>
  </metadata>
  <trk>
    <name><![CDATA[CARREFOUR DE LUYNES 11]]></name>
    <trkseg>
      <trkpt lat="48.59171" lon="1.96567">
        <ele>55.89</ele>
        <time>2018-06-14T07:06:21Z</time>
      </trkpt>
      <trkpt lat="48.59172" lon="1.9656">
        <ele>55.89</ele>
        <time>2018-06-14T07:06:22Z</time>
      </trkpt>
      <trkpt lat="48.59173" lon="1.96605">
        <ele>59.74</ele>
        <time>2018-06-14T07:06:33Z</time>
      </trkpt>
      <trkpt lat="48.59172" lon="1.96608">
        <ele>63.1</ele>
        <time>2018-06-14T07:06:35Z</time>
      </trkpt>
      <trkpt lat="48.59172" lon="1.96608">
        <ele>66.47</ele>
        <time>2018-06-14T07:06:37Z</time>
      </trkpt>
      <trkpt lat="48.59172" lon="1.96607">
        <ele>69.83</ele>
        <time>2018-06-14T07:06:39Z</time>
      </trkpt>
      <trkpt lat="48.59171" lon="1.96608">
        <ele>73.2</ele>
        <time>2018-06-14T07:06:41Z</time>
      </trkpt>
      <trkpt lat="48.59171" lon="1.96607">
        <ele>76.56</ele>
        <time>2018-06-14T07:06:43Z</time>
      </trkpt>
      <trkpt lat="48.5917" lon="1.96607">
        <ele>80.41</ele>
        <time>2018-06-14T07:06:46Z</time>
      </trkpt>
      <trkpt lat="48.5917" lon="1.96607">
        <ele>83.77</ele>
        <time>2018-06-14T07:06:49Z</time>
      </trkpt>
      <trkpt lat="48.5917" lon="1.96606">
        <ele>87.14</ele>
        <time>2018-06-14T07:06:52Z</time>
      </trkpt>
      <trkpt lat="48.59169" lon="1.96605">
        <ele>90.5</ele>
        <time>2018-06-14T07:06:55Z</time>
      </trkpt>
      <trkpt lat="48.59168" lon="1.96606">
        <ele>93.87</ele>
        <time>2018-06-14T07:06:59Z</time>
      </trkpt>
      <trkpt lat="48.59167" lon="1.96607">
        <ele>97.23</ele>
        <time>2018-06-14T07:07:04Z</time>
      </trkpt>
      <trkpt lat="48.59167" lon="1.96608">
        <ele>98.19</ele>
        <time>2018-06-14T07:07:06Z</time>
      </trkpt>
      <trkpt lat="48.5917" lon="1.96612">
        <ele>100.6</ele>
        <time>2018-06-14T07:07:27Z</time>
      </trkpt>
      <trkpt lat="48.59173" lon="1.96614">
        <ele>100.6</ele>
        <time>2018-06-14T07:07:46Z</time>
      </trkpt>
      <trkpt lat="48.59172" lon="1.96617">
        <ele>100.6</ele>
        <time>2018-06-14T07:08:02Z</time>
      </trkpt>
      <trkpt lat="48.59171" lon="1.96611">
        <ele>100.6</ele>
        <time>2018-06-14T07:08:16Z</time>
      </trkpt>
      <trkpt lat="48.59172" lon="1.96608">
        <ele>100.6</ele>
        <time>2018-06-14T07:08:32Z</time>
      </trkpt>
      <trkpt lat="48.59171" lon="1.96608">
        <ele>100.6</ele>
        <time>2018-06-14T07:08:51Z</time>
      </trkpt>
      <trkpt lat="48.59171" lon="1.96609">
        <ele>100.6</ele>
        <time>2018-06-14T07:09:12Z</time>
      </trkpt>
      <trkpt lat="48.5917" lon="1.96609">
        <ele>100.6</ele>
        <time>2018-06-14T07:09:32Z</time>
      </trkpt>
      <trkpt lat="48.5917" lon="1.96605">
        <ele>100.6</ele>
        <time>2018-06-14T07:09:53Z</time>
      </trkpt>
      <trkpt lat="48.5917" lon="1.96605">
        <ele>101.08</ele>
        <time>2018-06-14T07:10:12Z</time>
      </trkpt>
      <trkpt lat="48.5917" lon="1.96606">
        <ele>100.6</ele>
        <time>2018-06-14T07:10:32Z</time>
      </trkpt>
      <trkpt lat="48.5917" lon="1.96605">
        <ele>101.08</ele>
        <time>2018-06-14T07:10:49Z</time>
      </trkpt>
      <trkpt lat="48.5917" lon="1.96605">
        <ele>100.6</ele>
        <time>2018-06-14T07:11:07Z</time>
      </trkpt>
      <trkpt lat="48.5917" lon="1.96605">
        <ele>101.56</ele>
        <time>2018-06-14T07:11:20Z</time>
      </trkpt>
      <trkpt lat="48.5917" lon="1.96605">
        <ele>101.08</ele>
        <time>2018-06-14T07:11:35Z</time>
      </trkpt>
      <trkpt lat="48.5917" lon="1.96605">
        <ele>101.08</ele>
        <time>2018-06-14T07:11:43Z</time>
      </trkpt>
      <trkpt lat="48.5917" lon="1.96605">
        <ele>101.08</ele>
        <time>2018-06-14T07:11:58Z</time>
      </trkpt>
      <trkpt lat="48.59169" lon="1.96606">
        <ele>101.08</ele>
        <time>2018-06-14T07:12:11Z</time>
      </trkpt>
      <trkpt lat="48.59169" lon="1.96606">
        <ele>101.56</ele>
        <time>2018-06-14T07:12:20Z</time>
      </trkpt>
      <trkpt lat="48.5917" lon="1.96606">
        <ele>101.08</ele>
        <time>2018-06-14T07:12:29Z</time>
      </trkpt>
      <trkpt lat="48.5917" lon="1.96609">
        <ele>101.56</ele>
        <time>2018-06-14T07:12:39Z</time>
      </trkpt>
      <trkpt lat="48.59169" lon="1.96611">
        <ele>101.56</ele>
        <time>2018-06-14T07:12:45Z</time>
      </trkpt>
      <trkpt lat="48.5917" lon="1.96609">
        <ele>101.56</ele>
        <time>2018-06-14T07:12:52Z</time>
      </trkpt>
      <trkpt lat="48.5917" lon="1.96609">
        <ele>101.56</ele>
        <time>2018-06-14T07:13:02Z</time>
      </trkpt>
      <trkpt lat="48.5917" lon="1.96609">
        <ele>101.08</ele>
        <time>2018-06-14T07:13:14Z</time>
      </trkpt>
      <trkpt lat="48.59171" lon="1.96606">
        <ele>101.56</ele>
        <time>2018-06-14T07:13:20Z</time>
      </trkpt>
      <trkpt lat="48.59172" lon="1.96609">
        <ele>101.56</ele>
        <time>2018-06-14T07:13:35Z</time>
      </trkpt>
      <trkpt lat="48.59173" lon="1.96608">
        <ele>101.56</ele>
        <time>2018-06-14T07:13:45Z</time>
      </trkpt>
      <trkpt lat="48.59173" lon="1.96608">
        <ele>101.56</ele>
        <time>2018-06-14T07:13:46Z</time>
      </trkpt>
      <trkpt lat="48.59178" lon="1.96603">
        <ele>101.56</ele>
        <time>2018-06-14T07:13:50Z</time>
      </trkpt>
      <trkpt lat="48.59181" lon="1.96598">
        <ele>102.04</ele>
        <time>2018-06-14T07:13:53Z</time>
      </trkpt>
      <trkpt lat="48.59187" lon="1.96591">
        <ele>102.52</ele>
        <time>2018-06-14T07:13:59Z</time>
      </trkpt>
      <trkpt lat="48.59196" lon="1.96577">
        <ele>102.52</ele>
        <time>2018-06-14T07:14:08Z</time>
      </trkpt>
      <trkpt lat="48.59203" lon="1.96561">
        <ele>103</ele>
        <time>2018-06-14T07:14:17Z</time>
      </trkpt>
      <trkpt lat="48.5921" lon="1.96558">
        <ele>103.48</ele>
        <time>2018-06-14T07:14:22Z</time>
      </trkpt>
      <trkpt lat="48.59217" lon="1.96554">
        <ele>103.48</ele>
        <time>2018-06-14T07:14:27Z</time>
      </trkpt>
      <trkpt lat="48.59225" lon="1.96543">
        <ele>104.44</ele>
        <time>2018-06-14T07:14:34Z</time>
      </trkpt>
      <trkpt lat="48.59234" lon="1.96529">
        <ele>105.4</ele>
        <time>2018-06-14T07:14:42Z</time>
      </trkpt>
      <trkpt lat="48.59234" lon="1.96527">
        <ele>105.88</ele>
        <time>2018-06-14T07:14:43Z</time>
      </trkpt>
      <trkpt lat="48.59238" lon="1.96522">
        <ele>106.36</ele>
        <time>2018-06-14T07:14:47Z</time>
      </trkpt>
      <trkpt lat="48.59246" lon="1.96513">
        <ele>107.32</ele>
        <time>2018-06-14T07:14:54Z</time>
      </trkpt>
      <trkpt lat="48.59255" lon="1.96499">
        <ele>108.29</ele>
        <time>2018-06-14T07:15:02Z</time>
      </trkpt>
      <trkpt lat="48.59258" lon="1.96491">
        <ele>109.25</ele>
        <time>2018-06-14T07:15:07Z</time>
      </trkpt>
      <trkpt lat="48.59259" lon="1.96489">
        <ele>109.25</ele>
        <time>2018-06-14T07:15:08Z</time>
      </trkpt>
      <trkpt lat="48.5927" lon="1.96481">
        <ele>111.17</ele>
        <time>2018-06-14T07:15:16Z</time>
      </trkpt>
      <trkpt lat="48.59277" lon="1.96477">
        <ele>110.69</ele>
        <time>2018-06-14T07:15:21Z</time>
      </trkpt>
      <trkpt lat="48.59287" lon="1.96479">
        <ele>112.13</ele>
        <time>2018-06-14T07:15:27Z</time>
      </trkpt>
      <trkpt lat="48.59303" lon="1.96486">
        <ele>113.57</ele>
        <time>2018-06-14T07:15:37Z</time>
      </trkpt>
      <trkpt lat="48.59305" lon="1.96487">
        <ele>114.53</ele>
        <time>2018-06-14T07:15:39Z</time>
      </trkpt>
      <trkpt lat="48.59315" lon="1.96492">
        <ele>115.98</ele>
        <time>2018-06-14T07:15:46Z</time>
      </trkpt>
      <trkpt lat="48.59324" lon="1.96498">
        <ele>115.98</ele>
        <time>2018-06-14T07:15:53Z</time>
      </trkpt>
      <trkpt lat="48.59335" lon="1.96506">
        <ele>116.46</ele>
        <time>2018-06-14T07:16:01Z</time>
      </trkpt>
      <trkpt lat="48.59343" lon="1.96518">
        <ele>116.94</ele>
        <time>2018-06-14T07:16:08Z</time>
      </trkpt>
      <trkpt lat="48.59352" lon="1.96527">
        <ele>117.9</ele>
        <time>2018-06-14T07:16:16Z</time>
      </trkpt>
      <trkpt lat="48.59359" lon="1.96534">
        <ele>118.38</ele>
        <time>2018-06-14T07:16:23Z</time>
      </trkpt>
      <trkpt lat="48.5937" lon="1.96543">
        <ele>119.34</ele>
        <time>2018-06-14T07:16:31Z</time>
      </trkpt>
      <trkpt lat="48.59381" lon="1.96551">
        <ele>120.78</ele>
        <time>2018-06-14T07:16:39Z</time>
      </trkpt>
      <trkpt lat="48.59391" lon="1.96557">
        <ele>121.74</ele>
        <time>2018-06-14T07:16:46Z</time>
      </trkpt>
      <trkpt lat="48.59393" lon="1.96561">
        <ele>121.74</ele>
        <time>2018-06-14T07:16:48Z</time>
      </trkpt>
      <trkpt lat="48.59399" lon="1.96571">
        <ele>123.19</ele>
        <time>2018-06-14T07:16:55Z</time>
      </trkpt>
      <trkpt lat="48.59406" lon="1.9658">
        <ele>124.15</ele>
        <time>2018-06-14T07:17:02Z</time>
      </trkpt>
      <trkpt lat="48.59413" lon="1.96592">
        <ele>126.07</ele>
        <time>2018-06-14T07:17:10Z</time>
      </trkpt>
      <trkpt lat="48.59417" lon="1.96596">
        <ele>127.03</ele>
        <time>2018-06-14T07:17:14Z</time>
      </trkpt>
      <trkpt lat="48.59423" lon="1.96598">
        <ele>127.03</ele>
        <time>2018-06-14T07:17:18Z</time>
      </trkpt>
      <trkpt lat="48.59429" lon="1.96603">
        <ele>127.51</ele>
        <time>2018-06-14T07:17:23Z</time>
      </trkpt>
      <trkpt lat="48.59434" lon="1.96614">
        <ele>128.47</ele>
        <time>2018-06-14T07:17:30Z</time>
      </trkpt>
      <trkpt lat="48.59435" lon="1.96618">
        <ele>128.47</ele>
        <time>2018-06-14T07:17:33Z</time>
      </trkpt>
      <trkpt lat="48.59435" lon="1.9662">
        <ele>128.95</ele>
        <time>2018-06-14T07:17:40Z</time>
      </trkpt>
      <trkpt lat="48.59435" lon="1.9662">
        <ele>128.47</ele>
        <time>2018-06-14T07:17:47Z</time>
      </trkpt>
      <trkpt lat="48.59435" lon="1.96624">
        <ele>128.47</ele>
        <time>2018-06-14T07:17:50Z</time>
      </trkpt>
      <trkpt lat="48.59434" lon="1.96626">
        <ele>128.47</ele>
        <time>2018-06-14T07:17:52Z</time>
      </trkpt>
      <trkpt lat="48.59431" lon="1.96629">
        <ele>127.99</ele>
        <time>2018-06-14T07:17:59Z</time>
      </trkpt>
      <trkpt lat="48.59431" lon="1.96629">
        <ele>128.47</ele>
        <time>2018-06-14T07:18:09Z</time>
      </trkpt>
      <trkpt lat="48.59432" lon="1.96628">
        <ele>128.47</ele>
        <time>2018-06-14T07:18:23Z</time>
      </trkpt>
      <trkpt lat="48.59432" lon="1.96627">
        <ele>128.95</ele>
        <time>2018-06-14T07:18:34Z</time>
      </trkpt>
      <trkpt lat="48.59432" lon="1.96628">
        <ele>128.47</ele>
        <time>2018-06-14T07:18:45Z</time>
      </trkpt>
      <trkpt lat="48.59431" lon="1.9663">
        <ele>128.95</ele>
        <time>2018-06-14T07:18:56Z</time>
      </trkpt>
      <trkpt lat="48.59424" lon="1.96647">
        <ele>128.47</ele>
        <time>2018-06-14T07:19:04Z</time>
      </trkpt>
      <trkpt lat="48.59422" lon="1.96652">
        <ele>128.47</ele>
        <time>2018-06-14T07:19:09Z</time>
      </trkpt>
      <trkpt lat="48.5942" lon="1.96655">
        <ele>128.47</ele>
        <time>2018-06-14T07:19:12Z</time>
      </trkpt>
      <trkpt lat="48.5941" lon="1.96672">
        <ele>128.95</ele>
        <time>2018-06-14T07:19:21Z</time>
      </trkpt>
      <trkpt lat="48.59406" lon="1.96683">
        <ele>128.95</ele>
        <time>2018-06-14T07:19:26Z</time>
      </trkpt>
      <trkpt lat="48.59402" lon="1.96692">
        <ele>128.47</ele>
        <time>2018-06-14T07:19:31Z</time>
      </trkpt>
      <trkpt lat="48.59397" lon="1.96704">
        <ele>128.95</ele>
        <time>2018-06-14T07:19:37Z</time>
      </trkpt>
      <trkpt lat="48.59388" lon="1.96718">
        <ele>128.95</ele>
        <time>2018-06-14T07:19:45Z</time>
      </trkpt>
      <trkpt lat="48.59384" lon="1.96729">
        <ele>129.43</ele>
        <time>2018-06-14T07:19:52Z</time>
      </trkpt>
      <trkpt lat="48.5938" lon="1.9674">
        <ele>129.92</ele>
        <time>2018-06-14T07:19:58Z</time>
      </trkpt>
      <trkpt lat="48.59372" lon="1.96757">
        <ele>129.92</ele>
        <time>2018-06-14T07:20:07Z</time>
      </trkpt>
      <trkpt lat="48.59371" lon="1.96759">
        <ele>130.88</ele>
        <time>2018-06-14T07:20:09Z</time>
      </trkpt>
      <trkpt lat="48.59369" lon="1.96765">
        <ele>130.4</ele>
        <time>2018-06-14T07:20:12Z</time>
      </trkpt>
      <trkpt lat="48.59361" lon="1.96782">
        <ele>130.88</ele>
        <time>2018-06-14T07:20:19Z</time>
      </trkpt>
      <trkpt lat="48.59357" lon="1.9679">
        <ele>129.92</ele>
        <time>2018-06-14T07:20:26Z</time>
      </trkpt>
      <trkpt lat="48.59351" lon="1.968">
        <ele>129.43</ele>
        <time>2018-06-14T07:20:32Z</time>
      </trkpt>
      <trkpt lat="48.59344" lon="1.96817">
        <ele>127.99</ele>
        <time>2018-06-14T07:20:40Z</time>
      </trkpt>
      <trkpt lat="48.59338" lon="1.96829">
        <ele>126.55</ele>
        <time>2018-06-14T07:20:46Z</time>
      </trkpt>
      <trkpt lat="48.59332" lon="1.96839">
        <ele>125.11</ele>
        <time>2018-06-14T07:20:53Z</time>
      </trkpt>
      <trkpt lat="48.59329" lon="1.96844">
        <ele>124.63</ele>
        <time>2018-06-14T07:20:58Z</time>
      </trkpt>
      <trkpt lat="48.59327" lon="1.96851">
        <ele>124.63</ele>
        <time>2018-06-14T07:21:02Z</time>
      </trkpt>
      <trkpt lat="48.59321" lon="1.96866">
        <ele>122.71</ele>
        <time>2018-06-14T07:21:11Z</time>
      </trkpt>
      <trkpt lat="48.59316" lon="1.96878">
        <ele>120.78</ele>
        <time>2018-06-14T07:21:19Z</time>
      </trkpt>
      <trkpt lat="48.59313" lon="1.96889">
        <ele>118.86</ele>
        <time>2018-06-14T07:21:26Z</time>
      </trkpt>
      <trkpt lat="48.59309" lon="1.96897">
        <ele>117.9</ele>
        <time>2018-06-14T07:21:31Z</time>
      </trkpt>
      <trkpt lat="48.59306" lon="1.96901">
        <ele>117.42</ele>
        <time>2018-06-14T07:21:34Z</time>
      </trkpt>
      <trkpt lat="48.593" lon="1.96919">
        <ele>116.46</ele>
        <time>2018-06-14T07:21:43Z</time>
      </trkpt>
      <trkpt lat="48.59294" lon="1.96928">
        <ele>115.5</ele>
        <time>2018-06-14T07:21:50Z</time>
      </trkpt>
      <trkpt lat="48.59292" lon="1.96928">
        <ele>112.13</ele>
        <time>2018-06-14T07:21:56Z</time>
      </trkpt>
      <trkpt lat="48.59292" lon="1.96929">
        <ele>119.34</ele>
        <time>2018-06-14T07:21:57Z</time>
      </trkpt>
      <trkpt lat="48.59292" lon="1.9693">
        <ele>115.5</ele>
        <time>2018-06-14T07:21:58Z</time>
      </trkpt>
      <trkpt lat="48.5929" lon="1.96938">
        <ele>114.53</ele>
        <time>2018-06-14T07:22:03Z</time>
      </trkpt>
      <trkpt lat="48.59283" lon="1.96954">
        <ele>113.09</ele>
        <time>2018-06-14T07:22:09Z</time>
      </trkpt>
      <trkpt lat="48.59278" lon="1.96963">
        <ele>112.13</ele>
        <time>2018-06-14T07:22:17Z</time>
      </trkpt>
      <trkpt lat="48.59277" lon="1.96965">
        <ele>111.65</ele>
        <time>2018-06-14T07:22:19Z</time>
      </trkpt>
      <trkpt lat="48.59272" lon="1.96975">
        <ele>110.21</ele>
        <time>2018-06-14T07:22:25Z</time>
      </trkpt>
      <trkpt lat="48.59269" lon="1.96984">
        <ele>109.73</ele>
        <time>2018-06-14T07:22:32Z</time>
      </trkpt>
      <trkpt lat="48.59261" lon="1.96997">
        <ele>108.77</ele>
        <time>2018-06-14T07:22:40Z</time>
      </trkpt>
      <trkpt lat="48.59256" lon="1.97006">
        <ele>108.29</ele>
        <time>2018-06-14T07:22:47Z</time>
      </trkpt>
      <trkpt lat="48.59251" lon="1.97017">
        <ele>108.29</ele>
        <time>2018-06-14T07:22:51Z</time>
      </trkpt>
      <trkpt lat="48.59246" lon="1.97029">
        <ele>108.29</ele>
        <time>2018-06-14T07:22:59Z</time>
      </trkpt>
      <trkpt lat="48.59244" lon="1.97037">
        <ele>107.81</ele>
        <time>2018-06-14T07:23:05Z</time>
      </trkpt>
      <trkpt lat="48.59236" lon="1.97052">
        <ele>107.81</ele>
        <time>2018-06-14T07:23:10Z</time>
      </trkpt>
      <trkpt lat="48.59233" lon="1.97058">
        <ele>107.32</ele>
        <time>2018-06-14T07:23:12Z</time>
      </trkpt>
      <trkpt lat="48.59231" lon="1.97063">
        <ele>107.81</ele>
        <time>2018-06-14T07:23:14Z</time>
      </trkpt>
      <trkpt lat="48.5923" lon="1.97062">
        <ele>107.32</ele>
        <time>2018-06-14T07:23:20Z</time>
      </trkpt>
      <trkpt lat="48.59228" lon="1.97069">
        <ele>107.32</ele>
        <time>2018-06-14T07:23:27Z</time>
      </trkpt>
      <trkpt lat="48.59218" lon="1.97089">
        <ele>106.84</ele>
        <time>2018-06-14T07:23:35Z</time>
      </trkpt>
      <trkpt lat="48.59214" lon="1.97096">
        <ele>106.84</ele>
        <time>2018-06-14T07:23:41Z</time>
      </trkpt>
      <trkpt lat="48.59209" lon="1.97106">
        <ele>106.36</ele>
        <time>2018-06-14T07:23:48Z</time>
      </trkpt>
      <trkpt lat="48.59202" lon="1.97126">
        <ele>105.4</ele>
        <time>2018-06-14T07:23:55Z</time>
      </trkpt>
      <trkpt lat="48.59198" lon="1.97136">
        <ele>104.92</ele>
        <time>2018-06-14T07:23:58Z</time>
      </trkpt>
      <trkpt lat="48.59192" lon="1.97147">
        <ele>104.44</ele>
        <time>2018-06-14T07:24:05Z</time>
      </trkpt>
      <trkpt lat="48.59186" lon="1.97158">
        <ele>103.48</ele>
        <time>2018-06-14T07:24:14Z</time>
      </trkpt>
      <trkpt lat="48.59177" lon="1.9718">
        <ele>102.52</ele>
        <time>2018-06-14T07:24:22Z</time>
      </trkpt>
      <trkpt lat="48.59168" lon="1.97199">
        <ele>103</ele>
        <time>2018-06-14T07:24:30Z</time>
      </trkpt>
      <trkpt lat="48.59163" lon="1.97207">
        <ele>102.04</ele>
        <time>2018-06-14T07:24:38Z</time>
      </trkpt>
      <trkpt lat="48.59161" lon="1.97211">
        <ele>102.04</ele>
        <time>2018-06-14T07:24:45Z</time>
      </trkpt>
      <trkpt lat="48.59156" lon="1.9722">
        <ele>102.52</ele>
        <time>2018-06-14T07:24:53Z</time>
      </trkpt>
      <trkpt lat="48.59152" lon="1.97225">
        <ele>101.56</ele>
        <time>2018-06-14T07:24:59Z</time>
      </trkpt>
      <trkpt lat="48.5915" lon="1.97229">
        <ele>102.04</ele>
        <time>2018-06-14T07:25:02Z</time>
      </trkpt>
      <trkpt lat="48.59141" lon="1.97252">
        <ele>102.04</ele>
        <time>2018-06-14T07:25:10Z</time>
      </trkpt>
      <trkpt lat="48.59131" lon="1.97283">
        <ele>101.08</ele>
        <time>2018-06-14T07:25:20Z</time>
      </trkpt>
      <trkpt lat="48.59123" lon="1.97297">
        <ele>100.6</ele>
        <time>2018-06-14T07:25:28Z</time>
      </trkpt>
      <trkpt lat="48.5912" lon="1.9731">
        <ele>100.11</ele>
        <time>2018-06-14T07:25:35Z</time>
      </trkpt>
      <trkpt lat="48.59116" lon="1.97326">
        <ele>100.6</ele>
        <time>2018-06-14T07:25:44Z</time>
      </trkpt>
      <trkpt lat="48.59124" lon="1.97337">
        <ele>101.56</ele>
        <time>2018-06-14T07:25:53Z</time>
      </trkpt>
      <trkpt lat="48.59125" lon="1.97339">
        <ele>101.56</ele>
        <time>2018-06-14T07:25:55Z</time>
      </trkpt>
      <trkpt lat="48.59133" lon="1.97348">
        <ele>102.04</ele>
        <time>2018-06-14T07:26:03Z</time>
      </trkpt>
      <trkpt lat="48.59139" lon="1.97354">
        <ele>102.04</ele>
        <time>2018-06-14T07:26:12Z</time>
      </trkpt>
      <trkpt lat="48.59149" lon="1.97366">
        <ele>103</ele>
        <time>2018-06-14T07:26:22Z</time>
      </trkpt>
      <trkpt lat="48.5916" lon="1.97373">
        <ele>103</ele>
        <time>2018-06-14T07:26:29Z</time>
      </trkpt>
      <trkpt lat="48.59164" lon="1.97376">
        <ele>103.48</ele>
        <time>2018-06-14T07:26:34Z</time>
      </trkpt>
      <trkpt lat="48.5917" lon="1.97383">
        <ele>104.44</ele>
        <time>2018-06-14T07:26:39Z</time>
      </trkpt>
      <trkpt lat="48.59182" lon="1.97395">
        <ele>104.92</ele>
        <time>2018-06-14T07:26:48Z</time>
      </trkpt>
      <trkpt lat="48.59187" lon="1.974">
        <ele>104.92</ele>
        <time>2018-06-14T07:26:54Z</time>
      </trkpt>
      <trkpt lat="48.59202" lon="1.97412">
        <ele>105.88</ele>
        <time>2018-06-14T07:27:04Z</time>
      </trkpt>
      <trkpt lat="48.59218" lon="1.97419">
        <ele>106.36</ele>
        <time>2018-06-14T07:27:12Z</time>
      </trkpt>
      <trkpt lat="48.5922" lon="1.9742">
        <ele>106.84</ele>
        <time>2018-06-14T07:27:14Z</time>
      </trkpt>
      <trkpt lat="48.59234" lon="1.97426">
        <ele>107.32</ele>
        <time>2018-06-14T07:27:22Z</time>
      </trkpt>
      <trkpt lat="48.59237" lon="1.97427">
        <ele>108.29</ele>
        <time>2018-06-14T07:27:26Z</time>
      </trkpt>
      <trkpt lat="48.59248" lon="1.97428">
        <ele>108.77</ele>
        <time>2018-06-14T07:27:34Z</time>
      </trkpt>
      <trkpt lat="48.59251" lon="1.97426">
        <ele>108.77</ele>
        <time>2018-06-14T07:27:37Z</time>
      </trkpt>
      <trkpt lat="48.59264" lon="1.97425">
        <ele>109.25</ele>
        <time>2018-06-14T07:27:46Z</time>
      </trkpt>
      <trkpt lat="48.59268" lon="1.97424">
        <ele>110.21</ele>
        <time>2018-06-14T07:27:49Z</time>
      </trkpt>
      <trkpt lat="48.5927" lon="1.97423">
        <ele>110.21</ele>
        <time>2018-06-14T07:27:51Z</time>
      </trkpt>
      <trkpt lat="48.59276" lon="1.9742">
        <ele>111.17</ele>
        <time>2018-06-14T07:27:55Z</time>
      </trkpt>
      <trkpt lat="48.59279" lon="1.97419">
        <ele>110.69</ele>
        <time>2018-06-14T07:27:57Z</time>
      </trkpt>
      <trkpt lat="48.59284" lon="1.97419">
        <ele>112.13</ele>
        <time>2018-06-14T07:28:04Z</time>
      </trkpt>
      <trkpt lat="48.59285" lon="1.97419">
        <ele>111.65</ele>
        <time>2018-06-14T07:28:05Z</time>
      </trkpt>
      <trkpt lat="48.59288" lon="1.97419">
        <ele>112.13</ele>
        <time>2018-06-14T07:28:07Z</time>
      </trkpt>
      <trkpt lat="48.59301" lon="1.97417">
        <ele>112.61</ele>
        <time>2018-06-14T07:28:15Z</time>
      </trkpt>
      <trkpt lat="48.5931" lon="1.9742">
        <ele>114.05</ele>
        <time>2018-06-14T07:28:23Z</time>
      </trkpt>
      <trkpt lat="48.5932" lon="1.97421">
        <ele>114.53</ele>
        <time>2018-06-14T07:28:31Z</time>
      </trkpt>
      <trkpt lat="48.59327" lon="1.97421">
        <ele>115.5</ele>
        <time>2018-06-14T07:28:38Z</time>
      </trkpt>
      <trkpt lat="48.59328" lon="1.97421">
        <ele>115.5</ele>
        <time>2018-06-14T07:28:39Z</time>
      </trkpt>
      <trkpt lat="48.59343" lon="1.97426">
        <ele>116.46</ele>
        <time>2018-06-14T07:28:50Z</time>
      </trkpt>
      <trkpt lat="48.59349" lon="1.97426">
        <ele>116.94</ele>
        <time>2018-06-14T07:28:55Z</time>
      </trkpt>
      <trkpt lat="48.5936" lon="1.97426">
        <ele>117.42</ele>
        <time>2018-06-14T07:29:00Z</time>
      </trkpt>
      <trkpt lat="48.59375" lon="1.97425">
        <ele>118.86</ele>
        <time>2018-06-14T07:29:10Z</time>
      </trkpt>
      <trkpt lat="48.59386" lon="1.97425">
        <ele>118.38</ele>
        <time>2018-06-14T07:29:15Z</time>
      </trkpt>
      <trkpt lat="48.59394" lon="1.97426">
        <ele>119.82</ele>
        <time>2018-06-14T07:29:22Z</time>
      </trkpt>
      <trkpt lat="48.59405" lon="1.97427">
        <ele>120.3</ele>
        <time>2018-06-14T07:29:31Z</time>
      </trkpt>
      <trkpt lat="48.5942" lon="1.97427">
        <ele>120.78</ele>
        <time>2018-06-14T07:29:39Z</time>
      </trkpt>
      <trkpt lat="48.59429" lon="1.97424">
        <ele>121.74</ele>
        <time>2018-06-14T07:29:47Z</time>
      </trkpt>
      <trkpt lat="48.59435" lon="1.97422">
        <ele>123.19</ele>
        <time>2018-06-14T07:29:54Z</time>
      </trkpt>
      <trkpt lat="48.59441" lon="1.97419">
        <ele>123.19</ele>
        <time>2018-06-14T07:30:00Z</time>
      </trkpt>
      <trkpt lat="48.59442" lon="1.9742">
        <ele>123.67</ele>
        <time>2018-06-14T07:30:01Z</time>
      </trkpt>
      <trkpt lat="48.59456" lon="1.97429">
        <ele>124.15</ele>
        <time>2018-06-14T07:30:09Z</time>
      </trkpt>
      <trkpt lat="48.59465" lon="1.97429">
        <ele>124.63</ele>
        <time>2018-06-14T07:30:16Z</time>
      </trkpt>
      <trkpt lat="48.59469" lon="1.97429">
        <ele>124.63</ele>
        <time>2018-06-14T07:30:23Z</time>
      </trkpt>
      <trkpt lat="48.59469" lon="1.97429">
        <ele>124.63</ele>
        <time>2018-06-14T07:30:31Z</time>
      </trkpt>
      <trkpt lat="48.5947" lon="1.97431">
        <ele>125.11</ele>
        <time>2018-06-14T07:30:43Z</time>
      </trkpt>
      <trkpt lat="48.59472" lon="1.97431">
        <ele>125.11</ele>
        <time>2018-06-14T07:30:55Z</time>
      </trkpt>
      <trkpt lat="48.59472" lon="1.97431">
        <ele>125.11</ele>
        <time>2018-06-14T07:31:05Z</time>
      </trkpt>
      <trkpt lat="48.59472" lon="1.97431">
        <ele>125.11</ele>
        <time>2018-06-14T07:31:20Z</time>
      </trkpt>
      <trkpt lat="48.59472" lon="1.97432">
        <ele>125.59</ele>
        <time>2018-06-14T07:31:30Z</time>
      </trkpt>
      <trkpt lat="48.59472" lon="1.97433">
        <ele>125.11</ele>
        <time>2018-06-14T07:31:40Z</time>
      </trkpt>
      <trkpt lat="48.59472" lon="1.97435">
        <ele>125.11</ele>
        <time>2018-06-14T07:31:49Z</time>
      </trkpt>
      <trkpt lat="48.59472" lon="1.97435">
        <ele>125.59</ele>
        <time>2018-06-14T07:32:00Z</time>
      </trkpt>
      <trkpt lat="48.59472" lon="1.97436">
        <ele>126.07</ele>
        <time>2018-06-14T07:32:10Z</time>
      </trkpt>
      <trkpt lat="48.59471" lon="1.97436">
        <ele>125.59</ele>
        <time>2018-06-14T07:32:24Z</time>
      </trkpt>
      <trkpt lat="48.59472" lon="1.97438">
        <ele>126.07</ele>
        <time>2018-06-14T07:32:31Z</time>
      </trkpt>
      <trkpt lat="48.5947" lon="1.97449">
        <ele>127.03</ele>
        <time>2018-06-14T07:32:38Z</time>
      </trkpt>
      <trkpt lat="48.59469" lon="1.97461">
        <ele>127.03</ele>
        <time>2018-06-14T07:32:43Z</time>
      </trkpt>
      <trkpt lat="48.59468" lon="1.97469">
        <ele>127.03</ele>
        <time>2018-06-14T07:32:47Z</time>
      </trkpt>
      <trkpt lat="48.59469" lon="1.97488">
        <ele>127.99</ele>
        <time>2018-06-14T07:32:56Z</time>
      </trkpt>
      <trkpt lat="48.59469" lon="1.97508">
        <ele>128.47</ele>
        <time>2018-06-14T07:33:06Z</time>
      </trkpt>
      <trkpt lat="48.59471" lon="1.97519">
        <ele>129.43</ele>
        <time>2018-06-14T07:33:12Z</time>
      </trkpt>
      <trkpt lat="48.59467" lon="1.97535">
        <ele>130.4</ele>
        <time>2018-06-14T07:33:19Z</time>
      </trkpt>
      <trkpt lat="48.59466" lon="1.97537">
        <ele>130.4</ele>
        <time>2018-06-14T07:33:20Z</time>
      </trkpt>
      <trkpt lat="48.59461" lon="1.97547">
        <ele>131.36</ele>
        <time>2018-06-14T07:33:28Z</time>
      </trkpt>
      <trkpt lat="48.59453" lon="1.97558">
        <ele>131.36</ele>
        <time>2018-06-14T07:33:36Z</time>
      </trkpt>
      <trkpt lat="48.59447" lon="1.97569">
        <ele>132.32</ele>
        <time>2018-06-14T07:33:42Z</time>
      </trkpt>
      <trkpt lat="48.5944" lon="1.97588">
        <ele>133.28</ele>
        <time>2018-06-14T07:33:51Z</time>
      </trkpt>
      <trkpt lat="48.59436" lon="1.97597">
        <ele>134.24</ele>
        <time>2018-06-14T07:33:57Z</time>
      </trkpt>
      <trkpt lat="48.59432" lon="1.97606">
        <ele>134.24</ele>
        <time>2018-06-14T07:34:01Z</time>
      </trkpt>
      <trkpt lat="48.59431" lon="1.97617">
        <ele>135.2</ele>
        <time>2018-06-14T07:34:06Z</time>
      </trkpt>
      <trkpt lat="48.59433" lon="1.97634">
        <ele>136.16</ele>
        <time>2018-06-14T07:34:14Z</time>
      </trkpt>
      <trkpt lat="48.59438" lon="1.97639">
        <ele>136.16</ele>
        <time>2018-06-14T07:34:21Z</time>
      </trkpt>
      <trkpt lat="48.59443" lon="1.97647">
        <ele>136.64</ele>
        <time>2018-06-14T07:34:29Z</time>
      </trkpt>
      <trkpt lat="48.59452" lon="1.97654">
        <ele>135.2</ele>
        <time>2018-06-14T07:34:37Z</time>
      </trkpt>
      <trkpt lat="48.59463" lon="1.97657">
        <ele>135.2</ele>
        <time>2018-06-14T07:34:46Z</time>
      </trkpt>
      <trkpt lat="48.59471" lon="1.97657">
        <ele>134.72</ele>
        <time>2018-06-14T07:34:51Z</time>
      </trkpt>
      <trkpt lat="48.59476" lon="1.97661">
        <ele>134.72</ele>
        <time>2018-06-14T07:34:54Z</time>
      </trkpt>
      <trkpt lat="48.59494" lon="1.97673">
        <ele>135.2</ele>
        <time>2018-06-14T07:35:03Z</time>
      </trkpt>
      <trkpt lat="48.59506" lon="1.9768">
        <ele>134.72</ele>
        <time>2018-06-14T07:35:11Z</time>
      </trkpt>
      <trkpt lat="48.59521" lon="1.97686">
        <ele>134.24</ele>
        <time>2018-06-14T07:35:20Z</time>
      </trkpt>
      <trkpt lat="48.59532" lon="1.97693">
        <ele>133.76</ele>
        <time>2018-06-14T07:35:27Z</time>
      </trkpt>
      <trkpt lat="48.59538" lon="1.97701">
        <ele>132.8</ele>
        <time>2018-06-14T07:35:33Z</time>
      </trkpt>
      <trkpt lat="48.59549" lon="1.97711">
        <ele>132.32</ele>
        <time>2018-06-14T07:35:42Z</time>
      </trkpt>
      <trkpt lat="48.59557" lon="1.97715">
        <ele>131.36</ele>
        <time>2018-06-14T07:35:51Z</time>
      </trkpt>
      <trkpt lat="48.59561" lon="1.97719">
        <ele>131.84</ele>
        <time>2018-06-14T07:35:54Z</time>
      </trkpt>
      <trkpt lat="48.59572" lon="1.97727">
        <ele>130.4</ele>
        <time>2018-06-14T07:36:02Z</time>
      </trkpt>
      <trkpt lat="48.59581" lon="1.97732">
        <ele>129.92</ele>
        <time>2018-06-14T07:36:08Z</time>
      </trkpt>
      <trkpt lat="48.59591" lon="1.97734">
        <ele>128.95</ele>
        <time>2018-06-14T07:36:17Z</time>
      </trkpt>
      <trkpt lat="48.59599" lon="1.97738">
        <ele>127.99</ele>
        <time>2018-06-14T07:36:24Z</time>
      </trkpt>
      <trkpt lat="48.59605" lon="1.97743">
        <ele>127.03</ele>
        <time>2018-06-14T07:36:28Z</time>
      </trkpt>
      <trkpt lat="48.59609" lon="1.97748">
        <ele>126.55</ele>
        <time>2018-06-14T07:36:32Z</time>
      </trkpt>
      <trkpt lat="48.59625" lon="1.97753">
        <ele>125.59</ele>
        <time>2018-06-14T07:36:40Z</time>
      </trkpt>
      <trkpt lat="48.59633" lon="1.97755">
        <ele>125.11</ele>
        <time>2018-06-14T07:36:45Z</time>
      </trkpt>
      <trkpt lat="48.59649" lon="1.97767">
        <ele>123.19</ele>
        <time>2018-06-14T07:36:55Z</time>
      </trkpt>
      <trkpt lat="48.59653" lon="1.97776">
        <ele>120.78</ele>
        <time>2018-06-14T07:37:02Z</time>
      </trkpt>
      <trkpt lat="48.59659" lon="1.97784">
        <ele>118.86</ele>
        <time>2018-06-14T07:37:11Z</time>
      </trkpt>
      <trkpt lat="48.59666" lon="1.97793">
        <ele>117.42</ele>
        <time>2018-06-14T07:37:19Z</time>
      </trkpt>
      <trkpt lat="48.59668" lon="1.97796">
        <ele>116.94</ele>
        <time>2018-06-14T07:37:22Z</time>
      </trkpt>
      <trkpt lat="48.59671" lon="1.97803">
        <ele>116.94</ele>
        <time>2018-06-14T07:37:25Z</time>
      </trkpt>
      <trkpt lat="48.59673" lon="1.97812">
        <ele>118.38</ele>
        <time>2018-06-14T07:37:28Z</time>
      </trkpt>
      <trkpt lat="48.59673" lon="1.97814">
        <ele>118.38</ele>
        <time>2018-06-14T07:37:29Z</time>
      </trkpt>
      <trkpt lat="48.59677" lon="1.97825">
        <ele>118.86</ele>
        <time>2018-06-14T07:37:36Z</time>
      </trkpt>
      <trkpt lat="48.59692" lon="1.97839">
        <ele>117.9</ele>
        <time>2018-06-14T07:37:43Z</time>
      </trkpt>
      <trkpt lat="48.59702" lon="1.97848">
        <ele>117.42</ele>
        <time>2018-06-14T07:37:49Z</time>
      </trkpt>
      <trkpt lat="48.59708" lon="1.97852">
        <ele>116.94</ele>
        <time>2018-06-14T07:37:53Z</time>
      </trkpt>
      <trkpt lat="48.5971" lon="1.97854">
        <ele>116.46</ele>
        <time>2018-06-14T07:37:55Z</time>
      </trkpt>
      <trkpt lat="48.59715" lon="1.97861">
        <ele>117.42</ele>
        <time>2018-06-14T07:38:03Z</time>
      </trkpt>
      <trkpt lat="48.59727" lon="1.97865">
        <ele>117.42</ele>
        <time>2018-06-14T07:38:11Z</time>
      </trkpt>
      <trkpt lat="48.59737" lon="1.97869">
        <ele>118.38</ele>
        <time>2018-06-14T07:38:18Z</time>
      </trkpt>
      <trkpt lat="48.59749" lon="1.97884">
        <ele>118.86</ele>
        <time>2018-06-14T07:38:28Z</time>
      </trkpt>
      <trkpt lat="48.59756" lon="1.97887">
        <ele>118.86</ele>
        <time>2018-06-14T07:38:31Z</time>
      </trkpt>
      <trkpt lat="48.59766" lon="1.97895">
        <ele>117.9</ele>
        <time>2018-06-14T07:38:36Z</time>
      </trkpt>
      <trkpt lat="48.59773" lon="1.979">
        <ele>116.46</ele>
        <time>2018-06-14T07:38:43Z</time>
      </trkpt>
      <trkpt lat="48.59776" lon="1.97903">
        <ele>116.46</ele>
        <time>2018-06-14T07:38:46Z</time>
      </trkpt>
      <trkpt lat="48.59784" lon="1.97905">
        <ele>116.94</ele>
        <time>2018-06-14T07:38:51Z</time>
      </trkpt>
      <trkpt lat="48.59796" lon="1.97913">
        <ele>118.38</ele>
        <time>2018-06-14T07:39:00Z</time>
      </trkpt>
      <trkpt lat="48.59806" lon="1.97922">
        <ele>120.78</ele>
        <time>2018-06-14T07:39:09Z</time>
      </trkpt>
      <trkpt lat="48.59806" lon="1.97922">
        <ele>120.3</ele>
        <time>2018-06-14T07:39:10Z</time>
      </trkpt>
      <trkpt lat="48.59814" lon="1.9793">
        <ele>123.19</ele>
        <time>2018-06-14T07:39:19Z</time>
      </trkpt>
      <trkpt lat="48.59819" lon="1.97939">
        <ele>124.15</ele>
        <time>2018-06-14T07:39:26Z</time>
      </trkpt>
      <trkpt lat="48.59822" lon="1.97946">
        <ele>125.59</ele>
        <time>2018-06-14T07:39:31Z</time>
      </trkpt>
      <trkpt lat="48.59831" lon="1.97957">
        <ele>127.03</ele>
        <time>2018-06-14T07:39:40Z</time>
      </trkpt>
      <trkpt lat="48.59835" lon="1.97959">
        <ele>128.95</ele>
        <time>2018-06-14T07:39:43Z</time>
      </trkpt>
      <trkpt lat="48.59838" lon="1.97963">
        <ele>128.95</ele>
        <time>2018-06-14T07:39:46Z</time>
      </trkpt>
      <trkpt lat="48.59845" lon="1.97972">
        <ele>129.92</ele>
        <time>2018-06-14T07:39:53Z</time>
      </trkpt>
      <trkpt lat="48.59847" lon="1.97976">
        <ele>131.36</ele>
        <time>2018-06-14T07:39:57Z</time>
      </trkpt>
      <trkpt lat="48.59855" lon="1.97985">
        <ele>133.76</ele>
        <time>2018-06-14T07:40:05Z</time>
      </trkpt>
      <trkpt lat="48.59856" lon="1.97998">
        <ele>134.24</ele>
        <time>2018-06-14T07:40:13Z</time>
      </trkpt>
      <trkpt lat="48.59855" lon="1.98005">
        <ele>133.76</ele>
        <time>2018-06-14T07:40:19Z</time>
      </trkpt>
      <trkpt lat="48.59855" lon="1.98008">
        <ele>134.24</ele>
        <time>2018-06-14T07:40:22Z</time>
      </trkpt>
      <trkpt lat="48.59855" lon="1.98014">
        <ele>133.76</ele>
        <time>2018-06-14T07:40:28Z</time>
      </trkpt>
      <trkpt lat="48.59855" lon="1.98016">
        <ele>135.2</ele>
        <time>2018-06-14T07:40:29Z</time>
      </trkpt>
      <trkpt lat="48.59854" lon="1.98025">
        <ele>134.24</ele>
        <time>2018-06-14T07:40:37Z</time>
      </trkpt>
      <trkpt lat="48.59847" lon="1.98036">
        <ele>134.24</ele>
        <time>2018-06-14T07:40:45Z</time>
      </trkpt>
      <trkpt lat="48.59843" lon="1.98044">
        <ele>134.24</ele>
        <time>2018-06-14T07:40:51Z</time>
      </trkpt>
      <trkpt lat="48.59842" lon="1.98045">
        <ele>134.72</ele>
        <time>2018-06-14T07:40:52Z</time>
      </trkpt>
      <trkpt lat="48.59837" lon="1.98047">
        <ele>134.24</ele>
        <time>2018-06-14T07:40:56Z</time>
      </trkpt>
      <trkpt lat="48.59831" lon="1.98057">
        <ele>134.24</ele>
        <time>2018-06-14T07:41:02Z</time>
      </trkpt>
      <trkpt lat="48.59822" lon="1.9807">
        <ele>133.28</ele>
        <time>2018-06-14T07:41:09Z</time>
      </trkpt>
      <trkpt lat="48.59814" lon="1.98082">
        <ele>133.28</ele>
        <time>2018-06-14T07:41:16Z</time>
      </trkpt>
      <trkpt lat="48.59811" lon="1.98084">
        <ele>132.8</ele>
        <time>2018-06-14T07:41:19Z</time>
      </trkpt>
      <trkpt lat="48.59801" lon="1.98099">
        <ele>132.32</ele>
        <time>2018-06-14T07:41:28Z</time>
      </trkpt>
      <trkpt lat="48.59792" lon="1.9811">
        <ele>132.8</ele>
        <time>2018-06-14T07:41:35Z</time>
      </trkpt>
      <trkpt lat="48.59788" lon="1.98115">
        <ele>132.32</ele>
        <time>2018-06-14T07:41:40Z</time>
      </trkpt>
      <trkpt lat="48.59787" lon="1.98117">
        <ele>132.32</ele>
        <time>2018-06-14T07:41:42Z</time>
      </trkpt>
      <trkpt lat="48.59777" lon="1.98128">
        <ele>132.32</ele>
        <time>2018-06-14T07:41:51Z</time>
      </trkpt>
      <trkpt lat="48.59771" lon="1.98139">
        <ele>131.84</ele>
        <time>2018-06-14T07:41:57Z</time>
      </trkpt>
      <trkpt lat="48.59763" lon="1.98153">
        <ele>132.32</ele>
        <time>2018-06-14T07:42:04Z</time>
      </trkpt>
      <trkpt lat="48.59755" lon="1.98164">
        <ele>132.32</ele>
        <time>2018-06-14T07:42:11Z</time>
      </trkpt>
      <trkpt lat="48.59751" lon="1.98172">
        <ele>133.28</ele>
        <time>2018-06-14T07:42:17Z</time>
      </trkpt>
      <trkpt lat="48.5975" lon="1.98176">
        <ele>133.28</ele>
        <time>2018-06-14T07:42:19Z</time>
      </trkpt>
      <trkpt lat="48.59739" lon="1.98188">
        <ele>133.76</ele>
        <time>2018-06-14T07:42:28Z</time>
      </trkpt>
      <trkpt lat="48.59733" lon="1.982">
        <ele>133.28</ele>
        <time>2018-06-14T07:42:37Z</time>
      </trkpt>
      <trkpt lat="48.59732" lon="1.982">
        <ele>134.24</ele>
        <time>2018-06-14T07:42:46Z</time>
      </trkpt>
      <trkpt lat="48.59732" lon="1.982">
        <ele>134.24</ele>
        <time>2018-06-14T07:43:01Z</time>
      </trkpt>
      <trkpt lat="48.59732" lon="1.98199">
        <ele>134.72</ele>
        <time>2018-06-14T07:43:17Z</time>
      </trkpt>
      <trkpt lat="48.59732" lon="1.98198">
        <ele>134.72</ele>
        <time>2018-06-14T07:43:33Z</time>
      </trkpt>
      <trkpt lat="48.59732" lon="1.98198">
        <ele>134.72</ele>
        <time>2018-06-14T07:43:50Z</time>
      </trkpt>
      <trkpt lat="48.59731" lon="1.98198">
        <ele>134.72</ele>
        <time>2018-06-14T07:44:05Z</time>
      </trkpt>
      <trkpt lat="48.59731" lon="1.98198">
        <ele>134.72</ele>
        <time>2018-06-14T07:44:18Z</time>
      </trkpt>
      <trkpt lat="48.5973" lon="1.98198">
        <ele>134.72</ele>
        <time>2018-06-14T07:44:32Z</time>
      </trkpt>
      <trkpt lat="48.5973" lon="1.98198">
        <ele>129.92</ele>
        <time>2018-06-14T07:44:39Z</time>
      </trkpt>
      <trkpt lat="48.5973" lon="1.98198">
        <ele>137.61</ele>
        <time>2018-06-14T07:44:40Z</time>
      </trkpt>
      <trkpt lat="48.5973" lon="1.98198">
        <ele>136.64</ele>
        <time>2018-06-14T07:44:41Z</time>
      </trkpt>
      <trkpt lat="48.5973" lon="1.98198">
        <ele>134.72</ele>
        <time>2018-06-14T07:44:43Z</time>
      </trkpt>
      <trkpt lat="48.5973" lon="1.98197">
        <ele>135.2</ele>
        <time>2018-06-14T07:44:55Z</time>
      </trkpt>
      <trkpt lat="48.5973" lon="1.98197">
        <ele>135.68</ele>
        <time>2018-06-14T07:45:07Z</time>
      </trkpt>
      <trkpt lat="48.5973" lon="1.98197">
        <ele>135.2</ele>
        <time>2018-06-14T07:45:20Z</time>
      </trkpt>
      <trkpt lat="48.5973" lon="1.98197">
        <ele>135.2</ele>
        <time>2018-06-14T07:45:33Z</time>
      </trkpt>
      <trkpt lat="48.5973" lon="1.98197">
        <ele>135.2</ele>
        <time>2018-06-14T07:45:42Z</time>
      </trkpt>
      <trkpt lat="48.5973" lon="1.98197">
        <ele>135.2</ele>
        <time>2018-06-14T07:45:52Z</time>
      </trkpt>
      <trkpt lat="48.5973" lon="1.98196">
        <ele>135.2</ele>
        <time>2018-06-14T07:46:02Z</time>
      </trkpt>
      <trkpt lat="48.5973" lon="1.98197">
        <ele>135.68</ele>
        <time>2018-06-14T07:46:12Z</time>
      </trkpt>
      <trkpt lat="48.5973" lon="1.98196">
        <ele>135.68</ele>
        <time>2018-06-14T07:46:19Z</time>
      </trkpt>
      <trkpt lat="48.5973" lon="1.98196">
        <ele>135.68</ele>
        <time>2018-06-14T07:46:33Z</time>
      </trkpt>
      <trkpt lat="48.59731" lon="1.98195">
        <ele>135.68</ele>
        <time>2018-06-14T07:46:41Z</time>
      </trkpt>
      <trkpt lat="48.59733" lon="1.98198">
        <ele>135.2</ele>
        <time>2018-06-14T07:46:53Z</time>
      </trkpt>
      <trkpt lat="48.59741" lon="1.98203">
        <ele>134.24</ele>
        <time>2018-06-14T07:46:59Z</time>
      </trkpt>
      <trkpt lat="48.59741" lon="1.98205">
        <ele>134.24</ele>
        <time>2018-06-14T07:47:00Z</time>
      </trkpt>
      <trkpt lat="48.59754" lon="1.98208">
        <ele>133.28</ele>
        <time>2018-06-14T07:47:08Z</time>
      </trkpt>
      <trkpt lat="48.59761" lon="1.98212">
        <ele>132.8</ele>
        <time>2018-06-14T07:47:13Z</time>
      </trkpt>
      <trkpt lat="48.59772" lon="1.98218">
        <ele>132.32</ele>
        <time>2018-06-14T07:47:20Z</time>
      </trkpt>
      <trkpt lat="48.59779" lon="1.98223">
        <ele>131.84</ele>
        <time>2018-06-14T07:47:25Z</time>
      </trkpt>
      <trkpt lat="48.59785" lon="1.98237">
        <ele>129.92</ele>
        <time>2018-06-14T07:47:34Z</time>
      </trkpt>
      <trkpt lat="48.59788" lon="1.9824">
        <ele>129.43</ele>
        <time>2018-06-14T07:47:37Z</time>
      </trkpt>
      <trkpt lat="48.59794" lon="1.9825">
        <ele>128.47</ele>
        <time>2018-06-14T07:47:44Z</time>
      </trkpt>
      <trkpt lat="48.59796" lon="1.98251">
        <ele>127.51</ele>
        <time>2018-06-14T07:47:48Z</time>
      </trkpt>
      <trkpt lat="48.59807" lon="1.98248">
        <ele>126.07</ele>
        <time>2018-06-14T07:47:55Z</time>
      </trkpt>
      <trkpt lat="48.59812" lon="1.98248">
        <ele>125.59</ele>
        <time>2018-06-14T07:47:58Z</time>
      </trkpt>
      <trkpt lat="48.59822" lon="1.9825">
        <ele>124.15</ele>
        <time>2018-06-14T07:48:04Z</time>
      </trkpt>
      <trkpt lat="48.59837" lon="1.98257">
        <ele>122.22</ele>
        <time>2018-06-14T07:48:13Z</time>
      </trkpt>
      <trkpt lat="48.59845" lon="1.98263">
        <ele>120.78</ele>
        <time>2018-06-14T07:48:20Z</time>
      </trkpt>
      <trkpt lat="48.5985" lon="1.98266">
        <ele>120.3</ele>
        <time>2018-06-14T07:48:25Z</time>
      </trkpt>
      <trkpt lat="48.59855" lon="1.98268">
        <ele>119.82</ele>
        <time>2018-06-14T07:48:29Z</time>
      </trkpt>
      <trkpt lat="48.59863" lon="1.98268">
        <ele>118.86</ele>
        <time>2018-06-14T07:48:33Z</time>
      </trkpt>
      <trkpt lat="48.59869" lon="1.9827">
        <ele>118.38</ele>
        <time>2018-06-14T07:48:37Z</time>
      </trkpt>
      <trkpt lat="48.5988" lon="1.98281">
        <ele>116.94</ele>
        <time>2018-06-14T07:48:47Z</time>
      </trkpt>
      <trkpt lat="48.59888" lon="1.98292">
        <ele>116.46</ele>
        <time>2018-06-14T07:48:55Z</time>
      </trkpt>
      <trkpt lat="48.59894" lon="1.98308">
        <ele>116.46</ele>
        <time>2018-06-14T07:49:03Z</time>
      </trkpt>
      <trkpt lat="48.5989" lon="1.98318">
        <ele>116.46</ele>
        <time>2018-06-14T07:49:08Z</time>
      </trkpt>
      <trkpt lat="48.59881" lon="1.98338">
        <ele>116.94</ele>
        <time>2018-06-14T07:49:18Z</time>
      </trkpt>
      <trkpt lat="48.59874" lon="1.98355">
        <ele>116.94</ele>
        <time>2018-06-14T07:49:26Z</time>
      </trkpt>
      <trkpt lat="48.59863" lon="1.98374">
        <ele>116.46</ele>
        <time>2018-06-14T07:49:35Z</time>
      </trkpt>
      <trkpt lat="48.5986" lon="1.98385">
        <ele>116.46</ele>
        <time>2018-06-14T07:49:40Z</time>
      </trkpt>
      <trkpt lat="48.59851" lon="1.98401">
        <ele>115.5</ele>
        <time>2018-06-14T07:49:50Z</time>
      </trkpt>
      <trkpt lat="48.59848" lon="1.98413">
        <ele>116.46</ele>
        <time>2018-06-14T07:49:56Z</time>
      </trkpt>
      <trkpt lat="48.59846" lon="1.98432">
        <ele>117.9</ele>
        <time>2018-06-14T07:50:03Z</time>
      </trkpt>
      <trkpt lat="48.59852" lon="1.98446">
        <ele>117.42</ele>
        <time>2018-06-14T07:50:11Z</time>
      </trkpt>
      <trkpt lat="48.5986" lon="1.9846">
        <ele>118.38</ele>
        <time>2018-06-14T07:50:18Z</time>
      </trkpt>
      <trkpt lat="48.59866" lon="1.98474">
        <ele>118.86</ele>
        <time>2018-06-14T07:50:25Z</time>
      </trkpt>
      <trkpt lat="48.59864" lon="1.9848">
        <ele>120.3</ele>
        <time>2018-06-14T07:50:30Z</time>
      </trkpt>
      <trkpt lat="48.59857" lon="1.9849">
        <ele>121.26</ele>
        <time>2018-06-14T07:50:37Z</time>
      </trkpt>
      <trkpt lat="48.59855" lon="1.98492">
        <ele>121.26</ele>
        <time>2018-06-14T07:50:40Z</time>
      </trkpt>
      <trkpt lat="48.59852" lon="1.98497">
        <ele>121.26</ele>
        <time>2018-06-14T07:50:43Z</time>
      </trkpt>
      <trkpt lat="48.59843" lon="1.98507">
        <ele>123.67</ele>
        <time>2018-06-14T07:50:49Z</time>
      </trkpt>
      <trkpt lat="48.59838" lon="1.9851">
        <ele>124.15</ele>
        <time>2018-06-14T07:50:53Z</time>
      </trkpt>
      <trkpt lat="48.59829" lon="1.98514">
        <ele>126.07</ele>
        <time>2018-06-14T07:50:59Z</time>
      </trkpt>
      <trkpt lat="48.59824" lon="1.98515">
        <ele>127.99</ele>
        <time>2018-06-14T07:51:02Z</time>
      </trkpt>
      <trkpt lat="48.59807" lon="1.98524">
        <ele>130.4</ele>
        <time>2018-06-14T07:51:12Z</time>
      </trkpt>
      <trkpt lat="48.59804" lon="1.98525">
        <ele>130.88</ele>
        <time>2018-06-14T07:51:15Z</time>
      </trkpt>
      <trkpt lat="48.59796" lon="1.98525">
        <ele>132.32</ele>
        <time>2018-06-14T07:51:22Z</time>
      </trkpt>
      <trkpt lat="48.59785" lon="1.98529">
        <ele>133.76</ele>
        <time>2018-06-14T07:51:30Z</time>
      </trkpt>
      <trkpt lat="48.59783" lon="1.98531">
        <ele>134.72</ele>
        <time>2018-06-14T07:51:32Z</time>
      </trkpt>
      <trkpt lat="48.59782" lon="1.98531">
        <ele>134.24</ele>
        <time>2018-06-14T07:51:33Z</time>
      </trkpt>
      <trkpt lat="48.59772" lon="1.98538">
        <ele>135.2</ele>
        <time>2018-06-14T07:51:42Z</time>
      </trkpt>
      <trkpt lat="48.59769" lon="1.98541">
        <ele>136.16</ele>
        <time>2018-06-14T07:51:45Z</time>
      </trkpt>
      <trkpt lat="48.59759" lon="1.98547">
        <ele>136.16</ele>
        <time>2018-06-14T07:51:52Z</time>
      </trkpt>
      <trkpt lat="48.59755" lon="1.98545">
        <ele>136.16</ele>
        <time>2018-06-14T07:51:55Z</time>
      </trkpt>
      <trkpt lat="48.59746" lon="1.98551">
        <ele>136.64</ele>
        <time>2018-06-14T07:52:01Z</time>
      </trkpt>
      <trkpt lat="48.59739" lon="1.98554">
        <ele>137.13</ele>
        <time>2018-06-14T07:52:06Z</time>
      </trkpt>
      <trkpt lat="48.59729" lon="1.98562">
        <ele>137.13</ele>
        <time>2018-06-14T07:52:14Z</time>
      </trkpt>
      <trkpt lat="48.59725" lon="1.98566">
        <ele>136.64</ele>
        <time>2018-06-14T07:52:17Z</time>
      </trkpt>
      <trkpt lat="48.59712" lon="1.98569">
        <ele>136.64</ele>
        <time>2018-06-14T07:52:24Z</time>
      </trkpt>
      <trkpt lat="48.59705" lon="1.98572">
        <ele>136.16</ele>
        <time>2018-06-14T07:52:30Z</time>
      </trkpt>
      <trkpt lat="48.59703" lon="1.98581">
        <ele>135.2</ele>
        <time>2018-06-14T07:52:35Z</time>
      </trkpt>
      <trkpt lat="48.59702" lon="1.98587">
        <ele>134.72</ele>
        <time>2018-06-14T07:52:38Z</time>
      </trkpt>
      <trkpt lat="48.59705" lon="1.98599">
        <ele>132.32</ele>
        <time>2018-06-14T07:52:46Z</time>
      </trkpt>
      <trkpt lat="48.59704" lon="1.98612">
        <ele>129.43</ele>
        <time>2018-06-14T07:52:53Z</time>
      </trkpt>
      <trkpt lat="48.59704" lon="1.98622">
        <ele>126.55</ele>
        <time>2018-06-14T07:53:00Z</time>
      </trkpt>
      <trkpt lat="48.59705" lon="1.98627">
        <ele>125.11</ele>
        <time>2018-06-14T07:53:03Z</time>
      </trkpt>
      <trkpt lat="48.59704" lon="1.98638">
        <ele>123.67</ele>
        <time>2018-06-14T07:53:07Z</time>
      </trkpt>
      <trkpt lat="48.59701" lon="1.9865">
        <ele>121.26</ele>
        <time>2018-06-14T07:53:15Z</time>
      </trkpt>
      <trkpt lat="48.597" lon="1.98652">
        <ele>120.78</ele>
        <time>2018-06-14T07:53:16Z</time>
      </trkpt>
      <trkpt lat="48.59694" lon="1.98663">
        <ele>120.3</ele>
        <time>2018-06-14T07:53:19Z</time>
      </trkpt>
      <trkpt lat="48.59687" lon="1.98684">
        <ele>117.9</ele>
        <time>2018-06-14T07:53:27Z</time>
      </trkpt>
      <trkpt lat="48.59685" lon="1.9869">
        <ele>117.42</ele>
        <time>2018-06-14T07:53:32Z</time>
      </trkpt>
      <trkpt lat="48.59672" lon="1.98697">
        <ele>116.94</ele>
        <time>2018-06-14T07:53:40Z</time>
      </trkpt>
      <trkpt lat="48.59665" lon="1.98696">
        <ele>116.94</ele>
        <time>2018-06-14T07:53:47Z</time>
      </trkpt>
      <trkpt lat="48.59664" lon="1.98695">
        <ele>116.94</ele>
        <time>2018-06-14T07:53:48Z</time>
      </trkpt>
      <trkpt lat="48.59658" lon="1.98693">
        <ele>117.42</ele>
        <time>2018-06-14T07:53:51Z</time>
      </trkpt>
      <trkpt lat="48.59645" lon="1.98685">
        <ele>116.94</ele>
        <time>2018-06-14T07:53:59Z</time>
      </trkpt>
      <trkpt lat="48.59635" lon="1.98691">
        <ele>117.42</ele>
        <time>2018-06-14T07:54:06Z</time>
      </trkpt>
      <trkpt lat="48.59629" lon="1.987">
        <ele>115.98</ele>
        <time>2018-06-14T07:54:14Z</time>
      </trkpt>
      <trkpt lat="48.5962" lon="1.98718">
        <ele>115.98</ele>
        <time>2018-06-14T07:54:23Z</time>
      </trkpt>
      <trkpt lat="48.59614" lon="1.98727">
        <ele>115.5</ele>
        <time>2018-06-14T07:54:29Z</time>
      </trkpt>
      <trkpt lat="48.596" lon="1.98743">
        <ele>114.53</ele>
        <time>2018-06-14T07:54:38Z</time>
      </trkpt>
      <trkpt lat="48.59589" lon="1.98752">
        <ele>115.01</ele>
        <time>2018-06-14T07:54:45Z</time>
      </trkpt>
      <trkpt lat="48.59583" lon="1.98757">
        <ele>115.5</ele>
        <time>2018-06-14T07:54:52Z</time>
      </trkpt>
      <trkpt lat="48.59581" lon="1.98757">
        <ele>116.94</ele>
        <time>2018-06-14T07:54:55Z</time>
      </trkpt>
      <trkpt lat="48.59578" lon="1.98761">
        <ele>116.94</ele>
        <time>2018-06-14T07:54:57Z</time>
      </trkpt>
      <trkpt lat="48.59561" lon="1.98775">
        <ele>116.46</ele>
        <time>2018-06-14T07:55:05Z</time>
      </trkpt>
      <trkpt lat="48.59555" lon="1.98785">
        <ele>116.46</ele>
        <time>2018-06-14T07:55:11Z</time>
      </trkpt>
      <trkpt lat="48.5955" lon="1.98798">
        <ele>116.46</ele>
        <time>2018-06-14T07:55:19Z</time>
      </trkpt>
      <trkpt lat="48.59549" lon="1.98799">
        <ele>115.98</ele>
        <time>2018-06-14T07:55:25Z</time>
      </trkpt>
      <trkpt lat="48.59548" lon="1.98798">
        <ele>115.98</ele>
        <time>2018-06-14T07:55:37Z</time>
      </trkpt>
      <trkpt lat="48.59548" lon="1.98798">
        <ele>115.98</ele>
        <time>2018-06-14T07:55:43Z</time>
      </trkpt>
      <trkpt lat="48.59548" lon="1.98798">
        <ele>115.98</ele>
        <time>2018-06-14T07:55:56Z</time>
      </trkpt>
      <trkpt lat="48.59548" lon="1.98797">
        <ele>115.98</ele>
        <time>2018-06-14T07:56:05Z</time>
      </trkpt>
      <trkpt lat="48.59548" lon="1.98797">
        <ele>115.98</ele>
        <time>2018-06-14T07:56:17Z</time>
      </trkpt>
      <trkpt lat="48.59548" lon="1.98798">
        <ele>116.46</ele>
        <time>2018-06-14T07:56:33Z</time>
      </trkpt>
      <trkpt lat="48.59548" lon="1.98798">
        <ele>115.98</ele>
        <time>2018-06-14T07:56:43Z</time>
      </trkpt>
      <trkpt lat="48.59548" lon="1.98797">
        <ele>115.98</ele>
        <time>2018-06-14T07:56:55Z</time>
      </trkpt>
      <trkpt lat="48.59547" lon="1.98798">
        <ele>116.46</ele>
        <time>2018-06-14T07:57:05Z</time>
      </trkpt>
      <trkpt lat="48.59548" lon="1.98797">
        <ele>115.98</ele>
        <time>2018-06-14T07:57:13Z</time>
      </trkpt>
      <trkpt lat="48.59548" lon="1.98797">
        <ele>116.46</ele>
        <time>2018-06-14T07:57:23Z</time>
      </trkpt>
      <trkpt lat="48.59548" lon="1.98797">
        <ele>116.46</ele>
        <time>2018-06-14T07:57:31Z</time>
      </trkpt>
      <trkpt lat="48.59548" lon="1.98797">
        <ele>116.46</ele>
        <time>2018-06-14T07:57:43Z</time>
      </trkpt>
      <trkpt lat="48.59549" lon="1.98797">
        <ele>116.46</ele>
        <time>2018-06-14T07:57:58Z</time>
      </trkpt>
      <trkpt lat="48.59549" lon="1.98797">
        <ele>116.46</ele>
        <time>2018-06-14T07:58:13Z</time>
      </trkpt>
      <trkpt lat="48.59549" lon="1.98797">
        <ele>116.46</ele>
        <time>2018-06-14T07:58:24Z</time>
      </trkpt>
      <trkpt lat="48.59549" lon="1.98797">
        <ele>116.94</ele>
        <time>2018-06-14T07:58:34Z</time>
      </trkpt>
      <trkpt lat="48.59549" lon="1.98797">
        <ele>116.46</ele>
        <time>2018-06-14T07:58:51Z</time>
      </trkpt>
      <trkpt lat="48.59549" lon="1.98796">
        <ele>116.46</ele>
        <time>2018-06-14T07:59:02Z</time>
      </trkpt>
      <trkpt lat="48.59549" lon="1.98796">
        <ele>116.94</ele>
        <time>2018-06-14T07:59:15Z</time>
      </trkpt>
      <trkpt lat="48.59549" lon="1.98797">
        <ele>116.94</ele>
        <time>2018-06-14T07:59:24Z</time>
      </trkpt>
      <trkpt lat="48.59549" lon="1.98796">
        <ele>116.94</ele>
        <time>2018-06-14T07:59:38Z</time>
      </trkpt>
      <trkpt lat="48.59549" lon="1.98796">
        <ele>116.46</ele>
        <time>2018-06-14T07:59:51Z</time>
      </trkpt>
      <trkpt lat="48.59556" lon="1.98795">
        <ele>117.42</ele>
        <time>2018-06-14T07:59:58Z</time>
      </trkpt>
      <trkpt lat="48.59562" lon="1.98796">
        <ele>117.42</ele>
        <time>2018-06-14T08:00:04Z</time>
      </trkpt>
      <trkpt lat="48.5957" lon="1.98795">
        <ele>116.94</ele>
        <time>2018-06-14T08:00:11Z</time>
      </trkpt>
      <trkpt lat="48.59574" lon="1.98793">
        <ele>117.42</ele>
        <time>2018-06-14T08:00:14Z</time>
      </trkpt>
      <trkpt lat="48.59583" lon="1.98793">
        <ele>116.94</ele>
        <time>2018-06-14T08:00:20Z</time>
      </trkpt>
      <trkpt lat="48.59592" lon="1.98791">
        <ele>116.94</ele>
        <time>2018-06-14T08:00:29Z</time>
      </trkpt>
      <trkpt lat="48.59601" lon="1.98789">
        <ele>116.46</ele>
        <time>2018-06-14T08:00:36Z</time>
      </trkpt>
      <trkpt lat="48.59613" lon="1.98788">
        <ele>115.5</ele>
        <time>2018-06-14T08:00:44Z</time>
      </trkpt>
      <trkpt lat="48.59615" lon="1.98789">
        <ele>115.5</ele>
        <time>2018-06-14T08:00:46Z</time>
      </trkpt>
      <trkpt lat="48.59627" lon="1.98788">
        <ele>114.53</ele>
        <time>2018-06-14T08:00:54Z</time>
      </trkpt>
      <trkpt lat="48.59642" lon="1.98788">
        <ele>113.09</ele>
        <time>2018-06-14T08:01:03Z</time>
      </trkpt>
      <trkpt lat="48.59658" lon="1.98785">
        <ele>113.09</ele>
        <time>2018-06-14T08:01:12Z</time>
      </trkpt>
      <trkpt lat="48.59671" lon="1.98784">
        <ele>112.13</ele>
        <time>2018-06-14T08:01:21Z</time>
      </trkpt>
      <trkpt lat="48.59688" lon="1.98783">
        <ele>111.17</ele>
        <time>2018-06-14T08:01:31Z</time>
      </trkpt>
      <trkpt lat="48.59698" lon="1.98786">
        <ele>110.69</ele>
        <time>2018-06-14T08:01:39Z</time>
      </trkpt>
      <trkpt lat="48.59701" lon="1.98788">
        <ele>110.69</ele>
        <time>2018-06-14T08:01:42Z</time>
      </trkpt>
      <trkpt lat="48.59713" lon="1.98787">
        <ele>110.21</ele>
        <time>2018-06-14T08:01:51Z</time>
      </trkpt>
      <trkpt lat="48.59717" lon="1.98787">
        <ele>109.73</ele>
        <time>2018-06-14T08:01:53Z</time>
      </trkpt>
      <trkpt lat="48.59736" lon="1.98787">
        <ele>109.25</ele>
        <time>2018-06-14T08:02:03Z</time>
      </trkpt>
      <trkpt lat="48.59749" lon="1.98787">
        <ele>108.77</ele>
        <time>2018-06-14T08:02:10Z</time>
      </trkpt>
      <trkpt lat="48.59757" lon="1.98788">
        <ele>108.77</ele>
        <time>2018-06-14T08:02:16Z</time>
      </trkpt>
      <trkpt lat="48.59767" lon="1.98787">
        <ele>108.29</ele>
        <time>2018-06-14T08:02:22Z</time>
      </trkpt>
      <trkpt lat="48.59786" lon="1.98786">
        <ele>109.25</ele>
        <time>2018-06-14T08:02:32Z</time>
      </trkpt>
      <trkpt lat="48.59801" lon="1.98789">
        <ele>107.32</ele>
        <time>2018-06-14T08:02:42Z</time>
      </trkpt>
      <trkpt lat="48.59812" lon="1.98789">
        <ele>106.36</ele>
        <time>2018-06-14T08:02:50Z</time>
      </trkpt>
      <trkpt lat="48.59821" lon="1.9879">
        <ele>105.4</ele>
        <time>2018-06-14T08:02:58Z</time>
      </trkpt>
      <trkpt lat="48.59837" lon="1.98788">
        <ele>104.92</ele>
        <time>2018-06-14T08:03:07Z</time>
      </trkpt>
      <trkpt lat="48.59845" lon="1.98786">
        <ele>104.44</ele>
        <time>2018-06-14T08:03:12Z</time>
      </trkpt>
      <trkpt lat="48.59851" lon="1.98785">
        <ele>104.92</ele>
        <time>2018-06-14T08:03:16Z</time>
      </trkpt>
      <trkpt lat="48.59864" lon="1.98781">
        <ele>103.96</ele>
        <time>2018-06-14T08:03:25Z</time>
      </trkpt>
      <trkpt lat="48.59874" lon="1.98779">
        <ele>103.96</ele>
        <time>2018-06-14T08:03:32Z</time>
      </trkpt>
      <trkpt lat="48.59894" lon="1.98776">
        <ele>103</ele>
        <time>2018-06-14T08:03:42Z</time>
      </trkpt>
      <trkpt lat="48.59904" lon="1.9877">
        <ele>102.52</ele>
        <time>2018-06-14T08:03:52Z</time>
      </trkpt>
      <trkpt lat="48.59913" lon="1.98766">
        <ele>102.52</ele>
        <time>2018-06-14T08:03:59Z</time>
      </trkpt>
      <trkpt lat="48.59922" lon="1.98762">
        <ele>102.52</ele>
        <time>2018-06-14T08:04:04Z</time>
      </trkpt>
      <trkpt lat="48.59938" lon="1.98759">
        <ele>101.56</ele>
        <time>2018-06-14T08:04:14Z</time>
      </trkpt>
      <trkpt lat="48.5995" lon="1.98756">
        <ele>102.04</ele>
        <time>2018-06-14T08:04:22Z</time>
      </trkpt>
      <trkpt lat="48.59965" lon="1.98753">
        <ele>101.56</ele>
        <time>2018-06-14T08:04:30Z</time>
      </trkpt>
      <trkpt lat="48.59974" lon="1.98749">
        <ele>101.08</ele>
        <time>2018-06-14T08:04:37Z</time>
      </trkpt>
      <trkpt lat="48.59979" lon="1.98746">
        <ele>101.56</ele>
        <time>2018-06-14T08:04:40Z</time>
      </trkpt>
      <trkpt lat="48.59987" lon="1.98746">
        <ele>101.08</ele>
        <time>2018-06-14T08:04:47Z</time>
      </trkpt>
      <trkpt lat="48.59998" lon="1.98742">
        <ele>101.08</ele>
        <time>2018-06-14T08:04:55Z</time>
      </trkpt>
      <trkpt lat="48.60008" lon="1.98741">
        <ele>101.08</ele>
        <time>2018-06-14T08:05:04Z</time>
      </trkpt>
      <trkpt lat="48.60013" lon="1.9874">
        <ele>100.6</ele>
        <time>2018-06-14T08:05:08Z</time>
      </trkpt>
      <trkpt lat="48.60028" lon="1.98742">
        <ele>101.08</ele>
        <time>2018-06-14T08:05:16Z</time>
      </trkpt>
      <trkpt lat="48.60037" lon="1.98738">
        <ele>101.08</ele>
        <time>2018-06-14T08:05:23Z</time>
      </trkpt>
      <trkpt lat="48.6005" lon="1.98731">
        <ele>101.56</ele>
        <time>2018-06-14T08:05:31Z</time>
      </trkpt>
      <trkpt lat="48.60061" lon="1.98727">
        <ele>102.04</ele>
        <time>2018-06-14T08:05:42Z</time>
      </trkpt>
      <trkpt lat="48.60062" lon="1.98727">
        <ele>102.04</ele>
        <time>2018-06-14T08:05:43Z</time>
      </trkpt>
      <trkpt lat="48.60072" lon="1.98716">
        <ele>103</ele>
        <time>2018-06-14T08:05:51Z</time>
      </trkpt>
      <trkpt lat="48.60086" lon="1.98703">
        <ele>103</ele>
        <time>2018-06-14T08:05:58Z</time>
      </trkpt>
      <trkpt lat="48.60099" lon="1.98696">
        <ele>103.48</ele>
        <time>2018-06-14T08:06:06Z</time>
      </trkpt>
      <trkpt lat="48.60113" lon="1.98691">
        <ele>103.96</ele>
        <time>2018-06-14T08:06:16Z</time>
      </trkpt>
      <trkpt lat="48.60122" lon="1.98679">
        <ele>103.96</ele>
        <time>2018-06-14T08:06:24Z</time>
      </trkpt>
      <trkpt lat="48.60129" lon="1.98671">
        <ele>104.92</ele>
        <time>2018-06-14T08:06:32Z</time>
      </trkpt>
      <trkpt lat="48.6013" lon="1.98669">
        <ele>103.96</ele>
        <time>2018-06-14T08:06:34Z</time>
      </trkpt>
      <trkpt lat="48.60141" lon="1.98657">
        <ele>104.44</ele>
        <time>2018-06-14T08:06:41Z</time>
      </trkpt>
      <trkpt lat="48.60151" lon="1.98653">
        <ele>103.96</ele>
        <time>2018-06-14T08:06:48Z</time>
      </trkpt>
      <trkpt lat="48.60157" lon="1.98645">
        <ele>103.96</ele>
        <time>2018-06-14T08:06:54Z</time>
      </trkpt>
      <trkpt lat="48.60165" lon="1.98638">
        <ele>103</ele>
        <time>2018-06-14T08:07:00Z</time>
      </trkpt>
      <trkpt lat="48.60166" lon="1.98637">
        <ele>103</ele>
        <time>2018-06-14T08:07:01Z</time>
      </trkpt>
      <trkpt lat="48.6017" lon="1.98634">
        <ele>103</ele>
        <time>2018-06-14T08:07:04Z</time>
      </trkpt>
      <trkpt lat="48.60178" lon="1.98625">
        <ele>102.04</ele>
        <time>2018-06-14T08:07:12Z</time>
      </trkpt>
      <trkpt lat="48.60194" lon="1.98615">
        <ele>102.04</ele>
        <time>2018-06-14T08:07:21Z</time>
      </trkpt>
      <trkpt lat="48.60203" lon="1.98609">
        <ele>101.08</ele>
        <time>2018-06-14T08:07:28Z</time>
      </trkpt>
      <trkpt lat="48.60212" lon="1.986">
        <ele>101.08</ele>
        <time>2018-06-14T08:07:36Z</time>
      </trkpt>
      <trkpt lat="48.60224" lon="1.98589">
        <ele>101.08</ele>
        <time>2018-06-14T08:07:44Z</time>
      </trkpt>
      <trkpt lat="48.60228" lon="1.98581">
        <ele>100.6</ele>
        <time>2018-06-14T08:07:50Z</time>
      </trkpt>
      <trkpt lat="48.6023" lon="1.98579">
        <ele>100.11</ele>
        <time>2018-06-14T08:07:52Z</time>
      </trkpt>
      <trkpt lat="48.60238" lon="1.98568">
        <ele>100.11</ele>
        <time>2018-06-14T08:08:00Z</time>
      </trkpt>
      <trkpt lat="48.60253" lon="1.98555">
        <ele>99.63</ele>
        <time>2018-06-14T08:08:11Z</time>
      </trkpt>
      <trkpt lat="48.60259" lon="1.98548">
        <ele>100.11</ele>
        <time>2018-06-14T08:08:17Z</time>
      </trkpt>
      <trkpt lat="48.60265" lon="1.98542">
        <ele>99.63</ele>
        <time>2018-06-14T08:08:20Z</time>
      </trkpt>
      <trkpt lat="48.60272" lon="1.98528">
        <ele>99.63</ele>
        <time>2018-06-14T08:08:27Z</time>
      </trkpt>
      <trkpt lat="48.60282" lon="1.98513">
        <ele>100.11</ele>
        <time>2018-06-14T08:08:35Z</time>
      </trkpt>
      <trkpt lat="48.60288" lon="1.98505">
        <ele>100.11</ele>
        <time>2018-06-14T08:08:40Z</time>
      </trkpt>
      <trkpt lat="48.60298" lon="1.98492">
        <ele>101.08</ele>
        <time>2018-06-14T08:08:50Z</time>
      </trkpt>
      <trkpt lat="48.60298" lon="1.98472">
        <ele>101.08</ele>
        <time>2018-06-14T08:08:58Z</time>
      </trkpt>
      <trkpt lat="48.60306" lon="1.98457">
        <ele>101.08</ele>
        <time>2018-06-14T08:09:06Z</time>
      </trkpt>
      <trkpt lat="48.60314" lon="1.9845">
        <ele>100.6</ele>
        <time>2018-06-14T08:09:15Z</time>
      </trkpt>
      <trkpt lat="48.60316" lon="1.98449">
        <ele>100.6</ele>
        <time>2018-06-14T08:09:17Z</time>
      </trkpt>
      <trkpt lat="48.60321" lon="1.98448">
        <ele>100.6</ele>
        <time>2018-06-14T08:09:21Z</time>
      </trkpt>
      <trkpt lat="48.60336" lon="1.98435">
        <ele>100.11</ele>
        <time>2018-06-14T08:09:30Z</time>
      </trkpt>
      <trkpt lat="48.60344" lon="1.98423">
        <ele>99.15</ele>
        <time>2018-06-14T08:09:38Z</time>
      </trkpt>
      <trkpt lat="48.60352" lon="1.98413">
        <ele>98.19</ele>
        <time>2018-06-14T08:09:46Z</time>
      </trkpt>
      <trkpt lat="48.60368" lon="1.98405">
        <ele>97.71</ele>
        <time>2018-06-14T08:09:54Z</time>
      </trkpt>
      <trkpt lat="48.60378" lon="1.98401">
        <ele>96.75</ele>
        <time>2018-06-14T08:10:01Z</time>
      </trkpt>
      <trkpt lat="48.6039" lon="1.98395">
        <ele>96.75</ele>
        <time>2018-06-14T08:10:09Z</time>
      </trkpt>
      <trkpt lat="48.60398" lon="1.98395">
        <ele>96.27</ele>
        <time>2018-06-14T08:10:15Z</time>
      </trkpt>
      <trkpt lat="48.60405" lon="1.98392">
        <ele>96.27</ele>
        <time>2018-06-14T08:10:19Z</time>
      </trkpt>
      <trkpt lat="48.60417" lon="1.98385">
        <ele>96.27</ele>
        <time>2018-06-14T08:10:28Z</time>
      </trkpt>
      <trkpt lat="48.60424" lon="1.98381">
        <ele>95.79</ele>
        <time>2018-06-14T08:10:34Z</time>
      </trkpt>
      <trkpt lat="48.60432" lon="1.98378">
        <ele>95.79</ele>
        <time>2018-06-14T08:10:39Z</time>
      </trkpt>
      <trkpt lat="48.60444" lon="1.98376">
        <ele>95.79</ele>
        <time>2018-06-14T08:10:49Z</time>
      </trkpt>
      <trkpt lat="48.60452" lon="1.9837">
        <ele>95.79</ele>
        <time>2018-06-14T08:10:57Z</time>
      </trkpt>
      <trkpt lat="48.6046" lon="1.98369">
        <ele>95.79</ele>
        <time>2018-06-14T08:11:04Z</time>
      </trkpt>
      <trkpt lat="48.60474" lon="1.98368">
        <ele>96.27</ele>
        <time>2018-06-14T08:11:12Z</time>
      </trkpt>
      <trkpt lat="48.60488" lon="1.98368">
        <ele>95.79</ele>
        <time>2018-06-14T08:11:22Z</time>
      </trkpt>
      <trkpt lat="48.60496" lon="1.98366">
        <ele>96.27</ele>
        <time>2018-06-14T08:11:27Z</time>
      </trkpt>
      <trkpt lat="48.60512" lon="1.98364">
        <ele>96.27</ele>
        <time>2018-06-14T08:11:35Z</time>
      </trkpt>
      <trkpt lat="48.60516" lon="1.98362">
        <ele>96.27</ele>
        <time>2018-06-14T08:11:38Z</time>
      </trkpt>
      <trkpt lat="48.60525" lon="1.98355">
        <ele>97.71</ele>
        <time>2018-06-14T08:11:46Z</time>
      </trkpt>
      <trkpt lat="48.60527" lon="1.98351">
        <ele>97.23</ele>
        <time>2018-06-14T08:11:49Z</time>
      </trkpt>
      <trkpt lat="48.60524" lon="1.9834">
        <ele>97.71</ele>
        <time>2018-06-14T08:11:55Z</time>
      </trkpt>
      <trkpt lat="48.60517" lon="1.98333">
        <ele>97.23</ele>
        <time>2018-06-14T08:12:02Z</time>
      </trkpt>
      <trkpt lat="48.60512" lon="1.98325">
        <ele>97.71</ele>
        <time>2018-06-14T08:12:07Z</time>
      </trkpt>
      <trkpt lat="48.60504" lon="1.98314">
        <ele>97.71</ele>
        <time>2018-06-14T08:12:14Z</time>
      </trkpt>
      <trkpt lat="48.60496" lon="1.98308">
        <ele>97.23</ele>
        <time>2018-06-14T08:12:20Z</time>
      </trkpt>
      <trkpt lat="48.60489" lon="1.98302">
        <ele>97.71</ele>
        <time>2018-06-14T08:12:27Z</time>
      </trkpt>
      <trkpt lat="48.60481" lon="1.98293">
        <ele>98.67</ele>
        <time>2018-06-14T08:12:33Z</time>
      </trkpt>
      <trkpt lat="48.60474" lon="1.98285">
        <ele>97.71</ele>
        <time>2018-06-14T08:12:40Z</time>
      </trkpt>
      <trkpt lat="48.60468" lon="1.98281">
        <ele>97.71</ele>
        <time>2018-06-14T08:12:44Z</time>
      </trkpt>
      <trkpt lat="48.60463" lon="1.98271">
        <ele>97.71</ele>
        <time>2018-06-14T08:12:48Z</time>
      </trkpt>
      <trkpt lat="48.60458" lon="1.98266">
        <ele>97.71</ele>
        <time>2018-06-14T08:12:51Z</time>
      </trkpt>
      <trkpt lat="48.60446" lon="1.98253">
        <ele>97.71</ele>
        <time>2018-06-14T08:13:00Z</time>
      </trkpt>
      <trkpt lat="48.60438" lon="1.98247">
        <ele>97.71</ele>
        <time>2018-06-14T08:13:08Z</time>
      </trkpt>
      <trkpt lat="48.60437" lon="1.98246">
        <ele>97.71</ele>
        <time>2018-06-14T08:13:09Z</time>
      </trkpt>
      <trkpt lat="48.60425" lon="1.98232">
        <ele>98.19</ele>
        <time>2018-06-14T08:13:17Z</time>
      </trkpt>
      <trkpt lat="48.60424" lon="1.9823">
        <ele>97.71</ele>
        <time>2018-06-14T08:13:18Z</time>
      </trkpt>
      <trkpt lat="48.6042" lon="1.98226">
        <ele>97.71</ele>
        <time>2018-06-14T08:13:24Z</time>
      </trkpt>
      <trkpt lat="48.60417" lon="1.98224">
        <ele>98.19</ele>
        <time>2018-06-14T08:13:28Z</time>
      </trkpt>
      <trkpt lat="48.60406" lon="1.98215">
        <ele>98.19</ele>
        <time>2018-06-14T08:13:35Z</time>
      </trkpt>
      <trkpt lat="48.60397" lon="1.98205">
        <ele>98.67</ele>
        <time>2018-06-14T08:13:40Z</time>
      </trkpt>
      <trkpt lat="48.6039" lon="1.98197">
        <ele>98.19</ele>
        <time>2018-06-14T08:13:47Z</time>
      </trkpt>
      <trkpt lat="48.60386" lon="1.98195">
        <ele>99.15</ele>
        <time>2018-06-14T08:13:52Z</time>
      </trkpt>
      <trkpt lat="48.60381" lon="1.98189">
        <ele>99.15</ele>
        <time>2018-06-14T08:13:56Z</time>
      </trkpt>
      <trkpt lat="48.60377" lon="1.98186">
        <ele>98.67</ele>
        <time>2018-06-14T08:13:58Z</time>
      </trkpt>
      <trkpt lat="48.6037" lon="1.98176">
        <ele>99.63</ele>
        <time>2018-06-14T08:14:04Z</time>
      </trkpt>
      <trkpt lat="48.60367" lon="1.98173">
        <ele>99.63</ele>
        <time>2018-06-14T08:14:08Z</time>
      </trkpt>
      <trkpt lat="48.60362" lon="1.98168">
        <ele>99.63</ele>
        <time>2018-06-14T08:14:11Z</time>
      </trkpt>
      <trkpt lat="48.60355" lon="1.9816">
        <ele>99.63</ele>
        <time>2018-06-14T08:14:15Z</time>
      </trkpt>
      <trkpt lat="48.60345" lon="1.9815">
        <ele>100.11</ele>
        <time>2018-06-14T08:14:22Z</time>
      </trkpt>
      <trkpt lat="48.60337" lon="1.98144">
        <ele>100.11</ele>
        <time>2018-06-14T08:14:29Z</time>
      </trkpt>
      <trkpt lat="48.60335" lon="1.98141">
        <ele>100.6</ele>
        <time>2018-06-14T08:14:32Z</time>
      </trkpt>
      <trkpt lat="48.60329" lon="1.98132">
        <ele>100.6</ele>
        <time>2018-06-14T08:14:40Z</time>
      </trkpt>
      <trkpt lat="48.60321" lon="1.98124">
        <ele>101.08</ele>
        <time>2018-06-14T08:14:47Z</time>
      </trkpt>
      <trkpt lat="48.60319" lon="1.98122">
        <ele>101.08</ele>
        <time>2018-06-14T08:14:48Z</time>
      </trkpt>
      <trkpt lat="48.60312" lon="1.98114">
        <ele>101.08</ele>
        <time>2018-06-14T08:14:53Z</time>
      </trkpt>
      <trkpt lat="48.60309" lon="1.98109">
        <ele>101.08</ele>
        <time>2018-06-14T08:14:59Z</time>
      </trkpt>
      <trkpt lat="48.60304" lon="1.98106">
        <ele>101.08</ele>
        <time>2018-06-14T08:15:03Z</time>
      </trkpt>
      <trkpt lat="48.60299" lon="1.98103">
        <ele>101.08</ele>
        <time>2018-06-14T08:15:06Z</time>
      </trkpt>
      <trkpt lat="48.60294" lon="1.98096">
        <ele>101.56</ele>
        <time>2018-06-14T08:15:10Z</time>
      </trkpt>
      <trkpt lat="48.60292" lon="1.98091">
        <ele>101.56</ele>
        <time>2018-06-14T08:15:14Z</time>
      </trkpt>
      <trkpt lat="48.60283" lon="1.98082">
        <ele>101.56</ele>
        <time>2018-06-14T08:15:21Z</time>
      </trkpt>
      <trkpt lat="48.60279" lon="1.98078">
        <ele>102.04</ele>
        <time>2018-06-14T08:15:24Z</time>
      </trkpt>
      <trkpt lat="48.60269" lon="1.98067">
        <ele>102.04</ele>
        <time>2018-06-14T08:15:30Z</time>
      </trkpt>
      <trkpt lat="48.60262" lon="1.98061">
        <ele>102.52</ele>
        <time>2018-06-14T08:15:35Z</time>
      </trkpt>
      <trkpt lat="48.60261" lon="1.98061">
        <ele>102.04</ele>
        <time>2018-06-14T08:15:36Z</time>
      </trkpt>
      <trkpt lat="48.60253" lon="1.98055">
        <ele>102.52</ele>
        <time>2018-06-14T08:15:41Z</time>
      </trkpt>
      <trkpt lat="48.60241" lon="1.98045">
        <ele>103</ele>
        <time>2018-06-14T08:15:49Z</time>
      </trkpt>
      <trkpt lat="48.60241" lon="1.98044">
        <ele>103</ele>
        <time>2018-06-14T08:15:50Z</time>
      </trkpt>
      <trkpt lat="48.60234" lon="1.98036">
        <ele>103.48</ele>
        <time>2018-06-14T08:15:56Z</time>
      </trkpt>
      <trkpt lat="48.60222" lon="1.98021">
        <ele>103.48</ele>
        <time>2018-06-14T08:16:04Z</time>
      </trkpt>
      <trkpt lat="48.60216" lon="1.98017">
        <ele>103.96</ele>
        <time>2018-06-14T08:16:08Z</time>
      </trkpt>
      <trkpt lat="48.6021" lon="1.9801">
        <ele>104.44</ele>
        <time>2018-06-14T08:16:15Z</time>
      </trkpt>
      <trkpt lat="48.60204" lon="1.98002">
        <ele>104.44</ele>
        <time>2018-06-14T08:16:20Z</time>
      </trkpt>
      <trkpt lat="48.60198" lon="1.97992">
        <ele>104.44</ele>
        <time>2018-06-14T08:16:25Z</time>
      </trkpt>
      <trkpt lat="48.60192" lon="1.97983">
        <ele>104.92</ele>
        <time>2018-06-14T08:16:32Z</time>
      </trkpt>
      <trkpt lat="48.60181" lon="1.97975">
        <ele>104.92</ele>
        <time>2018-06-14T08:16:41Z</time>
      </trkpt>
      <trkpt lat="48.60172" lon="1.97968">
        <ele>105.4</ele>
        <time>2018-06-14T08:16:48Z</time>
      </trkpt>
      <trkpt lat="48.60168" lon="1.97963">
        <ele>104.92</ele>
        <time>2018-06-14T08:16:51Z</time>
      </trkpt>
      <trkpt lat="48.60157" lon="1.97953">
        <ele>104.92</ele>
        <time>2018-06-14T08:16:59Z</time>
      </trkpt>
      <trkpt lat="48.60154" lon="1.9795">
        <ele>105.4</ele>
        <time>2018-06-14T08:17:02Z</time>
      </trkpt>
      <trkpt lat="48.60148" lon="1.97944">
        <ele>105.4</ele>
        <time>2018-06-14T08:17:05Z</time>
      </trkpt>
      <trkpt lat="48.60137" lon="1.97935">
        <ele>105.4</ele>
        <time>2018-06-14T08:17:13Z</time>
      </trkpt>
      <trkpt lat="48.60136" lon="1.97933">
        <ele>105.88</ele>
        <time>2018-06-14T08:17:15Z</time>
      </trkpt>
      <trkpt lat="48.60126" lon="1.97921">
        <ele>105.88</ele>
        <time>2018-06-14T08:17:24Z</time>
      </trkpt>
      <trkpt lat="48.60123" lon="1.97918">
        <ele>106.36</ele>
        <time>2018-06-14T08:17:26Z</time>
      </trkpt>
      <trkpt lat="48.60118" lon="1.97912">
        <ele>106.36</ele>
        <time>2018-06-14T08:17:30Z</time>
      </trkpt>
      <trkpt lat="48.60117" lon="1.97908">
        <ele>106.36</ele>
        <time>2018-06-14T08:17:33Z</time>
      </trkpt>
      <trkpt lat="48.60114" lon="1.97905">
        <ele>106.36</ele>
        <time>2018-06-14T08:17:36Z</time>
      </trkpt>
      <trkpt lat="48.60107" lon="1.97897">
        <ele>106.36</ele>
        <time>2018-06-14T08:17:42Z</time>
      </trkpt>
      <trkpt lat="48.60098" lon="1.97885">
        <ele>107.32</ele>
        <time>2018-06-14T08:17:49Z</time>
      </trkpt>
      <trkpt lat="48.60097" lon="1.97883">
        <ele>106.84</ele>
        <time>2018-06-14T08:17:50Z</time>
      </trkpt>
      <trkpt lat="48.60094" lon="1.97877">
        <ele>106.84</ele>
        <time>2018-06-14T08:17:55Z</time>
      </trkpt>
      <trkpt lat="48.60088" lon="1.97873">
        <ele>106.84</ele>
        <time>2018-06-14T08:17:59Z</time>
      </trkpt>
      <trkpt lat="48.60086" lon="1.97872">
        <ele>107.32</ele>
        <time>2018-06-14T08:18:01Z</time>
      </trkpt>
      <trkpt lat="48.60078" lon="1.97866">
        <ele>107.32</ele>
        <time>2018-06-14T08:18:08Z</time>
      </trkpt>
      <trkpt lat="48.60076" lon="1.97864">
        <ele>107.32</ele>
        <time>2018-06-14T08:18:09Z</time>
      </trkpt>
      <trkpt lat="48.60072" lon="1.9786">
        <ele>107.32</ele>
        <time>2018-06-14T08:18:12Z</time>
      </trkpt>
      <trkpt lat="48.60062" lon="1.97848">
        <ele>107.81</ele>
        <time>2018-06-14T08:18:19Z</time>
      </trkpt>
      <trkpt lat="48.6006" lon="1.97845">
        <ele>107.81</ele>
        <time>2018-06-14T08:18:21Z</time>
      </trkpt>
      <trkpt lat="48.60053" lon="1.97835">
        <ele>108.29</ele>
        <time>2018-06-14T08:18:29Z</time>
      </trkpt>
      <trkpt lat="48.60049" lon="1.97831">
        <ele>108.29</ele>
        <time>2018-06-14T08:18:32Z</time>
      </trkpt>
      <trkpt lat="48.60035" lon="1.97816">
        <ele>108.29</ele>
        <time>2018-06-14T08:18:41Z</time>
      </trkpt>
      <trkpt lat="48.60034" lon="1.97814">
        <ele>108.77</ele>
        <time>2018-06-14T08:18:42Z</time>
      </trkpt>
      <trkpt lat="48.60024" lon="1.97806">
        <ele>108.77</ele>
        <time>2018-06-14T08:18:47Z</time>
      </trkpt>
      <trkpt lat="48.60015" lon="1.97798">
        <ele>109.25</ele>
        <time>2018-06-14T08:18:54Z</time>
      </trkpt>
      <trkpt lat="48.60008" lon="1.97786">
        <ele>110.21</ele>
        <time>2018-06-14T08:19:03Z</time>
      </trkpt>
      <trkpt lat="48.60006" lon="1.97778">
        <ele>110.21</ele>
        <time>2018-06-14T08:19:07Z</time>
      </trkpt>
      <trkpt lat="48.59996" lon="1.97757">
        <ele>110.69</ele>
        <time>2018-06-14T08:19:16Z</time>
      </trkpt>
      <trkpt lat="48.59996" lon="1.97756">
        <ele>110.69</ele>
        <time>2018-06-14T08:19:17Z</time>
      </trkpt>
      <trkpt lat="48.59994" lon="1.97751">
        <ele>110.69</ele>
        <time>2018-06-14T08:19:20Z</time>
      </trkpt>
      <trkpt lat="48.59987" lon="1.97738">
        <ele>110.69</ele>
        <time>2018-06-14T08:19:27Z</time>
      </trkpt>
      <trkpt lat="48.59984" lon="1.97726">
        <ele>110.69</ele>
        <time>2018-06-14T08:19:32Z</time>
      </trkpt>
      <trkpt lat="48.59982" lon="1.97705">
        <ele>110.69</ele>
        <time>2018-06-14T08:19:39Z</time>
      </trkpt>
      <trkpt lat="48.59982" lon="1.97704">
        <ele>110.69</ele>
        <time>2018-06-14T08:19:40Z</time>
      </trkpt>
      <trkpt lat="48.59985" lon="1.97697">
        <ele>110.69</ele>
        <time>2018-06-14T08:19:45Z</time>
      </trkpt>
      <trkpt lat="48.59985" lon="1.97697">
        <ele>110.69</ele>
        <time>2018-06-14T08:19:55Z</time>
      </trkpt>
      <trkpt lat="48.59985" lon="1.97698">
        <ele>110.69</ele>
        <time>2018-06-14T08:20:07Z</time>
      </trkpt>
      <trkpt lat="48.59984" lon="1.97698">
        <ele>110.69</ele>
        <time>2018-06-14T08:20:22Z</time>
      </trkpt>
      <trkpt lat="48.59984" lon="1.97698">
        <ele>110.69</ele>
        <time>2018-06-14T08:20:36Z</time>
      </trkpt>
      <trkpt lat="48.59984" lon="1.97699">
        <ele>110.69</ele>
        <time>2018-06-14T08:20:51Z</time>
      </trkpt>
      <trkpt lat="48.59984" lon="1.97699">
        <ele>110.69</ele>
        <time>2018-06-14T08:21:05Z</time>
      </trkpt>
      <trkpt lat="48.59985" lon="1.97698">
        <ele>111.17</ele>
        <time>2018-06-14T08:21:14Z</time>
      </trkpt>
      <trkpt lat="48.59985" lon="1.97698">
        <ele>111.17</ele>
        <time>2018-06-14T08:21:28Z</time>
      </trkpt>
      <trkpt lat="48.59985" lon="1.97699">
        <ele>111.65</ele>
        <time>2018-06-14T08:21:36Z</time>
      </trkpt>
      <trkpt lat="48.59985" lon="1.97699">
        <ele>111.65</ele>
        <time>2018-06-14T08:21:48Z</time>
      </trkpt>
      <trkpt lat="48.59985" lon="1.97699">
        <ele>111.65</ele>
        <time>2018-06-14T08:21:54Z</time>
      </trkpt>
      <trkpt lat="48.59984" lon="1.97697">
        <ele>111.17</ele>
        <time>2018-06-14T08:21:59Z</time>
      </trkpt>
      <trkpt lat="48.59984" lon="1.97698">
        <ele>111.17</ele>
        <time>2018-06-14T08:22:07Z</time>
      </trkpt>
      <trkpt lat="48.59984" lon="1.97698">
        <ele>111.17</ele>
        <time>2018-06-14T08:22:21Z</time>
      </trkpt>
      <trkpt lat="48.59984" lon="1.97699">
        <ele>111.17</ele>
        <time>2018-06-14T08:22:33Z</time>
      </trkpt>
      <trkpt lat="48.59984" lon="1.977">
        <ele>111.65</ele>
        <time>2018-06-14T08:22:45Z</time>
      </trkpt>
      <trkpt lat="48.59984" lon="1.97699">
        <ele>111.17</ele>
        <time>2018-06-14T08:22:53Z</time>
      </trkpt>
      <trkpt lat="48.59985" lon="1.97695">
        <ele>112.13</ele>
        <time>2018-06-14T08:22:57Z</time>
      </trkpt>
      <trkpt lat="48.5999" lon="1.97685">
        <ele>111.65</ele>
        <time>2018-06-14T08:23:03Z</time>
      </trkpt>
      <trkpt lat="48.59992" lon="1.97675">
        <ele>113.09</ele>
        <time>2018-06-14T08:23:08Z</time>
      </trkpt>
      <trkpt lat="48.59994" lon="1.97666">
        <ele>112.61</ele>
        <time>2018-06-14T08:23:12Z</time>
      </trkpt>
      <trkpt lat="48.59999" lon="1.9766">
        <ele>114.05</ele>
        <time>2018-06-14T08:23:16Z</time>
      </trkpt>
      <trkpt lat="48.6" lon="1.97654">
        <ele>113.57</ele>
        <time>2018-06-14T08:23:21Z</time>
      </trkpt>
      <trkpt lat="48.60002" lon="1.97648">
        <ele>114.53</ele>
        <time>2018-06-14T08:23:24Z</time>
      </trkpt>
      <trkpt lat="48.60008" lon="1.97634">
        <ele>115.5</ele>
        <time>2018-06-14T08:23:31Z</time>
      </trkpt>
      <trkpt lat="48.60011" lon="1.97629">
        <ele>115.5</ele>
        <time>2018-06-14T08:23:36Z</time>
      </trkpt>
      <trkpt lat="48.60015" lon="1.97614">
        <ele>115.98</ele>
        <time>2018-06-14T08:23:44Z</time>
      </trkpt>
      <trkpt lat="48.60023" lon="1.97599">
        <ele>117.42</ele>
        <time>2018-06-14T08:23:53Z</time>
      </trkpt>
      <trkpt lat="48.6003" lon="1.97587">
        <ele>116.46</ele>
        <time>2018-06-14T08:23:59Z</time>
      </trkpt>
      <trkpt lat="48.60037" lon="1.97578">
        <ele>117.42</ele>
        <time>2018-06-14T08:24:06Z</time>
      </trkpt>
      <trkpt lat="48.60046" lon="1.9757">
        <ele>116.94</ele>
        <time>2018-06-14T08:24:12Z</time>
      </trkpt>
      <trkpt lat="48.60055" lon="1.97549">
        <ele>117.9</ele>
        <time>2018-06-14T08:24:21Z</time>
      </trkpt>
      <trkpt lat="48.60057" lon="1.97545">
        <ele>118.86</ele>
        <time>2018-06-14T08:24:25Z</time>
      </trkpt>
      <trkpt lat="48.60057" lon="1.97536">
        <ele>118.86</ele>
        <time>2018-06-14T08:24:29Z</time>
      </trkpt>
      <trkpt lat="48.60061" lon="1.97515">
        <ele>119.34</ele>
        <time>2018-06-14T08:24:39Z</time>
      </trkpt>
      <trkpt lat="48.60067" lon="1.97498">
        <ele>120.78</ele>
        <time>2018-06-14T08:24:47Z</time>
      </trkpt>
      <trkpt lat="48.60075" lon="1.97485">
        <ele>121.74</ele>
        <time>2018-06-14T08:24:54Z</time>
      </trkpt>
      <trkpt lat="48.60078" lon="1.97474">
        <ele>121.26</ele>
        <time>2018-06-14T08:25:01Z</time>
      </trkpt>
      <trkpt lat="48.60079" lon="1.97472">
        <ele>122.71</ele>
        <time>2018-06-14T08:25:02Z</time>
      </trkpt>
      <trkpt lat="48.60083" lon="1.97458">
        <ele>124.15</ele>
        <time>2018-06-14T08:25:11Z</time>
      </trkpt>
      <trkpt lat="48.60086" lon="1.97439">
        <ele>125.11</ele>
        <time>2018-06-14T08:25:20Z</time>
      </trkpt>
      <trkpt lat="48.60092" lon="1.97427">
        <ele>127.03</ele>
        <time>2018-06-14T08:25:26Z</time>
      </trkpt>
      <trkpt lat="48.60097" lon="1.97417">
        <ele>128.95</ele>
        <time>2018-06-14T08:25:33Z</time>
      </trkpt>
      <trkpt lat="48.60099" lon="1.97414">
        <ele>128.95</ele>
        <time>2018-06-14T08:25:35Z</time>
      </trkpt>
      <trkpt lat="48.60107" lon="1.97402">
        <ele>129.92</ele>
        <time>2018-06-14T08:25:42Z</time>
      </trkpt>
      <trkpt lat="48.60109" lon="1.97398">
        <ele>131.84</ele>
        <time>2018-06-14T08:25:45Z</time>
      </trkpt>
      <trkpt lat="48.60115" lon="1.97388">
        <ele>133.28</ele>
        <time>2018-06-14T08:25:54Z</time>
      </trkpt>
      <trkpt lat="48.60117" lon="1.97384">
        <ele>134.24</ele>
        <time>2018-06-14T08:25:57Z</time>
      </trkpt>
      <trkpt lat="48.60118" lon="1.97381">
        <ele>135.2</ele>
        <time>2018-06-14T08:25:59Z</time>
      </trkpt>
      <trkpt lat="48.60121" lon="1.9737">
        <ele>136.16</ele>
        <time>2018-06-14T08:26:05Z</time>
      </trkpt>
      <trkpt lat="48.60126" lon="1.97361">
        <ele>137.13</ele>
        <time>2018-06-14T08:26:11Z</time>
      </trkpt>
      <trkpt lat="48.60133" lon="1.97349">
        <ele>137.13</ele>
        <time>2018-06-14T08:26:19Z</time>
      </trkpt>
      <trkpt lat="48.60134" lon="1.97345">
        <ele>137.13</ele>
        <time>2018-06-14T08:26:22Z</time>
      </trkpt>
      <trkpt lat="48.60148" lon="1.97326">
        <ele>137.61</ele>
        <time>2018-06-14T08:26:33Z</time>
      </trkpt>
      <trkpt lat="48.60154" lon="1.97334">
        <ele>137.61</ele>
        <time>2018-06-14T08:26:43Z</time>
      </trkpt>
      <trkpt lat="48.60163" lon="1.97347">
        <ele>136.64</ele>
        <time>2018-06-14T08:26:51Z</time>
      </trkpt>
      <trkpt lat="48.60171" lon="1.97355">
        <ele>136.64</ele>
        <time>2018-06-14T08:26:57Z</time>
      </trkpt>
      <trkpt lat="48.60185" lon="1.97366">
        <ele>136.16</ele>
        <time>2018-06-14T08:27:08Z</time>
      </trkpt>
      <trkpt lat="48.6019" lon="1.97369">
        <ele>135.68</ele>
        <time>2018-06-14T08:27:12Z</time>
      </trkpt>
      <trkpt lat="48.60203" lon="1.97385">
        <ele>135.2</ele>
        <time>2018-06-14T08:27:23Z</time>
      </trkpt>
      <trkpt lat="48.60217" lon="1.974">
        <ele>134.24</ele>
        <time>2018-06-14T08:27:34Z</time>
      </trkpt>
      <trkpt lat="48.60231" lon="1.9741">
        <ele>132.32</ele>
        <time>2018-06-14T08:27:44Z</time>
      </trkpt>
      <trkpt lat="48.60241" lon="1.97418">
        <ele>131.36</ele>
        <time>2018-06-14T08:27:52Z</time>
      </trkpt>
      <trkpt lat="48.60251" lon="1.97427">
        <ele>128.47</ele>
        <time>2018-06-14T08:28:01Z</time>
      </trkpt>
      <trkpt lat="48.60261" lon="1.9744">
        <ele>126.55</ele>
        <time>2018-06-14T08:28:10Z</time>
      </trkpt>
      <trkpt lat="48.60268" lon="1.97446">
        <ele>123.67</ele>
        <time>2018-06-14T08:28:18Z</time>
      </trkpt>
      <trkpt lat="48.60277" lon="1.97458">
        <ele>121.26</ele>
        <time>2018-06-14T08:28:27Z</time>
      </trkpt>
      <trkpt lat="48.60284" lon="1.97465">
        <ele>120.78</ele>
        <time>2018-06-14T08:28:35Z</time>
      </trkpt>
      <trkpt lat="48.6029" lon="1.97469">
        <ele>118.86</ele>
        <time>2018-06-14T08:28:39Z</time>
      </trkpt>
      <trkpt lat="48.60305" lon="1.9748">
        <ele>116.94</ele>
        <time>2018-06-14T08:28:48Z</time>
      </trkpt>
      <trkpt lat="48.60313" lon="1.97493">
        <ele>115.5</ele>
        <time>2018-06-14T08:28:57Z</time>
      </trkpt>
      <trkpt lat="48.60324" lon="1.97506">
        <ele>114.05</ele>
        <time>2018-06-14T08:29:06Z</time>
      </trkpt>
      <trkpt lat="48.60334" lon="1.97515">
        <ele>114.05</ele>
        <time>2018-06-14T08:29:15Z</time>
      </trkpt>
      <trkpt lat="48.60347" lon="1.97525">
        <ele>112.61</ele>
        <time>2018-06-14T08:29:24Z</time>
      </trkpt>
      <trkpt lat="48.60355" lon="1.97533">
        <ele>112.13</ele>
        <time>2018-06-14T08:29:32Z</time>
      </trkpt>
      <trkpt lat="48.60364" lon="1.97544">
        <ele>111.17</ele>
        <time>2018-06-14T08:29:41Z</time>
      </trkpt>
      <trkpt lat="48.60374" lon="1.97555">
        <ele>111.17</ele>
        <time>2018-06-14T08:29:49Z</time>
      </trkpt>
      <trkpt lat="48.60383" lon="1.97569">
        <ele>110.69</ele>
        <time>2018-06-14T08:29:58Z</time>
      </trkpt>
      <trkpt lat="48.60398" lon="1.97583">
        <ele>110.21</ele>
        <time>2018-06-14T08:30:08Z</time>
      </trkpt>
      <trkpt lat="48.60408" lon="1.97596">
        <ele>109.25</ele>
        <time>2018-06-14T08:30:17Z</time>
      </trkpt>
      <trkpt lat="48.60417" lon="1.97608">
        <ele>108.29</ele>
        <time>2018-06-14T08:30:24Z</time>
      </trkpt>
      <trkpt lat="48.60424" lon="1.97616">
        <ele>108.29</ele>
        <time>2018-06-14T08:30:29Z</time>
      </trkpt>
      <trkpt lat="48.60437" lon="1.97629">
        <ele>108.29</ele>
        <time>2018-06-14T08:30:38Z</time>
      </trkpt>
      <trkpt lat="48.60443" lon="1.97639">
        <ele>107.81</ele>
        <time>2018-06-14T08:30:46Z</time>
      </trkpt>
      <trkpt lat="48.60453" lon="1.97651">
        <ele>106.84</ele>
        <time>2018-06-14T08:30:55Z</time>
      </trkpt>
      <trkpt lat="48.6047" lon="1.97665">
        <ele>106.36</ele>
        <time>2018-06-14T08:31:06Z</time>
      </trkpt>
      <trkpt lat="48.60476" lon="1.97664">
        <ele>106.36</ele>
        <time>2018-06-14T08:31:08Z</time>
      </trkpt>
      <trkpt lat="48.60492" lon="1.97679">
        <ele>104.92</ele>
        <time>2018-06-14T08:31:19Z</time>
      </trkpt>
      <trkpt lat="48.60503" lon="1.97694">
        <ele>103.96</ele>
        <time>2018-06-14T08:31:28Z</time>
      </trkpt>
      <trkpt lat="48.60521" lon="1.97706">
        <ele>102.52</ele>
        <time>2018-06-14T08:31:36Z</time>
      </trkpt>
      <trkpt lat="48.60532" lon="1.97713">
        <ele>103</ele>
        <time>2018-06-14T08:31:42Z</time>
      </trkpt>
      <trkpt lat="48.60542" lon="1.9772">
        <ele>102.04</ele>
        <time>2018-06-14T08:31:48Z</time>
      </trkpt>
      <trkpt lat="48.60551" lon="1.9773">
        <ele>101.08</ele>
        <time>2018-06-14T08:31:55Z</time>
      </trkpt>
      <trkpt lat="48.60559" lon="1.9774">
        <ele>101.08</ele>
        <time>2018-06-14T08:32:03Z</time>
      </trkpt>
      <trkpt lat="48.6057" lon="1.97752">
        <ele>100.6</ele>
        <time>2018-06-14T08:32:12Z</time>
      </trkpt>
      <trkpt lat="48.60581" lon="1.97763">
        <ele>100.6</ele>
        <time>2018-06-14T08:32:19Z</time>
      </trkpt>
      <trkpt lat="48.60592" lon="1.97776">
        <ele>99.15</ele>
        <time>2018-06-14T08:32:28Z</time>
      </trkpt>
      <trkpt lat="48.60602" lon="1.9779">
        <ele>99.15</ele>
        <time>2018-06-14T08:32:39Z</time>
      </trkpt>
      <trkpt lat="48.60617" lon="1.97802">
        <ele>99.15</ele>
        <time>2018-06-14T08:32:48Z</time>
      </trkpt>
      <trkpt lat="48.60631" lon="1.97816">
        <ele>99.15</ele>
        <time>2018-06-14T08:32:57Z</time>
      </trkpt>
      <trkpt lat="48.60644" lon="1.97828">
        <ele>98.67</ele>
        <time>2018-06-14T08:33:05Z</time>
      </trkpt>
      <trkpt lat="48.60656" lon="1.97839">
        <ele>98.19</ele>
        <time>2018-06-14T08:33:15Z</time>
      </trkpt>
      <trkpt lat="48.60672" lon="1.97856">
        <ele>98.19</ele>
        <time>2018-06-14T08:33:26Z</time>
      </trkpt>
      <trkpt lat="48.60685" lon="1.97867">
        <ele>98.67</ele>
        <time>2018-06-14T08:33:35Z</time>
      </trkpt>
      <trkpt lat="48.60695" lon="1.97878">
        <ele>97.71</ele>
        <time>2018-06-14T08:33:44Z</time>
      </trkpt>
      <trkpt lat="48.60707" lon="1.97896">
        <ele>97.71</ele>
        <time>2018-06-14T08:33:56Z</time>
      </trkpt>
      <trkpt lat="48.60717" lon="1.97903">
        <ele>97.71</ele>
        <time>2018-06-14T08:34:05Z</time>
      </trkpt>
      <trkpt lat="48.60732" lon="1.97914">
        <ele>97.71</ele>
        <time>2018-06-14T08:34:15Z</time>
      </trkpt>
      <trkpt lat="48.60746" lon="1.97926">
        <ele>97.23</ele>
        <time>2018-06-14T08:34:24Z</time>
      </trkpt>
      <trkpt lat="48.60757" lon="1.97937">
        <ele>96.75</ele>
        <time>2018-06-14T08:34:33Z</time>
      </trkpt>
      <trkpt lat="48.60764" lon="1.97946">
        <ele>95.31</ele>
        <time>2018-06-14T08:34:42Z</time>
      </trkpt>
      <trkpt lat="48.60766" lon="1.97946">
        <ele>96.27</ele>
        <time>2018-06-14T08:34:44Z</time>
      </trkpt>
      <trkpt lat="48.6077" lon="1.97949">
        <ele>96.27</ele>
        <time>2018-06-14T08:34:46Z</time>
      </trkpt>
      <trkpt lat="48.60792" lon="1.9796">
        <ele>95.31</ele>
        <time>2018-06-14T08:34:58Z</time>
      </trkpt>
      <trkpt lat="48.60804" lon="1.97964">
        <ele>94.83</ele>
        <time>2018-06-14T08:35:08Z</time>
      </trkpt>
      <trkpt lat="48.60811" lon="1.97965">
        <ele>94.35</ele>
        <time>2018-06-14T08:35:16Z</time>
      </trkpt>
      <trkpt lat="48.60811" lon="1.97965">
        <ele>94.35</ele>
        <time>2018-06-14T08:35:30Z</time>
      </trkpt>
      <trkpt lat="48.60811" lon="1.97966">
        <ele>94.35</ele>
        <time>2018-06-14T08:35:42Z</time>
      </trkpt>
      <trkpt lat="48.60811" lon="1.97968">
        <ele>94.83</ele>
        <time>2018-06-14T08:35:55Z</time>
      </trkpt>
      <trkpt lat="48.60812" lon="1.9797">
        <ele>94.35</ele>
        <time>2018-06-14T08:36:09Z</time>
      </trkpt>
      <trkpt lat="48.60811" lon="1.97969">
        <ele>94.35</ele>
        <time>2018-06-14T08:36:20Z</time>
      </trkpt>
      <trkpt lat="48.60811" lon="1.97967">
        <ele>94.35</ele>
        <time>2018-06-14T08:36:33Z</time>
      </trkpt>
      <trkpt lat="48.60811" lon="1.97967">
        <ele>94.35</ele>
        <time>2018-06-14T08:36:48Z</time>
      </trkpt>
      <trkpt lat="48.60811" lon="1.97966">
        <ele>93.87</ele>
        <time>2018-06-14T08:37:02Z</time>
      </trkpt>
      <trkpt lat="48.60812" lon="1.97961">
        <ele>93.87</ele>
        <time>2018-06-14T08:37:08Z</time>
      </trkpt>
      <trkpt lat="48.60813" lon="1.97949">
        <ele>93.87</ele>
        <time>2018-06-14T08:37:16Z</time>
      </trkpt>
      <trkpt lat="48.60812" lon="1.97928">
        <ele>94.35</ele>
        <time>2018-06-14T08:37:23Z</time>
      </trkpt>
      <trkpt lat="48.60814" lon="1.97906">
        <ele>94.35</ele>
        <time>2018-06-14T08:37:31Z</time>
      </trkpt>
      <trkpt lat="48.60816" lon="1.97891">
        <ele>93.87</ele>
        <time>2018-06-14T08:37:36Z</time>
      </trkpt>
      <trkpt lat="48.6082" lon="1.97872">
        <ele>94.35</ele>
        <time>2018-06-14T08:37:44Z</time>
      </trkpt>
      <trkpt lat="48.6082" lon="1.97859">
        <ele>93.87</ele>
        <time>2018-06-14T08:37:50Z</time>
      </trkpt>
      <trkpt lat="48.60819" lon="1.97842">
        <ele>93.87</ele>
        <time>2018-06-14T08:37:58Z</time>
      </trkpt>
      <trkpt lat="48.6082" lon="1.97822">
        <ele>94.35</ele>
        <time>2018-06-14T08:38:06Z</time>
      </trkpt>
      <trkpt lat="48.60821" lon="1.97818">
        <ele>94.35</ele>
        <time>2018-06-14T08:38:08Z</time>
      </trkpt>
      <trkpt lat="48.60823" lon="1.97807">
        <ele>93.87</ele>
        <time>2018-06-14T08:38:12Z</time>
      </trkpt>
      <trkpt lat="48.60824" lon="1.97791">
        <ele>93.87</ele>
        <time>2018-06-14T08:38:18Z</time>
      </trkpt>
      <trkpt lat="48.60827" lon="1.97776">
        <ele>93.87</ele>
        <time>2018-06-14T08:38:24Z</time>
      </trkpt>
      <trkpt lat="48.6083" lon="1.97762">
        <ele>94.35</ele>
        <time>2018-06-14T08:38:30Z</time>
      </trkpt>
      <trkpt lat="48.60831" lon="1.97748">
        <ele>94.35</ele>
        <time>2018-06-14T08:38:38Z</time>
      </trkpt>
      <trkpt lat="48.60835" lon="1.97727">
        <ele>94.83</ele>
        <time>2018-06-14T08:38:47Z</time>
      </trkpt>
      <trkpt lat="48.60837" lon="1.97708">
        <ele>94.35</ele>
        <time>2018-06-14T08:38:55Z</time>
      </trkpt>
      <trkpt lat="48.60838" lon="1.97694">
        <ele>95.31</ele>
        <time>2018-06-14T08:39:00Z</time>
      </trkpt>
      <trkpt lat="48.60837" lon="1.97677">
        <ele>95.31</ele>
        <time>2018-06-14T08:39:06Z</time>
      </trkpt>
      <trkpt lat="48.60836" lon="1.97661">
        <ele>94.83</ele>
        <time>2018-06-14T08:39:13Z</time>
      </trkpt>
      <trkpt lat="48.60836" lon="1.97659">
        <ele>95.31</ele>
        <time>2018-06-14T08:39:14Z</time>
      </trkpt>
      <trkpt lat="48.60827" lon="1.97644">
        <ele>95.79</ele>
        <time>2018-06-14T08:39:21Z</time>
      </trkpt>
      <trkpt lat="48.60827" lon="1.97625">
        <ele>95.79</ele>
        <time>2018-06-14T08:39:30Z</time>
      </trkpt>
      <trkpt lat="48.60827" lon="1.97623">
        <ele>95.79</ele>
        <time>2018-06-14T08:39:31Z</time>
      </trkpt>
      <trkpt lat="48.60824" lon="1.97601">
        <ele>95.79</ele>
        <time>2018-06-14T08:39:41Z</time>
      </trkpt>
      <trkpt lat="48.60821" lon="1.97581">
        <ele>95.79</ele>
        <time>2018-06-14T08:39:51Z</time>
      </trkpt>
      <trkpt lat="48.60818" lon="1.97566">
        <ele>95.79</ele>
        <time>2018-06-14T08:39:58Z</time>
      </trkpt>
      <trkpt lat="48.60809" lon="1.97543">
        <ele>96.27</ele>
        <time>2018-06-14T08:40:09Z</time>
      </trkpt>
      <trkpt lat="48.60802" lon="1.97529">
        <ele>96.27</ele>
        <time>2018-06-14T08:40:15Z</time>
      </trkpt>
      <trkpt lat="48.60797" lon="1.97513">
        <ele>96.27</ele>
        <time>2018-06-14T08:40:23Z</time>
      </trkpt>
      <trkpt lat="48.60796" lon="1.97508">
        <ele>95.79</ele>
        <time>2018-06-14T08:40:26Z</time>
      </trkpt>
      <trkpt lat="48.60788" lon="1.9749">
        <ele>96.75</ele>
        <time>2018-06-14T08:40:34Z</time>
      </trkpt>
      <trkpt lat="48.60786" lon="1.9748">
        <ele>96.27</ele>
        <time>2018-06-14T08:40:40Z</time>
      </trkpt>
      <trkpt lat="48.60785" lon="1.97465">
        <ele>97.23</ele>
        <time>2018-06-14T08:40:47Z</time>
      </trkpt>
      <trkpt lat="48.60786" lon="1.97449">
        <ele>96.75</ele>
        <time>2018-06-14T08:40:56Z</time>
      </trkpt>
      <trkpt lat="48.60787" lon="1.97446">
        <ele>97.71</ele>
        <time>2018-06-14T08:41:04Z</time>
      </trkpt>
      <trkpt lat="48.60783" lon="1.97443">
        <ele>96.75</ele>
        <time>2018-06-14T08:41:15Z</time>
      </trkpt>
      <trkpt lat="48.6078" lon="1.97443">
        <ele>97.71</ele>
        <time>2018-06-14T08:41:17Z</time>
      </trkpt>
      <trkpt lat="48.60772" lon="1.97439">
        <ele>98.19</ele>
        <time>2018-06-14T08:41:24Z</time>
      </trkpt>
      <trkpt lat="48.60765" lon="1.97434">
        <ele>98.19</ele>
        <time>2018-06-14T08:41:30Z</time>
      </trkpt>
      <trkpt lat="48.6076" lon="1.97428">
        <ele>97.71</ele>
        <time>2018-06-14T08:41:38Z</time>
      </trkpt>
      <trkpt lat="48.60756" lon="1.97423">
        <ele>98.67</ele>
        <time>2018-06-14T08:41:46Z</time>
      </trkpt>
      <trkpt lat="48.6075" lon="1.97413">
        <ele>99.63</ele>
        <time>2018-06-14T08:41:56Z</time>
      </trkpt>
      <trkpt lat="48.60735" lon="1.97382">
        <ele>99.15</ele>
        <time>2018-06-14T08:42:06Z</time>
      </trkpt>
      <trkpt lat="48.60718" lon="1.97354">
        <ele>99.15</ele>
        <time>2018-06-14T08:42:14Z</time>
      </trkpt>
      <trkpt lat="48.60712" lon="1.97339">
        <ele>99.15</ele>
        <time>2018-06-14T08:42:22Z</time>
      </trkpt>
      <trkpt lat="48.60711" lon="1.97322">
        <ele>99.63</ele>
        <time>2018-06-14T08:42:31Z</time>
      </trkpt>
      <trkpt lat="48.60706" lon="1.973">
        <ele>100.11</ele>
        <time>2018-06-14T08:42:40Z</time>
      </trkpt>
      <trkpt lat="48.60704" lon="1.97282">
        <ele>100.6</ele>
        <time>2018-06-14T08:42:49Z</time>
      </trkpt>
      <trkpt lat="48.60696" lon="1.9726">
        <ele>100.11</ele>
        <time>2018-06-14T08:42:57Z</time>
      </trkpt>
      <trkpt lat="48.60693" lon="1.97246">
        <ele>100.11</ele>
        <time>2018-06-14T08:43:02Z</time>
      </trkpt>
      <trkpt lat="48.60699" lon="1.97222">
        <ele>100.6</ele>
        <time>2018-06-14T08:43:12Z</time>
      </trkpt>
      <trkpt lat="48.60703" lon="1.97212">
        <ele>100.6</ele>
        <time>2018-06-14T08:43:16Z</time>
      </trkpt>
      <trkpt lat="48.60703" lon="1.97204">
        <ele>100.6</ele>
        <time>2018-06-14T08:43:20Z</time>
      </trkpt>
      <trkpt lat="48.60703" lon="1.97197">
        <ele>100.6</ele>
        <time>2018-06-14T08:43:23Z</time>
      </trkpt>
      <trkpt lat="48.60704" lon="1.97189">
        <ele>101.08</ele>
        <time>2018-06-14T08:43:26Z</time>
      </trkpt>
      <trkpt lat="48.60706" lon="1.97177">
        <ele>101.56</ele>
        <time>2018-06-14T08:43:33Z</time>
      </trkpt>
      <trkpt lat="48.607" lon="1.97161">
        <ele>100.6</ele>
        <time>2018-06-14T08:43:42Z</time>
      </trkpt>
      <trkpt lat="48.60701" lon="1.97158">
        <ele>101.08</ele>
        <time>2018-06-14T08:43:43Z</time>
      </trkpt>
      <trkpt lat="48.60702" lon="1.97142">
        <ele>101.56</ele>
        <time>2018-06-14T08:43:49Z</time>
      </trkpt>
      <trkpt lat="48.60701" lon="1.97119">
        <ele>102.04</ele>
        <time>2018-06-14T08:43:58Z</time>
      </trkpt>
      <trkpt lat="48.60698" lon="1.97103">
        <ele>102.04</ele>
        <time>2018-06-14T08:44:07Z</time>
      </trkpt>
      <trkpt lat="48.60696" lon="1.97099">
        <ele>103.48</ele>
        <time>2018-06-14T08:44:09Z</time>
      </trkpt>
      <trkpt lat="48.60685" lon="1.97083">
        <ele>103</ele>
        <time>2018-06-14T08:44:19Z</time>
      </trkpt>
      <trkpt lat="48.60674" lon="1.97066">
        <ele>104.92</ele>
        <time>2018-06-14T08:44:30Z</time>
      </trkpt>
      <trkpt lat="48.60667" lon="1.97056">
        <ele>106.84</ele>
        <time>2018-06-14T08:44:39Z</time>
      </trkpt>
      <trkpt lat="48.60658" lon="1.97044">
        <ele>106.84</ele>
        <time>2018-06-14T08:44:47Z</time>
      </trkpt>
      <trkpt lat="48.60657" lon="1.97045">
        <ele>106.36</ele>
        <time>2018-06-14T08:44:59Z</time>
      </trkpt>
      <trkpt lat="48.60658" lon="1.97046">
        <ele>106.36</ele>
        <time>2018-06-14T08:45:10Z</time>
      </trkpt>
      <trkpt lat="48.60658" lon="1.97046">
        <ele>106.84</ele>
        <time>2018-06-14T08:45:24Z</time>
      </trkpt>
      <trkpt lat="48.6066" lon="1.9704">
        <ele>105.88</ele>
        <time>2018-06-14T08:45:27Z</time>
      </trkpt>
      <trkpt lat="48.60657" lon="1.97024">
        <ele>106.84</ele>
        <time>2018-06-14T08:45:36Z</time>
      </trkpt>
      <trkpt lat="48.60659" lon="1.9702">
        <ele>106.84</ele>
        <time>2018-06-14T08:45:40Z</time>
      </trkpt>
      <trkpt lat="48.60661" lon="1.97009">
        <ele>107.32</ele>
        <time>2018-06-14T08:45:44Z</time>
      </trkpt>
      <trkpt lat="48.60656" lon="1.97003">
        <ele>106.84</ele>
        <time>2018-06-14T08:45:48Z</time>
      </trkpt>
      <trkpt lat="48.60657" lon="1.96998">
        <ele>106.84</ele>
        <time>2018-06-14T08:45:50Z</time>
      </trkpt>
      <trkpt lat="48.60661" lon="1.96983">
        <ele>106.84</ele>
        <time>2018-06-14T08:45:56Z</time>
      </trkpt>
      <trkpt lat="48.60661" lon="1.9698">
        <ele>106.84</ele>
        <time>2018-06-14T08:45:57Z</time>
      </trkpt>
      <trkpt lat="48.60668" lon="1.96966">
        <ele>106.84</ele>
        <time>2018-06-14T08:46:03Z</time>
      </trkpt>
      <trkpt lat="48.60677" lon="1.96948">
        <ele>106.36</ele>
        <time>2018-06-14T08:46:12Z</time>
      </trkpt>
      <trkpt lat="48.60678" lon="1.96941">
        <ele>106.36</ele>
        <time>2018-06-14T08:46:16Z</time>
      </trkpt>
      <trkpt lat="48.60681" lon="1.96928">
        <ele>106.36</ele>
        <time>2018-06-14T08:46:21Z</time>
      </trkpt>
      <trkpt lat="48.60688" lon="1.96916">
        <ele>106.36</ele>
        <time>2018-06-14T08:46:28Z</time>
      </trkpt>
      <trkpt lat="48.60688" lon="1.96914">
        <ele>106.36</ele>
        <time>2018-06-14T08:46:29Z</time>
      </trkpt>
      <trkpt lat="48.6069" lon="1.96903">
        <ele>106.84</ele>
        <time>2018-06-14T08:46:34Z</time>
      </trkpt>
      <trkpt lat="48.6069" lon="1.96886">
        <ele>106.36</ele>
        <time>2018-06-14T08:46:42Z</time>
      </trkpt>
      <trkpt lat="48.60691" lon="1.96881">
        <ele>106.36</ele>
        <time>2018-06-14T08:46:44Z</time>
      </trkpt>
      <trkpt lat="48.60694" lon="1.9687">
        <ele>106.84</ele>
        <time>2018-06-14T08:46:50Z</time>
      </trkpt>
      <trkpt lat="48.60698" lon="1.9686">
        <ele>105.88</ele>
        <time>2018-06-14T08:46:56Z</time>
      </trkpt>
      <trkpt lat="48.607" lon="1.96851">
        <ele>106.84</ele>
        <time>2018-06-14T08:47:03Z</time>
      </trkpt>
      <trkpt lat="48.607" lon="1.96839">
        <ele>107.32</ele>
        <time>2018-06-14T08:47:09Z</time>
      </trkpt>
      <trkpt lat="48.60701" lon="1.96835">
        <ele>106.84</ele>
        <time>2018-06-14T08:47:12Z</time>
      </trkpt>
      <trkpt lat="48.60704" lon="1.96824">
        <ele>106.84</ele>
        <time>2018-06-14T08:47:18Z</time>
      </trkpt>
      <trkpt lat="48.60708" lon="1.96814">
        <ele>106.84</ele>
        <time>2018-06-14T08:47:23Z</time>
      </trkpt>
      <trkpt lat="48.60709" lon="1.9681">
        <ele>106.84</ele>
        <time>2018-06-14T08:47:25Z</time>
      </trkpt>
      <trkpt lat="48.60718" lon="1.96802">
        <ele>106.36</ele>
        <time>2018-06-14T08:47:33Z</time>
      </trkpt>
      <trkpt lat="48.60718" lon="1.96787">
        <ele>106.84</ele>
        <time>2018-06-14T08:47:43Z</time>
      </trkpt>
      <trkpt lat="48.60717" lon="1.96783">
        <ele>106.84</ele>
        <time>2018-06-14T08:47:52Z</time>
      </trkpt>
      <trkpt lat="48.60716" lon="1.96774">
        <ele>106.84</ele>
        <time>2018-06-14T08:47:56Z</time>
      </trkpt>
      <trkpt lat="48.60715" lon="1.96765">
        <ele>107.32</ele>
        <time>2018-06-14T08:47:59Z</time>
      </trkpt>
      <trkpt lat="48.60713" lon="1.96757">
        <ele>107.81</ele>
        <time>2018-06-14T08:48:02Z</time>
      </trkpt>
      <trkpt lat="48.60709" lon="1.96735">
        <ele>108.29</ele>
        <time>2018-06-14T08:48:10Z</time>
      </trkpt>
      <trkpt lat="48.60708" lon="1.9673">
        <ele>107.81</ele>
        <time>2018-06-14T08:48:12Z</time>
      </trkpt>
      <trkpt lat="48.60703" lon="1.96716">
        <ele>108.29</ele>
        <time>2018-06-14T08:48:18Z</time>
      </trkpt>
      <trkpt lat="48.60702" lon="1.96702">
        <ele>108.77</ele>
        <time>2018-06-14T08:48:26Z</time>
      </trkpt>
      <trkpt lat="48.60701" lon="1.96684">
        <ele>108.77</ele>
        <time>2018-06-14T08:48:34Z</time>
      </trkpt>
      <trkpt lat="48.60702" lon="1.96667">
        <ele>109.25</ele>
        <time>2018-06-14T08:48:42Z</time>
      </trkpt>
      <trkpt lat="48.60703" lon="1.96661">
        <ele>109.25</ele>
        <time>2018-06-14T08:48:45Z</time>
      </trkpt>
      <trkpt lat="48.60701" lon="1.9664">
        <ele>109.73</ele>
        <time>2018-06-14T08:48:53Z</time>
      </trkpt>
      <trkpt lat="48.60703" lon="1.96621">
        <ele>110.21</ele>
        <time>2018-06-14T08:48:59Z</time>
      </trkpt>
      <trkpt lat="48.60703" lon="1.96605">
        <ele>110.69</ele>
        <time>2018-06-14T08:49:05Z</time>
      </trkpt>
      <trkpt lat="48.60702" lon="1.96588">
        <ele>109.73</ele>
        <time>2018-06-14T08:49:13Z</time>
      </trkpt>
      <trkpt lat="48.60702" lon="1.96582">
        <ele>111.17</ele>
        <time>2018-06-14T08:49:17Z</time>
      </trkpt>
      <trkpt lat="48.60702" lon="1.96574">
        <ele>110.21</ele>
        <time>2018-06-14T08:49:21Z</time>
      </trkpt>
      <trkpt lat="48.60702" lon="1.96565">
        <ele>110.69</ele>
        <time>2018-06-14T08:49:25Z</time>
      </trkpt>
      <trkpt lat="48.60703" lon="1.96549">
        <ele>110.69</ele>
        <time>2018-06-14T08:49:34Z</time>
      </trkpt>
      <trkpt lat="48.60709" lon="1.96532">
        <ele>111.17</ele>
        <time>2018-06-14T08:49:41Z</time>
      </trkpt>
      <trkpt lat="48.60711" lon="1.96522">
        <ele>110.69</ele>
        <time>2018-06-14T08:49:45Z</time>
      </trkpt>
      <trkpt lat="48.60712" lon="1.96507">
        <ele>111.65</ele>
        <time>2018-06-14T08:49:54Z</time>
      </trkpt>
      <trkpt lat="48.60713" lon="1.96505">
        <ele>111.17</ele>
        <time>2018-06-14T08:49:56Z</time>
      </trkpt>
      <trkpt lat="48.6071" lon="1.9648">
        <ele>112.13</ele>
        <time>2018-06-14T08:50:05Z</time>
      </trkpt>
      <trkpt lat="48.60709" lon="1.96459">
        <ele>111.65</ele>
        <time>2018-06-14T08:50:12Z</time>
      </trkpt>
      <trkpt lat="48.60713" lon="1.96433">
        <ele>111.65</ele>
        <time>2018-06-14T08:50:22Z</time>
      </trkpt>
      <trkpt lat="48.60717" lon="1.96421">
        <ele>111.65</ele>
        <time>2018-06-14T08:50:30Z</time>
      </trkpt>
      <trkpt lat="48.60717" lon="1.9642">
        <ele>111.17</ele>
        <time>2018-06-14T08:50:31Z</time>
      </trkpt>
      <trkpt lat="48.60713" lon="1.96396">
        <ele>112.61</ele>
        <time>2018-06-14T08:50:41Z</time>
      </trkpt>
      <trkpt lat="48.60711" lon="1.96386">
        <ele>112.13</ele>
        <time>2018-06-14T08:50:47Z</time>
      </trkpt>
      <trkpt lat="48.60698" lon="1.96367">
        <ele>113.57</ele>
        <time>2018-06-14T08:50:54Z</time>
      </trkpt>
      <trkpt lat="48.60691" lon="1.96348">
        <ele>114.05</ele>
        <time>2018-06-14T08:51:04Z</time>
      </trkpt>
      <trkpt lat="48.60688" lon="1.96337">
        <ele>113.57</ele>
        <time>2018-06-14T08:51:10Z</time>
      </trkpt>
      <trkpt lat="48.60685" lon="1.9633">
        <ele>114.05</ele>
        <time>2018-06-14T08:51:13Z</time>
      </trkpt>
      <trkpt lat="48.60683" lon="1.96308">
        <ele>115.01</ele>
        <time>2018-06-14T08:51:22Z</time>
      </trkpt>
      <trkpt lat="48.60676" lon="1.96287">
        <ele>115.01</ele>
        <time>2018-06-14T08:51:31Z</time>
      </trkpt>
      <trkpt lat="48.60669" lon="1.96275">
        <ele>115.98</ele>
        <time>2018-06-14T08:51:36Z</time>
      </trkpt>
      <trkpt lat="48.60662" lon="1.96263">
        <ele>115.98</ele>
        <time>2018-06-14T08:51:46Z</time>
      </trkpt>
      <trkpt lat="48.6066" lon="1.9626">
        <ele>116.46</ele>
        <time>2018-06-14T08:51:48Z</time>
      </trkpt>
      <trkpt lat="48.60655" lon="1.96252">
        <ele>115.98</ele>
        <time>2018-06-14T08:51:52Z</time>
      </trkpt>
      <trkpt lat="48.60647" lon="1.96253">
        <ele>116.94</ele>
        <time>2018-06-14T08:52:00Z</time>
      </trkpt>
      <trkpt lat="48.60642" lon="1.96271">
        <ele>117.42</ele>
        <time>2018-06-14T08:52:10Z</time>
      </trkpt>
      <trkpt lat="48.60633" lon="1.96288">
        <ele>117.9</ele>
        <time>2018-06-14T08:52:20Z</time>
      </trkpt>
      <trkpt lat="48.60622" lon="1.96311">
        <ele>118.38</ele>
        <time>2018-06-14T08:52:32Z</time>
      </trkpt>
      <trkpt lat="48.6062" lon="1.96317">
        <ele>118.86</ele>
        <time>2018-06-14T08:52:35Z</time>
      </trkpt>
      <trkpt lat="48.60616" lon="1.96328">
        <ele>118.38</ele>
        <time>2018-06-14T08:52:42Z</time>
      </trkpt>
      <trkpt lat="48.60605" lon="1.96345">
        <ele>119.34</ele>
        <time>2018-06-14T08:52:52Z</time>
      </trkpt>
      <trkpt lat="48.60602" lon="1.96351">
        <ele>118.38</ele>
        <time>2018-06-14T08:52:59Z</time>
      </trkpt>
      <trkpt lat="48.606" lon="1.96359">
        <ele>118.38</ele>
        <time>2018-06-14T08:53:07Z</time>
      </trkpt>
      <trkpt lat="48.60597" lon="1.96366">
        <ele>118.86</ele>
        <time>2018-06-14T08:53:16Z</time>
      </trkpt>
      <trkpt lat="48.60601" lon="1.9637">
        <ele>118.86</ele>
        <time>2018-06-14T08:53:25Z</time>
      </trkpt>
      <trkpt lat="48.60607" lon="1.96364">
        <ele>118.38</ele>
        <time>2018-06-14T08:53:33Z</time>
      </trkpt>
      <trkpt lat="48.606" lon="1.96376">
        <ele>119.34</ele>
        <time>2018-06-14T08:53:42Z</time>
      </trkpt>
      <trkpt lat="48.60597" lon="1.96377">
        <ele>119.34</ele>
        <time>2018-06-14T08:53:45Z</time>
      </trkpt>
      <trkpt lat="48.60593" lon="1.9638">
        <ele>120.3</ele>
        <time>2018-06-14T08:53:49Z</time>
      </trkpt>
      <trkpt lat="48.60585" lon="1.9639">
        <ele>121.26</ele>
        <time>2018-06-14T08:53:57Z</time>
      </trkpt>
      <trkpt lat="48.60583" lon="1.96398">
        <ele>122.22</ele>
        <time>2018-06-14T08:54:03Z</time>
      </trkpt>
      <trkpt lat="48.60578" lon="1.96414">
        <ele>123.19</ele>
        <time>2018-06-14T08:54:11Z</time>
      </trkpt>
      <trkpt lat="48.60573" lon="1.96425">
        <ele>127.03</ele>
        <time>2018-06-14T08:54:18Z</time>
      </trkpt>
      <trkpt lat="48.60571" lon="1.96427">
        <ele>124.15</ele>
        <time>2018-06-14T08:54:20Z</time>
      </trkpt>
      <trkpt lat="48.60569" lon="1.96428">
        <ele>124.63</ele>
        <time>2018-06-14T08:54:21Z</time>
      </trkpt>
      <trkpt lat="48.60567" lon="1.96434">
        <ele>126.07</ele>
        <time>2018-06-14T08:54:25Z</time>
      </trkpt>
      <trkpt lat="48.60559" lon="1.96445">
        <ele>126.55</ele>
        <time>2018-06-14T08:54:34Z</time>
      </trkpt>
      <trkpt lat="48.60558" lon="1.96451">
        <ele>128.47</ele>
        <time>2018-06-14T08:54:37Z</time>
      </trkpt>
      <trkpt lat="48.60557" lon="1.96458">
        <ele>128.95</ele>
        <time>2018-06-14T08:54:42Z</time>
      </trkpt>
      <trkpt lat="48.60549" lon="1.96475">
        <ele>128.95</ele>
        <time>2018-06-14T08:54:51Z</time>
      </trkpt>
      <trkpt lat="48.60537" lon="1.96491">
        <ele>130.4</ele>
        <time>2018-06-14T08:55:02Z</time>
      </trkpt>
      <trkpt lat="48.60536" lon="1.96493">
        <ele>129.43</ele>
        <time>2018-06-14T08:55:03Z</time>
      </trkpt>
      <trkpt lat="48.60535" lon="1.96504">
        <ele>129.92</ele>
        <time>2018-06-14T08:55:08Z</time>
      </trkpt>
      <trkpt lat="48.60529" lon="1.96521">
        <ele>129.92</ele>
        <time>2018-06-14T08:55:18Z</time>
      </trkpt>
      <trkpt lat="48.60524" lon="1.96525">
        <ele>129.92</ele>
        <time>2018-06-14T08:55:28Z</time>
      </trkpt>
      <trkpt lat="48.60524" lon="1.96528">
        <ele>129.92</ele>
        <time>2018-06-14T08:55:35Z</time>
      </trkpt>
      <trkpt lat="48.60523" lon="1.96535">
        <ele>129.92</ele>
        <time>2018-06-14T08:55:43Z</time>
      </trkpt>
      <trkpt lat="48.60517" lon="1.96545">
        <ele>129.92</ele>
        <time>2018-06-14T08:55:49Z</time>
      </trkpt>
      <trkpt lat="48.60512" lon="1.96551">
        <ele>129.92</ele>
        <time>2018-06-14T08:55:52Z</time>
      </trkpt>
      <trkpt lat="48.60502" lon="1.96571">
        <ele>130.88</ele>
        <time>2018-06-14T08:56:03Z</time>
      </trkpt>
      <trkpt lat="48.60495" lon="1.96586">
        <ele>131.84</ele>
        <time>2018-06-14T08:56:11Z</time>
      </trkpt>
      <trkpt lat="48.60488" lon="1.9661">
        <ele>131.84</ele>
        <time>2018-06-14T08:56:22Z</time>
      </trkpt>
      <trkpt lat="48.60484" lon="1.96617">
        <ele>131.84</ele>
        <time>2018-06-14T08:56:27Z</time>
      </trkpt>
      <trkpt lat="48.60475" lon="1.96632">
        <ele>132.32</ele>
        <time>2018-06-14T08:56:36Z</time>
      </trkpt>
      <trkpt lat="48.60471" lon="1.96652">
        <ele>131.36</ele>
        <time>2018-06-14T08:56:46Z</time>
      </trkpt>
      <trkpt lat="48.60463" lon="1.96667">
        <ele>132.32</ele>
        <time>2018-06-14T08:56:55Z</time>
      </trkpt>
      <trkpt lat="48.60461" lon="1.96671">
        <ele>133.28</ele>
        <time>2018-06-14T08:56:57Z</time>
      </trkpt>
      <trkpt lat="48.6046" lon="1.96674">
        <ele>132.8</ele>
        <time>2018-06-14T08:56:58Z</time>
      </trkpt>
      <trkpt lat="48.60449" lon="1.96692">
        <ele>134.24</ele>
        <time>2018-06-14T08:57:08Z</time>
      </trkpt>
      <trkpt lat="48.60444" lon="1.96708">
        <ele>133.28</ele>
        <time>2018-06-14T08:57:16Z</time>
      </trkpt>
      <trkpt lat="48.60443" lon="1.96713">
        <ele>134.72</ele>
        <time>2018-06-14T08:57:19Z</time>
      </trkpt>
      <trkpt lat="48.60439" lon="1.96721">
        <ele>134.24</ele>
        <time>2018-06-14T08:57:23Z</time>
      </trkpt>
      <trkpt lat="48.60429" lon="1.96735">
        <ele>134.72</ele>
        <time>2018-06-14T08:57:31Z</time>
      </trkpt>
      <trkpt lat="48.60425" lon="1.96736">
        <ele>135.2</ele>
        <time>2018-06-14T08:57:33Z</time>
      </trkpt>
      <trkpt lat="48.60418" lon="1.96755">
        <ele>134.72</ele>
        <time>2018-06-14T08:57:42Z</time>
      </trkpt>
      <trkpt lat="48.60416" lon="1.96761">
        <ele>135.68</ele>
        <time>2018-06-14T08:57:46Z</time>
      </trkpt>
      <trkpt lat="48.60412" lon="1.96768">
        <ele>135.2</ele>
        <time>2018-06-14T08:57:50Z</time>
      </trkpt>
      <trkpt lat="48.60407" lon="1.96783">
        <ele>135.68</ele>
        <time>2018-06-14T08:57:59Z</time>
      </trkpt>
      <trkpt lat="48.60403" lon="1.96781">
        <ele>134.72</ele>
        <time>2018-06-14T08:58:08Z</time>
      </trkpt>
      <trkpt lat="48.60403" lon="1.9678">
        <ele>136.16</ele>
        <time>2018-06-14T08:58:20Z</time>
      </trkpt>
      <trkpt lat="48.60403" lon="1.96779">
        <ele>135.68</ele>
        <time>2018-06-14T08:58:33Z</time>
      </trkpt>
      <trkpt lat="48.60404" lon="1.96778">
        <ele>135.68</ele>
        <time>2018-06-14T08:58:45Z</time>
      </trkpt>
      <trkpt lat="48.60403" lon="1.96776">
        <ele>135.68</ele>
        <time>2018-06-14T08:59:02Z</time>
      </trkpt>
      <trkpt lat="48.604" lon="1.96778">
        <ele>135.68</ele>
        <time>2018-06-14T08:59:10Z</time>
      </trkpt>
      <trkpt lat="48.60403" lon="1.96777">
        <ele>135.68</ele>
        <time>2018-06-14T08:59:20Z</time>
      </trkpt>
      <trkpt lat="48.60407" lon="1.96775">
        <ele>136.16</ele>
        <time>2018-06-14T08:59:29Z</time>
      </trkpt>
      <trkpt lat="48.60403" lon="1.96775">
        <ele>136.16</ele>
        <time>2018-06-14T08:59:40Z</time>
      </trkpt>
      <trkpt lat="48.60404" lon="1.96775">
        <ele>136.16</ele>
        <time>2018-06-14T08:59:49Z</time>
      </trkpt>
      <trkpt lat="48.60403" lon="1.96776">
        <ele>136.16</ele>
        <time>2018-06-14T09:00:00Z</time>
      </trkpt>
      <trkpt lat="48.60403" lon="1.96776">
        <ele>136.16</ele>
        <time>2018-06-14T09:00:10Z</time>
      </trkpt>
      <trkpt lat="48.60402" lon="1.96777">
        <ele>136.16</ele>
        <time>2018-06-14T09:00:22Z</time>
      </trkpt>
      <trkpt lat="48.60402" lon="1.96776">
        <ele>136.16</ele>
        <time>2018-06-14T09:00:37Z</time>
      </trkpt>
      <trkpt lat="48.60402" lon="1.96775">
        <ele>136.16</ele>
        <time>2018-06-14T09:00:51Z</time>
      </trkpt>
      <trkpt lat="48.60403" lon="1.96779">
        <ele>136.16</ele>
        <time>2018-06-14T09:01:00Z</time>
      </trkpt>
      <trkpt lat="48.60403" lon="1.96779">
        <ele>136.16</ele>
        <time>2018-06-14T09:01:09Z</time>
      </trkpt>
      <trkpt lat="48.60404" lon="1.96779">
        <ele>136.16</ele>
        <time>2018-06-14T09:01:20Z</time>
      </trkpt>
      <trkpt lat="48.60404" lon="1.96779">
        <ele>136.16</ele>
        <time>2018-06-14T09:01:34Z</time>
      </trkpt>
      <trkpt lat="48.60405" lon="1.96779">
        <ele>136.16</ele>
        <time>2018-06-14T09:01:46Z</time>
      </trkpt>
      <trkpt lat="48.60405" lon="1.9678">
        <ele>136.16</ele>
        <time>2018-06-14T09:01:59Z</time>
      </trkpt>
      <trkpt lat="48.60405" lon="1.96779">
        <ele>136.16</ele>
        <time>2018-06-14T09:02:15Z</time>
      </trkpt>
      <trkpt lat="48.60406" lon="1.96779">
        <ele>136.16</ele>
        <time>2018-06-14T09:02:25Z</time>
      </trkpt>
      <trkpt lat="48.60406" lon="1.96778">
        <ele>136.64</ele>
        <time>2018-06-14T09:02:37Z</time>
      </trkpt>
      <trkpt lat="48.60406" lon="1.96778">
        <ele>136.64</ele>
        <time>2018-06-14T09:02:52Z</time>
      </trkpt>
      <trkpt lat="48.60406" lon="1.96778">
        <ele>136.64</ele>
        <time>2018-06-14T09:03:07Z</time>
      </trkpt>
      <trkpt lat="48.60405" lon="1.96778">
        <ele>136.64</ele>
        <time>2018-06-14T09:03:18Z</time>
      </trkpt>
      <trkpt lat="48.60405" lon="1.96778">
        <ele>136.64</ele>
        <time>2018-06-14T09:03:30Z</time>
      </trkpt>
      <trkpt lat="48.60405" lon="1.96777">
        <ele>136.64</ele>
        <time>2018-06-14T09:03:49Z</time>
      </trkpt>
      <trkpt lat="48.60405" lon="1.96778">
        <ele>136.64</ele>
        <time>2018-06-14T09:03:56Z</time>
      </trkpt>
      <trkpt lat="48.60404" lon="1.96778">
        <ele>136.64</ele>
        <time>2018-06-14T09:04:10Z</time>
      </trkpt>
      <trkpt lat="48.60405" lon="1.96778">
        <ele>136.64</ele>
        <time>2018-06-14T09:04:24Z</time>
      </trkpt>
      <trkpt lat="48.60405" lon="1.96778">
        <ele>137.13</ele>
        <time>2018-06-14T09:04:37Z</time>
      </trkpt>
      <trkpt lat="48.60405" lon="1.96778">
        <ele>137.13</ele>
        <time>2018-06-14T09:04:38Z</time>
      </trkpt>
      <trkpt lat="48.60402" lon="1.9678">
        <ele>137.13</ele>
        <time>2018-06-14T09:04:41Z</time>
      </trkpt>
      <trkpt lat="48.60401" lon="1.96784">
        <ele>137.13</ele>
        <time>2018-06-14T09:04:43Z</time>
      </trkpt>
      <trkpt lat="48.60399" lon="1.96792">
        <ele>137.13</ele>
        <time>2018-06-14T09:04:49Z</time>
      </trkpt>
      <trkpt lat="48.60398" lon="1.96796">
        <ele>137.13</ele>
        <time>2018-06-14T09:04:51Z</time>
      </trkpt>
      <trkpt lat="48.60393" lon="1.96805">
        <ele>137.13</ele>
        <time>2018-06-14T09:04:57Z</time>
      </trkpt>
      <trkpt lat="48.60393" lon="1.96807">
        <ele>137.13</ele>
        <time>2018-06-14T09:04:59Z</time>
      </trkpt>
      <trkpt lat="48.60387" lon="1.96821">
        <ele>136.64</ele>
        <time>2018-06-14T09:05:06Z</time>
      </trkpt>
      <trkpt lat="48.60383" lon="1.96833">
        <ele>136.16</ele>
        <time>2018-06-14T09:05:13Z</time>
      </trkpt>
      <trkpt lat="48.60379" lon="1.96841">
        <ele>135.68</ele>
        <time>2018-06-14T09:05:16Z</time>
      </trkpt>
      <trkpt lat="48.60376" lon="1.96847">
        <ele>135.2</ele>
        <time>2018-06-14T09:05:19Z</time>
      </trkpt>
      <trkpt lat="48.60369" lon="1.9686">
        <ele>133.76</ele>
        <time>2018-06-14T09:05:26Z</time>
      </trkpt>
      <trkpt lat="48.60369" lon="1.96861">
        <ele>133.28</ele>
        <time>2018-06-14T09:05:27Z</time>
      </trkpt>
      <trkpt lat="48.60366" lon="1.96867">
        <ele>131.84</ele>
        <time>2018-06-14T09:05:31Z</time>
      </trkpt>
      <trkpt lat="48.60365" lon="1.96871">
        <ele>131.36</ele>
        <time>2018-06-14T09:05:34Z</time>
      </trkpt>
      <trkpt lat="48.60359" lon="1.96883">
        <ele>129.43</ele>
        <time>2018-06-14T09:05:41Z</time>
      </trkpt>
      <trkpt lat="48.60354" lon="1.96893">
        <ele>127.51</ele>
        <time>2018-06-14T09:05:49Z</time>
      </trkpt>
      <trkpt lat="48.6035" lon="1.96903">
        <ele>125.11</ele>
        <time>2018-06-14T09:05:57Z</time>
      </trkpt>
      <trkpt lat="48.60347" lon="1.96908">
        <ele>123.67</ele>
        <time>2018-06-14T09:06:03Z</time>
      </trkpt>
      <trkpt lat="48.6034" lon="1.96922">
        <ele>122.22</ele>
        <time>2018-06-14T09:06:10Z</time>
      </trkpt>
      <trkpt lat="48.60337" lon="1.96928">
        <ele>121.26</ele>
        <time>2018-06-14T09:06:14Z</time>
      </trkpt>
      <trkpt lat="48.60336" lon="1.96932">
        <ele>121.26</ele>
        <time>2018-06-14T09:06:16Z</time>
      </trkpt>
      <trkpt lat="48.6033" lon="1.96944">
        <ele>119.82</ele>
        <time>2018-06-14T09:06:24Z</time>
      </trkpt>
      <trkpt lat="48.6033" lon="1.96945">
        <ele>119.34</ele>
        <time>2018-06-14T09:06:25Z</time>
      </trkpt>
      <trkpt lat="48.60329" lon="1.96949">
        <ele>118.86</ele>
        <time>2018-06-14T09:06:27Z</time>
      </trkpt>
      <trkpt lat="48.60319" lon="1.96966">
        <ele>118.38</ele>
        <time>2018-06-14T09:06:35Z</time>
      </trkpt>
      <trkpt lat="48.60311" lon="1.96982">
        <ele>117.42</ele>
        <time>2018-06-14T09:06:42Z</time>
      </trkpt>
      <trkpt lat="48.60308" lon="1.9699">
        <ele>117.9</ele>
        <time>2018-06-14T09:06:46Z</time>
      </trkpt>
      <trkpt lat="48.60307" lon="1.96993">
        <ele>116.94</ele>
        <time>2018-06-14T09:06:48Z</time>
      </trkpt>
      <trkpt lat="48.60302" lon="1.97002">
        <ele>116.46</ele>
        <time>2018-06-14T09:06:54Z</time>
      </trkpt>
      <trkpt lat="48.603" lon="1.97003">
        <ele>116.46</ele>
        <time>2018-06-14T09:06:56Z</time>
      </trkpt>
      <trkpt lat="48.60293" lon="1.96995">
        <ele>116.46</ele>
        <time>2018-06-14T09:07:02Z</time>
      </trkpt>
      <trkpt lat="48.60289" lon="1.96984">
        <ele>116.94</ele>
        <time>2018-06-14T09:07:08Z</time>
      </trkpt>
      <trkpt lat="48.60283" lon="1.9697">
        <ele>116.94</ele>
        <time>2018-06-14T09:07:16Z</time>
      </trkpt>
      <trkpt lat="48.60282" lon="1.96965">
        <ele>117.42</ele>
        <time>2018-06-14T09:07:19Z</time>
      </trkpt>
      <trkpt lat="48.60279" lon="1.96954">
        <ele>117.9</ele>
        <time>2018-06-14T09:07:25Z</time>
      </trkpt>
      <trkpt lat="48.60278" lon="1.96951">
        <ele>117.9</ele>
        <time>2018-06-14T09:07:27Z</time>
      </trkpt>
      <trkpt lat="48.60275" lon="1.96939">
        <ele>118.38</ele>
        <time>2018-06-14T09:07:33Z</time>
      </trkpt>
      <trkpt lat="48.60271" lon="1.96928">
        <ele>118.38</ele>
        <time>2018-06-14T09:07:40Z</time>
      </trkpt>
      <trkpt lat="48.6027" lon="1.96925">
        <ele>118.38</ele>
        <time>2018-06-14T09:07:41Z</time>
      </trkpt>
      <trkpt lat="48.60265" lon="1.96912">
        <ele>118.86</ele>
        <time>2018-06-14T09:07:49Z</time>
      </trkpt>
      <trkpt lat="48.60265" lon="1.96909">
        <ele>118.86</ele>
        <time>2018-06-14T09:07:51Z</time>
      </trkpt>
      <trkpt lat="48.60263" lon="1.96899">
        <ele>118.86</ele>
        <time>2018-06-14T09:07:58Z</time>
      </trkpt>
      <trkpt lat="48.60257" lon="1.96886">
        <ele>119.34</ele>
        <time>2018-06-14T09:08:06Z</time>
      </trkpt>
      <trkpt lat="48.60251" lon="1.96875">
        <ele>119.82</ele>
        <time>2018-06-14T09:08:13Z</time>
      </trkpt>
      <trkpt lat="48.60247" lon="1.9686">
        <ele>119.82</ele>
        <time>2018-06-14T09:08:21Z</time>
      </trkpt>
      <trkpt lat="48.60242" lon="1.96843">
        <ele>120.3</ele>
        <time>2018-06-14T09:08:29Z</time>
      </trkpt>
      <trkpt lat="48.60241" lon="1.9684">
        <ele>120.78</ele>
        <time>2018-06-14T09:08:31Z</time>
      </trkpt>
      <trkpt lat="48.60239" lon="1.96836">
        <ele>120.78</ele>
        <time>2018-06-14T09:08:33Z</time>
      </trkpt>
      <trkpt lat="48.60235" lon="1.96826">
        <ele>121.26</ele>
        <time>2018-06-14T09:08:38Z</time>
      </trkpt>
      <trkpt lat="48.60231" lon="1.96815">
        <ele>121.26</ele>
        <time>2018-06-14T09:08:43Z</time>
      </trkpt>
      <trkpt lat="48.60228" lon="1.96801">
        <ele>121.74</ele>
        <time>2018-06-14T09:08:49Z</time>
      </trkpt>
      <trkpt lat="48.60224" lon="1.96789">
        <ele>121.74</ele>
        <time>2018-06-14T09:08:57Z</time>
      </trkpt>
      <trkpt lat="48.60222" lon="1.96785">
        <ele>122.22</ele>
        <time>2018-06-14T09:08:59Z</time>
      </trkpt>
      <trkpt lat="48.60218" lon="1.96767">
        <ele>122.22</ele>
        <time>2018-06-14T09:09:06Z</time>
      </trkpt>
      <trkpt lat="48.60215" lon="1.9675">
        <ele>122.71</ele>
        <time>2018-06-14T09:09:14Z</time>
      </trkpt>
      <trkpt lat="48.60215" lon="1.96748">
        <ele>122.71</ele>
        <time>2018-06-14T09:09:17Z</time>
      </trkpt>
      <trkpt lat="48.6021" lon="1.96731">
        <ele>122.71</ele>
        <time>2018-06-14T09:09:23Z</time>
      </trkpt>
      <trkpt lat="48.60209" lon="1.96726">
        <ele>122.71</ele>
        <time>2018-06-14T09:09:25Z</time>
      </trkpt>
      <trkpt lat="48.60207" lon="1.96716">
        <ele>122.71</ele>
        <time>2018-06-14T09:09:29Z</time>
      </trkpt>
      <trkpt lat="48.60202" lon="1.96702">
        <ele>123.19</ele>
        <time>2018-06-14T09:09:36Z</time>
      </trkpt>
      <trkpt lat="48.60201" lon="1.967">
        <ele>123.19</ele>
        <time>2018-06-14T09:09:37Z</time>
      </trkpt>
      <trkpt lat="48.602" lon="1.96686">
        <ele>123.67</ele>
        <time>2018-06-14T09:09:43Z</time>
      </trkpt>
      <trkpt lat="48.60201" lon="1.96672">
        <ele>123.67</ele>
        <time>2018-06-14T09:09:49Z</time>
      </trkpt>
      <trkpt lat="48.60202" lon="1.96668">
        <ele>123.67</ele>
        <time>2018-06-14T09:09:51Z</time>
      </trkpt>
      <trkpt lat="48.60202" lon="1.96652">
        <ele>124.15</ele>
        <time>2018-06-14T09:09:59Z</time>
      </trkpt>
      <trkpt lat="48.60203" lon="1.96644">
        <ele>124.15</ele>
        <time>2018-06-14T09:10:03Z</time>
      </trkpt>
      <trkpt lat="48.60207" lon="1.96629">
        <ele>124.63</ele>
        <time>2018-06-14T09:10:10Z</time>
      </trkpt>
      <trkpt lat="48.60207" lon="1.96623">
        <ele>124.63</ele>
        <time>2018-06-14T09:10:14Z</time>
      </trkpt>
      <trkpt lat="48.60208" lon="1.96614">
        <ele>125.11</ele>
        <time>2018-06-14T09:10:20Z</time>
      </trkpt>
      <trkpt lat="48.6021" lon="1.96602">
        <ele>125.59</ele>
        <time>2018-06-14T09:10:27Z</time>
      </trkpt>
      <trkpt lat="48.60214" lon="1.96585">
        <ele>126.55</ele>
        <time>2018-06-14T09:10:33Z</time>
      </trkpt>
      <trkpt lat="48.60213" lon="1.9658">
        <ele>126.55</ele>
        <time>2018-06-14T09:10:35Z</time>
      </trkpt>
      <trkpt lat="48.60214" lon="1.96562">
        <ele>126.55</ele>
        <time>2018-06-14T09:10:42Z</time>
      </trkpt>
      <trkpt lat="48.60215" lon="1.9655">
        <ele>127.03</ele>
        <time>2018-06-14T09:10:48Z</time>
      </trkpt>
      <trkpt lat="48.60213" lon="1.96534">
        <ele>127.03</ele>
        <time>2018-06-14T09:10:54Z</time>
      </trkpt>
      <trkpt lat="48.60211" lon="1.96519">
        <ele>127.51</ele>
        <time>2018-06-14T09:11:00Z</time>
      </trkpt>
      <trkpt lat="48.6021" lon="1.96511">
        <ele>127.51</ele>
        <time>2018-06-14T09:11:04Z</time>
      </trkpt>
      <trkpt lat="48.60209" lon="1.96499">
        <ele>127.99</ele>
        <time>2018-06-14T09:11:10Z</time>
      </trkpt>
      <trkpt lat="48.6021" lon="1.96493">
        <ele>127.99</ele>
        <time>2018-06-14T09:11:13Z</time>
      </trkpt>
      <trkpt lat="48.60211" lon="1.9648">
        <ele>129.43</ele>
        <time>2018-06-14T09:11:18Z</time>
      </trkpt>
      <trkpt lat="48.60212" lon="1.96471">
        <ele>129.43</ele>
        <time>2018-06-14T09:11:25Z</time>
      </trkpt>
      <trkpt lat="48.60209" lon="1.96463">
        <ele>129.92</ele>
        <time>2018-06-14T09:11:29Z</time>
      </trkpt>
      <trkpt lat="48.60203" lon="1.9644">
        <ele>130.4</ele>
        <time>2018-06-14T09:11:38Z</time>
      </trkpt>
      <trkpt lat="48.60199" lon="1.96425">
        <ele>130.4</ele>
        <time>2018-06-14T09:11:45Z</time>
      </trkpt>
      <trkpt lat="48.60197" lon="1.9641">
        <ele>130.88</ele>
        <time>2018-06-14T09:11:51Z</time>
      </trkpt>
      <trkpt lat="48.60196" lon="1.96408">
        <ele>131.36</ele>
        <time>2018-06-14T09:11:52Z</time>
      </trkpt>
      <trkpt lat="48.60195" lon="1.964">
        <ele>131.84</ele>
        <time>2018-06-14T09:11:57Z</time>
      </trkpt>
      <trkpt lat="48.60195" lon="1.96385">
        <ele>131.36</ele>
        <time>2018-06-14T09:12:03Z</time>
      </trkpt>
      <trkpt lat="48.60194" lon="1.96375">
        <ele>131.36</ele>
        <time>2018-06-14T09:12:08Z</time>
      </trkpt>
      <trkpt lat="48.60191" lon="1.96369">
        <ele>131.84</ele>
        <time>2018-06-14T09:12:12Z</time>
      </trkpt>
      <trkpt lat="48.60189" lon="1.96361">
        <ele>131.84</ele>
        <time>2018-06-14T09:12:16Z</time>
      </trkpt>
      <trkpt lat="48.60185" lon="1.96351">
        <ele>131.84</ele>
        <time>2018-06-14T09:12:23Z</time>
      </trkpt>
      <trkpt lat="48.60182" lon="1.96346">
        <ele>131.36</ele>
        <time>2018-06-14T09:12:26Z</time>
      </trkpt>
      <trkpt lat="48.60182" lon="1.96337">
        <ele>130.88</ele>
        <time>2018-06-14T09:12:32Z</time>
      </trkpt>
      <trkpt lat="48.60181" lon="1.96333">
        <ele>130.88</ele>
        <time>2018-06-14T09:12:34Z</time>
      </trkpt>
      <trkpt lat="48.60178" lon="1.96315">
        <ele>129.92</ele>
        <time>2018-06-14T09:12:41Z</time>
      </trkpt>
      <trkpt lat="48.60176" lon="1.96303">
        <ele>129.43</ele>
        <time>2018-06-14T09:12:47Z</time>
      </trkpt>
      <trkpt lat="48.60175" lon="1.96293">
        <ele>128.95</ele>
        <time>2018-06-14T09:12:51Z</time>
      </trkpt>
      <trkpt lat="48.60173" lon="1.96286">
        <ele>128.47</ele>
        <time>2018-06-14T09:12:55Z</time>
      </trkpt>
      <trkpt lat="48.60169" lon="1.96279">
        <ele>127.99</ele>
        <time>2018-06-14T09:13:01Z</time>
      </trkpt>
      <trkpt lat="48.60166" lon="1.96272">
        <ele>127.51</ele>
        <time>2018-06-14T09:13:06Z</time>
      </trkpt>
      <trkpt lat="48.60162" lon="1.96266">
        <ele>127.03</ele>
        <time>2018-06-14T09:13:09Z</time>
      </trkpt>
      <trkpt lat="48.60157" lon="1.96257">
        <ele>126.55</ele>
        <time>2018-06-14T09:13:16Z</time>
      </trkpt>
      <trkpt lat="48.60151" lon="1.96249">
        <ele>125.59</ele>
        <time>2018-06-14T09:13:22Z</time>
      </trkpt>
      <trkpt lat="48.60148" lon="1.96244">
        <ele>125.11</ele>
        <time>2018-06-14T09:13:25Z</time>
      </trkpt>
      <trkpt lat="48.60146" lon="1.96231">
        <ele>124.15</ele>
        <time>2018-06-14T09:13:32Z</time>
      </trkpt>
      <trkpt lat="48.60147" lon="1.96219">
        <ele>123.67</ele>
        <time>2018-06-14T09:13:39Z</time>
      </trkpt>
      <trkpt lat="48.60148" lon="1.96213">
        <ele>123.19</ele>
        <time>2018-06-14T09:13:43Z</time>
      </trkpt>
      <trkpt lat="48.6015" lon="1.96198">
        <ele>122.22</ele>
        <time>2018-06-14T09:13:50Z</time>
      </trkpt>
      <trkpt lat="48.60153" lon="1.96185">
        <ele>121.74</ele>
        <time>2018-06-14T09:13:57Z</time>
      </trkpt>
      <trkpt lat="48.60157" lon="1.96175">
        <ele>121.26</ele>
        <time>2018-06-14T09:14:04Z</time>
      </trkpt>
      <trkpt lat="48.60155" lon="1.96166">
        <ele>120.3</ele>
        <time>2018-06-14T09:14:09Z</time>
      </trkpt>
      <trkpt lat="48.60156" lon="1.9615">
        <ele>119.82</ele>
        <time>2018-06-14T09:14:14Z</time>
      </trkpt>
      <trkpt lat="48.60156" lon="1.96144">
        <ele>119.82</ele>
        <time>2018-06-14T09:14:17Z</time>
      </trkpt>
      <trkpt lat="48.60156" lon="1.96138">
        <ele>119.34</ele>
        <time>2018-06-14T09:14:23Z</time>
      </trkpt>
      <trkpt lat="48.60157" lon="1.96136">
        <ele>119.34</ele>
        <time>2018-06-14T09:14:30Z</time>
      </trkpt>
      <trkpt lat="48.60158" lon="1.96131">
        <ele>119.34</ele>
        <time>2018-06-14T09:14:39Z</time>
      </trkpt>
      <trkpt lat="48.60159" lon="1.9613">
        <ele>120.3</ele>
        <time>2018-06-14T09:14:41Z</time>
      </trkpt>
      <trkpt lat="48.60158" lon="1.96116">
        <ele>118.86</ele>
        <time>2018-06-14T09:14:50Z</time>
      </trkpt>
      <trkpt lat="48.60157" lon="1.9611">
        <ele>118.86</ele>
        <time>2018-06-14T09:14:56Z</time>
      </trkpt>
      <trkpt lat="48.60155" lon="1.96103">
        <ele>118.38</ele>
        <time>2018-06-14T09:15:01Z</time>
      </trkpt>
      <trkpt lat="48.60152" lon="1.96094">
        <ele>117.9</ele>
        <time>2018-06-14T09:15:08Z</time>
      </trkpt>
      <trkpt lat="48.60151" lon="1.96093">
        <ele>117.42</ele>
        <time>2018-06-14T09:15:09Z</time>
      </trkpt>
      <trkpt lat="48.60148" lon="1.96077">
        <ele>117.42</ele>
        <time>2018-06-14T09:15:14Z</time>
      </trkpt>
      <trkpt lat="48.60147" lon="1.96067">
        <ele>116.94</ele>
        <time>2018-06-14T09:15:20Z</time>
      </trkpt>
      <trkpt lat="48.60145" lon="1.96051">
        <ele>116.94</ele>
        <time>2018-06-14T09:15:27Z</time>
      </trkpt>
      <trkpt lat="48.60143" lon="1.9605">
        <ele>116.46</ele>
        <time>2018-06-14T09:15:32Z</time>
      </trkpt>
      <trkpt lat="48.60141" lon="1.96038">
        <ele>115.98</ele>
        <time>2018-06-14T09:15:39Z</time>
      </trkpt>
      <trkpt lat="48.60139" lon="1.9603">
        <ele>116.46</ele>
        <time>2018-06-14T09:15:42Z</time>
      </trkpt>
      <trkpt lat="48.60138" lon="1.96018">
        <ele>115.98</ele>
        <time>2018-06-14T09:15:46Z</time>
      </trkpt>
      <trkpt lat="48.60135" lon="1.95999">
        <ele>115.98</ele>
        <time>2018-06-14T09:15:52Z</time>
      </trkpt>
      <trkpt lat="48.60132" lon="1.95988">
        <ele>115.5</ele>
        <time>2018-06-14T09:15:58Z</time>
      </trkpt>
      <trkpt lat="48.60133" lon="1.95985">
        <ele>115.01</ele>
        <time>2018-06-14T09:16:00Z</time>
      </trkpt>
      <trkpt lat="48.60132" lon="1.95972">
        <ele>114.53</ele>
        <time>2018-06-14T09:16:07Z</time>
      </trkpt>
      <trkpt lat="48.60131" lon="1.95965">
        <ele>114.53</ele>
        <time>2018-06-14T09:16:11Z</time>
      </trkpt>
      <trkpt lat="48.60128" lon="1.9595">
        <ele>114.05</ele>
        <time>2018-06-14T09:16:17Z</time>
      </trkpt>
      <trkpt lat="48.60126" lon="1.95941">
        <ele>114.05</ele>
        <time>2018-06-14T09:16:20Z</time>
      </trkpt>
      <trkpt lat="48.60124" lon="1.95926">
        <ele>113.57</ele>
        <time>2018-06-14T09:16:27Z</time>
      </trkpt>
      <trkpt lat="48.60123" lon="1.95921">
        <ele>113.09</ele>
        <time>2018-06-14T09:16:31Z</time>
      </trkpt>
      <trkpt lat="48.60121" lon="1.95918">
        <ele>113.57</ele>
        <time>2018-06-14T09:16:34Z</time>
      </trkpt>
      <trkpt lat="48.60118" lon="1.95907">
        <ele>113.09</ele>
        <time>2018-06-14T09:16:40Z</time>
      </trkpt>
      <trkpt lat="48.60112" lon="1.95896">
        <ele>112.61</ele>
        <time>2018-06-14T09:16:47Z</time>
      </trkpt>
      <trkpt lat="48.60109" lon="1.95889">
        <ele>112.13</ele>
        <time>2018-06-14T09:16:53Z</time>
      </trkpt>
      <trkpt lat="48.60104" lon="1.9588">
        <ele>112.61</ele>
        <time>2018-06-14T09:16:57Z</time>
      </trkpt>
      <trkpt lat="48.60094" lon="1.95867">
        <ele>112.13</ele>
        <time>2018-06-14T09:17:05Z</time>
      </trkpt>
      <trkpt lat="48.60088" lon="1.9586">
        <ele>112.13</ele>
        <time>2018-06-14T09:17:12Z</time>
      </trkpt>
      <trkpt lat="48.60083" lon="1.9586">
        <ele>112.61</ele>
        <time>2018-06-14T09:17:18Z</time>
      </trkpt>
      <trkpt lat="48.60079" lon="1.95857">
        <ele>113.09</ele>
        <time>2018-06-14T09:17:21Z</time>
      </trkpt>
      <trkpt lat="48.60074" lon="1.95849">
        <ele>113.09</ele>
        <time>2018-06-14T09:17:27Z</time>
      </trkpt>
      <trkpt lat="48.60067" lon="1.95842">
        <ele>113.09</ele>
        <time>2018-06-14T09:17:34Z</time>
      </trkpt>
      <trkpt lat="48.60058" lon="1.95824">
        <ele>113.09</ele>
        <time>2018-06-14T09:17:40Z</time>
      </trkpt>
      <trkpt lat="48.60055" lon="1.9582">
        <ele>113.57</ele>
        <time>2018-06-14T09:17:42Z</time>
      </trkpt>
      <trkpt lat="48.60049" lon="1.95803">
        <ele>113.57</ele>
        <time>2018-06-14T09:17:48Z</time>
      </trkpt>
      <trkpt lat="48.60044" lon="1.95793">
        <ele>113.57</ele>
        <time>2018-06-14T09:17:53Z</time>
      </trkpt>
      <trkpt lat="48.6004" lon="1.95785">
        <ele>114.05</ele>
        <time>2018-06-14T09:17:59Z</time>
      </trkpt>
      <trkpt lat="48.60037" lon="1.95781">
        <ele>114.05</ele>
        <time>2018-06-14T09:18:02Z</time>
      </trkpt>
      <trkpt lat="48.60031" lon="1.95768">
        <ele>115.01</ele>
        <time>2018-06-14T09:18:07Z</time>
      </trkpt>
      <trkpt lat="48.60026" lon="1.95753">
        <ele>115.01</ele>
        <time>2018-06-14T09:18:14Z</time>
      </trkpt>
      <trkpt lat="48.60022" lon="1.95744">
        <ele>115.5</ele>
        <time>2018-06-14T09:18:20Z</time>
      </trkpt>
      <trkpt lat="48.6002" lon="1.95741">
        <ele>115.5</ele>
        <time>2018-06-14T09:18:22Z</time>
      </trkpt>
      <trkpt lat="48.60018" lon="1.95734">
        <ele>115.5</ele>
        <time>2018-06-14T09:18:25Z</time>
      </trkpt>
      <trkpt lat="48.60014" lon="1.95726">
        <ele>115.5</ele>
        <time>2018-06-14T09:18:29Z</time>
      </trkpt>
      <trkpt lat="48.60008" lon="1.95715">
        <ele>115.98</ele>
        <time>2018-06-14T09:18:35Z</time>
      </trkpt>
      <trkpt lat="48.60006" lon="1.95713">
        <ele>116.46</ele>
        <time>2018-06-14T09:18:36Z</time>
      </trkpt>
      <trkpt lat="48.60002" lon="1.95704">
        <ele>116.94</ele>
        <time>2018-06-14T09:18:43Z</time>
      </trkpt>
      <trkpt lat="48.59994" lon="1.95694">
        <ele>117.42</ele>
        <time>2018-06-14T09:18:51Z</time>
      </trkpt>
      <trkpt lat="48.59993" lon="1.95692">
        <ele>117.42</ele>
        <time>2018-06-14T09:18:52Z</time>
      </trkpt>
      <trkpt lat="48.59988" lon="1.95688">
        <ele>117.9</ele>
        <time>2018-06-14T09:18:56Z</time>
      </trkpt>
      <trkpt lat="48.59984" lon="1.95685">
        <ele>118.38</ele>
        <time>2018-06-14T09:18:59Z</time>
      </trkpt>
      <trkpt lat="48.59977" lon="1.95682">
        <ele>118.86</ele>
        <time>2018-06-14T09:19:06Z</time>
      </trkpt>
      <trkpt lat="48.59972" lon="1.9568">
        <ele>119.34</ele>
        <time>2018-06-14T09:19:10Z</time>
      </trkpt>
      <trkpt lat="48.5996" lon="1.95678">
        <ele>120.3</ele>
        <time>2018-06-14T09:19:18Z</time>
      </trkpt>
      <trkpt lat="48.59951" lon="1.95676">
        <ele>120.78</ele>
        <time>2018-06-14T09:19:23Z</time>
      </trkpt>
      <trkpt lat="48.59937" lon="1.95678">
        <ele>119.82</ele>
        <time>2018-06-14T09:19:32Z</time>
      </trkpt>
      <trkpt lat="48.59929" lon="1.95682">
        <ele>119.34</ele>
        <time>2018-06-14T09:19:39Z</time>
      </trkpt>
      <trkpt lat="48.59921" lon="1.95684">
        <ele>118.86</ele>
        <time>2018-06-14T09:19:46Z</time>
      </trkpt>
      <trkpt lat="48.59914" lon="1.95685">
        <ele>117.9</ele>
        <time>2018-06-14T09:19:50Z</time>
      </trkpt>
      <trkpt lat="48.59899" lon="1.95686">
        <ele>117.9</ele>
        <time>2018-06-14T09:19:58Z</time>
      </trkpt>
      <trkpt lat="48.59897" lon="1.95687">
        <ele>117.9</ele>
        <time>2018-06-14T09:19:59Z</time>
      </trkpt>
      <trkpt lat="48.59892" lon="1.95686">
        <ele>117.42</ele>
        <time>2018-06-14T09:20:02Z</time>
      </trkpt>
      <trkpt lat="48.59881" lon="1.95682">
        <ele>116.94</ele>
        <time>2018-06-14T09:20:09Z</time>
      </trkpt>
      <trkpt lat="48.59878" lon="1.95685">
        <ele>116.46</ele>
        <time>2018-06-14T09:20:14Z</time>
      </trkpt>
      <trkpt lat="48.59873" lon="1.95691">
        <ele>116.94</ele>
        <time>2018-06-14T09:20:18Z</time>
      </trkpt>
      <trkpt lat="48.59865" lon="1.95707">
        <ele>117.42</ele>
        <time>2018-06-14T09:20:26Z</time>
      </trkpt>
      <trkpt lat="48.59862" lon="1.95715">
        <ele>117.42</ele>
        <time>2018-06-14T09:20:29Z</time>
      </trkpt>
      <trkpt lat="48.59855" lon="1.95723">
        <ele>117.9</ele>
        <time>2018-06-14T09:20:35Z</time>
      </trkpt>
      <trkpt lat="48.59852" lon="1.95728">
        <ele>117.42</ele>
        <time>2018-06-14T09:20:37Z</time>
      </trkpt>
      <trkpt lat="48.59846" lon="1.95743">
        <ele>117.42</ele>
        <time>2018-06-14T09:20:44Z</time>
      </trkpt>
      <trkpt lat="48.59842" lon="1.95753">
        <ele>117.9</ele>
        <time>2018-06-14T09:20:50Z</time>
      </trkpt>
      <trkpt lat="48.59841" lon="1.95755">
        <ele>117.9</ele>
        <time>2018-06-14T09:20:51Z</time>
      </trkpt>
      <trkpt lat="48.59835" lon="1.95766">
        <ele>117.9</ele>
        <time>2018-06-14T09:20:57Z</time>
      </trkpt>
      <trkpt lat="48.59828" lon="1.95785">
        <ele>118.38</ele>
        <time>2018-06-14T09:21:06Z</time>
      </trkpt>
      <trkpt lat="48.59828" lon="1.9579">
        <ele>118.38</ele>
        <time>2018-06-14T09:21:09Z</time>
      </trkpt>
      <trkpt lat="48.59823" lon="1.95797">
        <ele>117.9</ele>
        <time>2018-06-14T09:21:12Z</time>
      </trkpt>
      <trkpt lat="48.59814" lon="1.95807">
        <ele>118.38</ele>
        <time>2018-06-14T09:21:18Z</time>
      </trkpt>
      <trkpt lat="48.59809" lon="1.95819">
        <ele>118.86</ele>
        <time>2018-06-14T09:21:24Z</time>
      </trkpt>
      <trkpt lat="48.59808" lon="1.9582">
        <ele>118.86</ele>
        <time>2018-06-14T09:21:25Z</time>
      </trkpt>
      <trkpt lat="48.59807" lon="1.95822">
        <ele>118.86</ele>
        <time>2018-06-14T09:21:27Z</time>
      </trkpt>
      <trkpt lat="48.59805" lon="1.95828">
        <ele>118.38</ele>
        <time>2018-06-14T09:21:30Z</time>
      </trkpt>
      <trkpt lat="48.59797" lon="1.95843">
        <ele>118.86</ele>
        <time>2018-06-14T09:21:38Z</time>
      </trkpt>
      <trkpt lat="48.59793" lon="1.95851">
        <ele>118.86</ele>
        <time>2018-06-14T09:21:43Z</time>
      </trkpt>
      <trkpt lat="48.59786" lon="1.95867">
        <ele>118.86</ele>
        <time>2018-06-14T09:21:51Z</time>
      </trkpt>
      <trkpt lat="48.59784" lon="1.95875">
        <ele>119.34</ele>
        <time>2018-06-14T09:21:56Z</time>
      </trkpt>
      <trkpt lat="48.59782" lon="1.95881">
        <ele>119.34</ele>
        <time>2018-06-14T09:21:59Z</time>
      </trkpt>
      <trkpt lat="48.59777" lon="1.95894">
        <ele>119.82</ele>
        <time>2018-06-14T09:22:06Z</time>
      </trkpt>
      <trkpt lat="48.59774" lon="1.95902">
        <ele>120.3</ele>
        <time>2018-06-14T09:22:11Z</time>
      </trkpt>
      <trkpt lat="48.59767" lon="1.9591">
        <ele>120.78</ele>
        <time>2018-06-14T09:22:16Z</time>
      </trkpt>
      <trkpt lat="48.59761" lon="1.95923">
        <ele>121.26</ele>
        <time>2018-06-14T09:22:22Z</time>
      </trkpt>
      <trkpt lat="48.59757" lon="1.95931">
        <ele>121.26</ele>
        <time>2018-06-14T09:22:27Z</time>
      </trkpt>
      <trkpt lat="48.59755" lon="1.95936">
        <ele>121.26</ele>
        <time>2018-06-14T09:22:29Z</time>
      </trkpt>
      <trkpt lat="48.59747" lon="1.95948">
        <ele>122.22</ele>
        <time>2018-06-14T09:22:36Z</time>
      </trkpt>
      <trkpt lat="48.59742" lon="1.95961">
        <ele>121.74</ele>
        <time>2018-06-14T09:22:43Z</time>
      </trkpt>
      <trkpt lat="48.59739" lon="1.95969">
        <ele>122.71</ele>
        <time>2018-06-14T09:22:47Z</time>
      </trkpt>
      <trkpt lat="48.59736" lon="1.95973">
        <ele>122.22</ele>
        <time>2018-06-14T09:22:50Z</time>
      </trkpt>
      <trkpt lat="48.59728" lon="1.95987">
        <ele>122.71</ele>
        <time>2018-06-14T09:22:57Z</time>
      </trkpt>
      <trkpt lat="48.59725" lon="1.96001">
        <ele>123.19</ele>
        <time>2018-06-14T09:23:05Z</time>
      </trkpt>
      <trkpt lat="48.59724" lon="1.96006">
        <ele>123.19</ele>
        <time>2018-06-14T09:23:08Z</time>
      </trkpt>
      <trkpt lat="48.59717" lon="1.9602">
        <ele>123.67</ele>
        <time>2018-06-14T09:23:16Z</time>
      </trkpt>
      <trkpt lat="48.59711" lon="1.96035">
        <ele>124.15</ele>
        <time>2018-06-14T09:23:23Z</time>
      </trkpt>
      <trkpt lat="48.59704" lon="1.96047">
        <ele>124.63</ele>
        <time>2018-06-14T09:23:31Z</time>
      </trkpt>
      <trkpt lat="48.59699" lon="1.96061">
        <ele>125.59</ele>
        <time>2018-06-14T09:23:39Z</time>
      </trkpt>
      <trkpt lat="48.59692" lon="1.96074">
        <ele>126.55</ele>
        <time>2018-06-14T09:23:47Z</time>
      </trkpt>
      <trkpt lat="48.59687" lon="1.96086">
        <ele>127.99</ele>
        <time>2018-06-14T09:23:53Z</time>
      </trkpt>
      <trkpt lat="48.59686" lon="1.96087">
        <ele>127.99</ele>
        <time>2018-06-14T09:23:54Z</time>
      </trkpt>
      <trkpt lat="48.59681" lon="1.96094">
        <ele>129.43</ele>
        <time>2018-06-14T09:23:59Z</time>
      </trkpt>
      <trkpt lat="48.59677" lon="1.96103">
        <ele>129.43</ele>
        <time>2018-06-14T09:24:04Z</time>
      </trkpt>
      <trkpt lat="48.59673" lon="1.96116">
        <ele>130.4</ele>
        <time>2018-06-14T09:24:12Z</time>
      </trkpt>
      <trkpt lat="48.59669" lon="1.9613">
        <ele>131.36</ele>
        <time>2018-06-14T09:24:19Z</time>
      </trkpt>
      <trkpt lat="48.59661" lon="1.9614">
        <ele>131.84</ele>
        <time>2018-06-14T09:24:27Z</time>
      </trkpt>
      <trkpt lat="48.59657" lon="1.96148">
        <ele>132.32</ele>
        <time>2018-06-14T09:24:33Z</time>
      </trkpt>
      <trkpt lat="48.59651" lon="1.96161">
        <ele>133.76</ele>
        <time>2018-06-14T09:24:40Z</time>
      </trkpt>
      <trkpt lat="48.5965" lon="1.96163">
        <ele>133.76</ele>
        <time>2018-06-14T09:24:42Z</time>
      </trkpt>
      <trkpt lat="48.59646" lon="1.96172">
        <ele>135.2</ele>
        <time>2018-06-14T09:24:47Z</time>
      </trkpt>
      <trkpt lat="48.59644" lon="1.96176">
        <ele>135.68</ele>
        <time>2018-06-14T09:24:49Z</time>
      </trkpt>
      <trkpt lat="48.59638" lon="1.96186">
        <ele>136.16</ele>
        <time>2018-06-14T09:24:55Z</time>
      </trkpt>
      <trkpt lat="48.59634" lon="1.962">
        <ele>138.57</ele>
        <time>2018-06-14T09:25:03Z</time>
      </trkpt>
      <trkpt lat="48.59628" lon="1.96211">
        <ele>139.53</ele>
        <time>2018-06-14T09:25:10Z</time>
      </trkpt>
      <trkpt lat="48.59626" lon="1.96219">
        <ele>140.49</ele>
        <time>2018-06-14T09:25:15Z</time>
      </trkpt>
      <trkpt lat="48.59622" lon="1.96228">
        <ele>141.93</ele>
        <time>2018-06-14T09:25:22Z</time>
      </trkpt>
      <trkpt lat="48.59621" lon="1.96229">
        <ele>141.93</ele>
        <time>2018-06-14T09:25:23Z</time>
      </trkpt>
      <trkpt lat="48.59621" lon="1.96231">
        <ele>141.93</ele>
        <time>2018-06-14T09:25:24Z</time>
      </trkpt>
      <trkpt lat="48.59617" lon="1.96238">
        <ele>143.85</ele>
        <time>2018-06-14T09:25:29Z</time>
      </trkpt>
      <trkpt lat="48.59613" lon="1.96248">
        <ele>145.3</ele>
        <time>2018-06-14T09:25:36Z</time>
      </trkpt>
      <trkpt lat="48.59608" lon="1.96258">
        <ele>145.78</ele>
        <time>2018-06-14T09:25:42Z</time>
      </trkpt>
      <trkpt lat="48.59605" lon="1.96268">
        <ele>146.74</ele>
        <time>2018-06-14T09:25:47Z</time>
      </trkpt>
      <trkpt lat="48.59598" lon="1.96276">
        <ele>147.7</ele>
        <time>2018-06-14T09:25:54Z</time>
      </trkpt>
      <trkpt lat="48.59589" lon="1.96289">
        <ele>148.18</ele>
        <time>2018-06-14T09:26:01Z</time>
      </trkpt>
      <trkpt lat="48.59588" lon="1.96293">
        <ele>148.18</ele>
        <time>2018-06-14T09:26:04Z</time>
      </trkpt>
      <trkpt lat="48.59587" lon="1.96296">
        <ele>149.14</ele>
        <time>2018-06-14T09:26:06Z</time>
      </trkpt>
      <trkpt lat="48.59581" lon="1.96304">
        <ele>149.14</ele>
        <time>2018-06-14T09:26:11Z</time>
      </trkpt>
      <trkpt lat="48.59577" lon="1.96317">
        <ele>149.14</ele>
        <time>2018-06-14T09:26:18Z</time>
      </trkpt>
      <trkpt lat="48.59571" lon="1.96326">
        <ele>149.14</ele>
        <time>2018-06-14T09:26:24Z</time>
      </trkpt>
      <trkpt lat="48.59568" lon="1.96337">
        <ele>149.62</ele>
        <time>2018-06-14T09:26:30Z</time>
      </trkpt>
      <trkpt lat="48.59563" lon="1.96349">
        <ele>149.14</ele>
        <time>2018-06-14T09:26:36Z</time>
      </trkpt>
      <trkpt lat="48.59556" lon="1.96361">
        <ele>148.66</ele>
        <time>2018-06-14T09:26:43Z</time>
      </trkpt>
      <trkpt lat="48.5955" lon="1.96374">
        <ele>148.18</ele>
        <time>2018-06-14T09:26:50Z</time>
      </trkpt>
      <trkpt lat="48.59549" lon="1.9638">
        <ele>147.7</ele>
        <time>2018-06-14T09:26:53Z</time>
      </trkpt>
      <trkpt lat="48.59543" lon="1.9639">
        <ele>147.7</ele>
        <time>2018-06-14T09:26:59Z</time>
      </trkpt>
      <trkpt lat="48.5954" lon="1.96394">
        <ele>147.22</ele>
        <time>2018-06-14T09:27:03Z</time>
      </trkpt>
      <trkpt lat="48.59536" lon="1.96399">
        <ele>146.74</ele>
        <time>2018-06-14T09:27:07Z</time>
      </trkpt>
      <trkpt lat="48.59532" lon="1.96414">
        <ele>145.78</ele>
        <time>2018-06-14T09:27:15Z</time>
      </trkpt>
      <trkpt lat="48.59527" lon="1.96421">
        <ele>145.78</ele>
        <time>2018-06-14T09:27:20Z</time>
      </trkpt>
      <trkpt lat="48.5952" lon="1.96435">
        <ele>144.34</ele>
        <time>2018-06-14T09:27:27Z</time>
      </trkpt>
      <trkpt lat="48.5952" lon="1.96436">
        <ele>144.34</ele>
        <time>2018-06-14T09:27:28Z</time>
      </trkpt>
      <trkpt lat="48.59516" lon="1.96443">
        <ele>143.37</ele>
        <time>2018-06-14T09:27:34Z</time>
      </trkpt>
      <trkpt lat="48.59515" lon="1.96446">
        <ele>143.37</ele>
        <time>2018-06-14T09:27:36Z</time>
      </trkpt>
      <trkpt lat="48.59514" lon="1.96451">
        <ele>142.89</ele>
        <time>2018-06-14T09:27:38Z</time>
      </trkpt>
      <trkpt lat="48.59507" lon="1.96464">
        <ele>142.41</ele>
        <time>2018-06-14T09:27:44Z</time>
      </trkpt>
      <trkpt lat="48.59501" lon="1.96475">
        <ele>141.93</ele>
        <time>2018-06-14T09:27:51Z</time>
      </trkpt>
      <trkpt lat="48.59497" lon="1.9649">
        <ele>141.93</ele>
        <time>2018-06-14T09:27:58Z</time>
      </trkpt>
      <trkpt lat="48.59496" lon="1.96494">
        <ele>141.45</ele>
        <time>2018-06-14T09:28:00Z</time>
      </trkpt>
      <trkpt lat="48.59491" lon="1.96503">
        <ele>140.97</ele>
        <time>2018-06-14T09:28:05Z</time>
      </trkpt>
      <trkpt lat="48.59487" lon="1.9651">
        <ele>140.01</ele>
        <time>2018-06-14T09:28:10Z</time>
      </trkpt>
      <trkpt lat="48.59483" lon="1.9652">
        <ele>139.53</ele>
        <time>2018-06-14T09:28:16Z</time>
      </trkpt>
      <trkpt lat="48.5948" lon="1.96524">
        <ele>138.57</ele>
        <time>2018-06-14T09:28:19Z</time>
      </trkpt>
      <trkpt lat="48.59479" lon="1.96528">
        <ele>138.57</ele>
        <time>2018-06-14T09:28:21Z</time>
      </trkpt>
      <trkpt lat="48.59473" lon="1.96541">
        <ele>138.57</ele>
        <time>2018-06-14T09:28:28Z</time>
      </trkpt>
      <trkpt lat="48.59472" lon="1.96544">
        <ele>138.09</ele>
        <time>2018-06-14T09:28:30Z</time>
      </trkpt>
      <trkpt lat="48.5947" lon="1.96546">
        <ele>137.61</ele>
        <time>2018-06-14T09:28:32Z</time>
      </trkpt>
      <trkpt lat="48.59465" lon="1.96557">
        <ele>137.61</ele>
        <time>2018-06-14T09:28:38Z</time>
      </trkpt>
      <trkpt lat="48.59463" lon="1.9656">
        <ele>137.61</ele>
        <time>2018-06-14T09:28:40Z</time>
      </trkpt>
      <trkpt lat="48.59455" lon="1.96577">
        <ele>137.13</ele>
        <time>2018-06-14T09:28:50Z</time>
      </trkpt>
      <trkpt lat="48.5945" lon="1.96588">
        <ele>137.13</ele>
        <time>2018-06-14T09:28:57Z</time>
      </trkpt>
      <trkpt lat="48.59446" lon="1.96596">
        <ele>136.64</ele>
        <time>2018-06-14T09:29:02Z</time>
      </trkpt>
      <trkpt lat="48.59445" lon="1.96597">
        <ele>136.64</ele>
        <time>2018-06-14T09:29:09Z</time>
      </trkpt>
      <trkpt lat="48.59445" lon="1.96596">
        <ele>137.13</ele>
        <time>2018-06-14T09:29:20Z</time>
      </trkpt>
      <trkpt lat="48.59445" lon="1.96596">
        <ele>137.13</ele>
        <time>2018-06-14T09:29:33Z</time>
      </trkpt>
      <trkpt lat="48.59444" lon="1.96596">
        <ele>137.13</ele>
        <time>2018-06-14T09:29:49Z</time>
      </trkpt>
      <trkpt lat="48.59444" lon="1.96596">
        <ele>137.61</ele>
        <time>2018-06-14T09:30:04Z</time>
      </trkpt>
      <trkpt lat="48.59444" lon="1.96596">
        <ele>137.13</ele>
        <time>2018-06-14T09:30:20Z</time>
      </trkpt>
      <trkpt lat="48.59444" lon="1.96595">
        <ele>137.13</ele>
        <time>2018-06-14T09:30:32Z</time>
      </trkpt>
      <trkpt lat="48.59442" lon="1.96597">
        <ele>137.61</ele>
        <time>2018-06-14T09:30:37Z</time>
      </trkpt>
      <trkpt lat="48.59434" lon="1.96599">
        <ele>137.13</ele>
        <time>2018-06-14T09:30:43Z</time>
      </trkpt>
      <trkpt lat="48.59425" lon="1.96593">
        <ele>136.64</ele>
        <time>2018-06-14T09:30:49Z</time>
      </trkpt>
      <trkpt lat="48.59422" lon="1.96588">
        <ele>136.16</ele>
        <time>2018-06-14T09:30:52Z</time>
      </trkpt>
      <trkpt lat="48.59411" lon="1.96576">
        <ele>134.72</ele>
        <time>2018-06-14T09:31:00Z</time>
      </trkpt>
      <trkpt lat="48.59401" lon="1.96564">
        <ele>133.28</ele>
        <time>2018-06-14T09:31:08Z</time>
      </trkpt>
      <trkpt lat="48.59394" lon="1.96555">
        <ele>131.36</ele>
        <time>2018-06-14T09:31:15Z</time>
      </trkpt>
      <trkpt lat="48.5939" lon="1.96547">
        <ele>130.88</ele>
        <time>2018-06-14T09:31:19Z</time>
      </trkpt>
      <trkpt lat="48.59383" lon="1.96541">
        <ele>130.4</ele>
        <time>2018-06-14T09:31:24Z</time>
      </trkpt>
      <trkpt lat="48.59378" lon="1.96537">
        <ele>129.92</ele>
        <time>2018-06-14T09:31:28Z</time>
      </trkpt>
      <trkpt lat="48.59371" lon="1.96532">
        <ele>128.95</ele>
        <time>2018-06-14T09:31:33Z</time>
      </trkpt>
      <trkpt lat="48.59365" lon="1.96525">
        <ele>127.99</ele>
        <time>2018-06-14T09:31:40Z</time>
      </trkpt>
      <trkpt lat="48.59363" lon="1.96525">
        <ele>127.99</ele>
        <time>2018-06-14T09:31:41Z</time>
      </trkpt>
      <trkpt lat="48.59357" lon="1.9652">
        <ele>127.51</ele>
        <time>2018-06-14T09:31:47Z</time>
      </trkpt>
      <trkpt lat="48.59352" lon="1.96516">
        <ele>127.03</ele>
        <time>2018-06-14T09:31:51Z</time>
      </trkpt>
      <trkpt lat="48.59349" lon="1.96515">
        <ele>126.55</ele>
        <time>2018-06-14T09:31:53Z</time>
      </trkpt>
      <trkpt lat="48.59345" lon="1.96512">
        <ele>126.55</ele>
        <time>2018-06-14T09:31:55Z</time>
      </trkpt>
      <trkpt lat="48.59335" lon="1.96503">
        <ele>126.07</ele>
        <time>2018-06-14T09:32:01Z</time>
      </trkpt>
      <trkpt lat="48.59332" lon="1.965">
        <ele>125.59</ele>
        <time>2018-06-14T09:32:03Z</time>
      </trkpt>
      <trkpt lat="48.59322" lon="1.96492">
        <ele>125.59</ele>
        <time>2018-06-14T09:32:09Z</time>
      </trkpt>
      <trkpt lat="48.59315" lon="1.96485">
        <ele>126.07</ele>
        <time>2018-06-14T09:32:14Z</time>
      </trkpt>
      <trkpt lat="48.59309" lon="1.96482">
        <ele>124.63</ele>
        <time>2018-06-14T09:32:19Z</time>
      </trkpt>
      <trkpt lat="48.593" lon="1.96478">
        <ele>122.71</ele>
        <time>2018-06-14T09:32:27Z</time>
      </trkpt>
      <trkpt lat="48.59296" lon="1.96477">
        <ele>122.71</ele>
        <time>2018-06-14T09:32:30Z</time>
      </trkpt>
      <trkpt lat="48.59294" lon="1.96476">
        <ele>122.22</ele>
        <time>2018-06-14T09:32:32Z</time>
      </trkpt>
      <trkpt lat="48.59285" lon="1.96478">
        <ele>120.3</ele>
        <time>2018-06-14T09:32:40Z</time>
      </trkpt>
      <trkpt lat="48.59281" lon="1.96478">
        <ele>120.3</ele>
        <time>2018-06-14T09:32:43Z</time>
      </trkpt>
      <trkpt lat="48.59273" lon="1.96484">
        <ele>118.38</ele>
        <time>2018-06-14T09:32:51Z</time>
      </trkpt>
      <trkpt lat="48.59264" lon="1.96493">
        <ele>117.42</ele>
        <time>2018-06-14T09:32:58Z</time>
      </trkpt>
      <trkpt lat="48.59263" lon="1.96494">
        <ele>117.42</ele>
        <time>2018-06-14T09:32:59Z</time>
      </trkpt>
      <trkpt lat="48.59261" lon="1.96497">
        <ele>117.42</ele>
        <time>2018-06-14T09:33:01Z</time>
      </trkpt>
      <trkpt lat="48.59255" lon="1.96505">
        <ele>116.94</ele>
        <time>2018-06-14T09:33:05Z</time>
      </trkpt>
      <trkpt lat="48.5925" lon="1.96513">
        <ele>115.98</ele>
        <time>2018-06-14T09:33:10Z</time>
      </trkpt>
      <trkpt lat="48.59239" lon="1.96522">
        <ele>115.01</ele>
        <time>2018-06-14T09:33:19Z</time>
      </trkpt>
      <trkpt lat="48.59233" lon="1.96526">
        <ele>114.05</ele>
        <time>2018-06-14T09:33:23Z</time>
      </trkpt>
      <trkpt lat="48.59226" lon="1.96533">
        <ele>113.57</ele>
        <time>2018-06-14T09:33:28Z</time>
      </trkpt>
      <trkpt lat="48.59215" lon="1.96541">
        <ele>112.61</ele>
        <time>2018-06-14T09:33:35Z</time>
      </trkpt>
      <trkpt lat="48.59208" lon="1.96551">
        <ele>112.13</ele>
        <time>2018-06-14T09:33:43Z</time>
      </trkpt>
      <trkpt lat="48.59202" lon="1.96564">
        <ele>112.13</ele>
        <time>2018-06-14T09:33:50Z</time>
      </trkpt>
      <trkpt lat="48.59192" lon="1.96581">
        <ele>111.65</ele>
        <time>2018-06-14T09:33:59Z</time>
      </trkpt>
      <trkpt lat="48.59186" lon="1.9659">
        <ele>111.65</ele>
        <time>2018-06-14T09:34:06Z</time>
      </trkpt>
      <trkpt lat="48.59184" lon="1.96592">
        <ele>111.17</ele>
        <time>2018-06-14T09:34:09Z</time>
      </trkpt>
      <trkpt lat="48.5918" lon="1.96602">
        <ele>110.69</ele>
        <time>2018-06-14T09:34:17Z</time>
      </trkpt>
      <trkpt lat="48.59178" lon="1.96607">
        <ele>111.17</ele>
        <time>2018-06-14T09:34:23Z</time>
      </trkpt>
      <trkpt lat="48.59175" lon="1.96612">
        <ele>110.69</ele>
        <time>2018-06-14T09:34:31Z</time>
      </trkpt>
      <trkpt lat="48.59174" lon="1.9661">
        <ele>110.69</ele>
        <time>2018-06-14T09:34:36Z</time>
      </trkpt>
      <trkpt lat="48.59174" lon="1.96609">
        <ele>110.69</ele>
        <time>2018-06-14T09:34:44Z</time>
      </trkpt>
      <trkpt lat="48.59173" lon="1.96608">
        <ele>111.17</ele>
        <time>2018-06-14T09:34:53Z</time>
      </trkpt>
      <trkpt lat="48.59173" lon="1.96608">
        <ele>111.17</ele>
        <time>2018-06-14T09:35:00Z</time>
      </trkpt>
      <trkpt lat="48.59172" lon="1.96606">
        <ele>111.65</ele>
        <time>2018-06-14T09:35:12Z</time>
      </trkpt>
      <trkpt lat="48.59172" lon="1.96607">
        <ele>111.65</ele>
        <time>2018-06-14T09:35:21Z</time>
      </trkpt>
      <trkpt lat="48.59172" lon="1.96607">
        <ele>111.65</ele>
        <time>2018-06-14T09:35:34Z</time>
      </trkpt>
    </trkseg>
  </trk>
</gpx>